<?xml version="1.0" encoding="UTF-8" standalone="no" ?>
<gpx xmlns="http://www.topografix.com/GPX/1/1" xmlns:xsi="http://www.w3.org/2001/XMLSchema-instance" xsi:schemaLocation="http://www.topografix.com/GPX/1/1 http://www.topografix.com/GPX/1/1/gpx.xsd" version="1.1" creator="VisuGPX - https://www.visugpx.com">
  <metadata>
    <name>Allos -la colle st Michel 2éme étape</name>
    <desc><![CDATA[06.08.2018]]></desc>
  </metadata>
  <trk>
    <name><![CDATA[9058275-Allos -la colle st Michel 2éme étape]]></name>
    <extensions>
      <line xmlns="http://www.topografix.com/GPX/gpx_style/0/2">
        <color>0000FF</color>
        <width>4</width>
      </line>
    </extensions>
    <trkseg>
      <trkpt lat="44.24048" lon="6.61608">
        <ele>1527</ele>
        <time>2022-06-08T20:47:19Z</time>
      </trkpt>
      <trkpt lat="44.24052" lon="6.61609">
        <ele>1526</ele>
        <time>2022-06-08T20:47:20Z</time>
      </trkpt>
      <trkpt lat="44.24048" lon="6.61606">
        <ele>1527</ele>
        <time>2022-06-08T20:47:21Z</time>
      </trkpt>
      <trkpt lat="44.24051" lon="6.61652">
        <ele>1526</ele>
        <time>2022-06-08T20:47:29Z</time>
      </trkpt>
      <trkpt lat="44.24035" lon="6.61692">
        <ele>1527</ele>
        <time>2022-06-08T20:47:36Z</time>
      </trkpt>
      <trkpt lat="44.24018" lon="6.61721">
        <ele>1529</ele>
        <time>2022-06-08T20:47:43Z</time>
      </trkpt>
      <trkpt lat="44.23992" lon="6.61753">
        <ele>1532</ele>
        <time>2022-06-08T20:47:51Z</time>
      </trkpt>
      <trkpt lat="44.23963" lon="6.61783">
        <ele>1534</ele>
        <time>2022-06-08T20:47:59Z</time>
      </trkpt>
      <trkpt lat="44.23926" lon="6.61814">
        <ele>1536</ele>
        <time>2022-06-08T20:48:09Z</time>
      </trkpt>
      <trkpt lat="44.23887" lon="6.61822">
        <ele>1541</ele>
        <time>2022-06-08T20:48:18Z</time>
      </trkpt>
      <trkpt lat="44.23806" lon="6.61853">
        <ele>1549</ele>
        <time>2022-06-08T20:48:38Z</time>
      </trkpt>
      <trkpt lat="44.2378" lon="6.61871">
        <ele>1551</ele>
        <time>2022-06-08T20:48:45Z</time>
      </trkpt>
      <trkpt lat="44.23755" lon="6.61893">
        <ele>1553</ele>
        <time>2022-06-08T20:48:52Z</time>
      </trkpt>
      <trkpt lat="44.23732" lon="6.61916">
        <ele>1556</ele>
        <time>2022-06-08T20:48:58Z</time>
      </trkpt>
      <trkpt lat="44.23696" lon="6.61961">
        <ele>1561</ele>
        <time>2022-06-08T20:49:10Z</time>
      </trkpt>
      <trkpt lat="44.23685" lon="6.61973">
        <ele>1564</ele>
        <time>2022-06-08T20:49:13Z</time>
      </trkpt>
      <trkpt lat="44.23683" lon="6.61972">
        <ele>1565</ele>
        <time>2022-06-08T20:49:13Z</time>
      </trkpt>
      <trkpt lat="44.2368" lon="6.61967">
        <ele>1567</ele>
        <time>2022-06-08T20:49:15Z</time>
      </trkpt>
      <trkpt lat="44.23681" lon="6.61956">
        <ele>1569</ele>
        <time>2022-06-08T20:49:16Z</time>
      </trkpt>
      <trkpt lat="44.23691" lon="6.61933">
        <ele>1569</ele>
        <time>2022-06-08T20:49:21Z</time>
      </trkpt>
      <trkpt lat="44.23726" lon="6.61883">
        <ele>1565</ele>
        <time>2022-06-08T20:49:33Z</time>
      </trkpt>
      <trkpt lat="44.23738" lon="6.61841">
        <ele>1570</ele>
        <time>2022-06-08T20:49:40Z</time>
      </trkpt>
      <trkpt lat="44.23753" lon="6.61801">
        <ele>1573</ele>
        <time>2022-06-08T20:49:48Z</time>
      </trkpt>
      <trkpt lat="44.23793" lon="6.61751">
        <ele>1575</ele>
        <time>2022-06-08T20:50:00Z</time>
      </trkpt>
      <trkpt lat="44.23798" lon="6.61693">
        <ele>1585</ele>
        <time>2022-06-08T20:50:10Z</time>
      </trkpt>
      <trkpt lat="44.23795" lon="6.61685">
        <ele>1587</ele>
        <time>2022-06-08T20:50:12Z</time>
      </trkpt>
      <trkpt lat="44.23788" lon="6.61685">
        <ele>1589</ele>
        <time>2022-06-08T20:50:13Z</time>
      </trkpt>
      <trkpt lat="44.23784" lon="6.61689">
        <ele>1589</ele>
        <time>2022-06-08T20:50:14Z</time>
      </trkpt>
      <trkpt lat="44.23783" lon="6.61704">
        <ele>1586</ele>
        <time>2022-06-08T20:50:17Z</time>
      </trkpt>
      <trkpt lat="44.23775" lon="6.61742">
        <ele>1581</ele>
        <time>2022-06-08T20:50:23Z</time>
      </trkpt>
      <trkpt lat="44.23733" lon="6.61753">
        <ele>1590</ele>
        <time>2022-06-08T20:50:33Z</time>
      </trkpt>
      <trkpt lat="44.23698" lon="6.61771">
        <ele>1597</ele>
        <time>2022-06-08T20:50:42Z</time>
      </trkpt>
      <trkpt lat="44.23682" lon="6.61786">
        <ele>1599</ele>
        <time>2022-06-08T20:50:47Z</time>
      </trkpt>
      <trkpt lat="44.23661" lon="6.6181">
        <ele>1602</ele>
        <time>2022-06-08T20:50:53Z</time>
      </trkpt>
      <trkpt lat="44.2364" lon="6.61839">
        <ele>1606</ele>
        <time>2022-06-08T20:51:00Z</time>
      </trkpt>
      <trkpt lat="44.23627" lon="6.61862">
        <ele>1608</ele>
        <time>2022-06-08T20:51:05Z</time>
      </trkpt>
      <trkpt lat="44.23611" lon="6.61883">
        <ele>1611</ele>
        <time>2022-06-08T20:51:10Z</time>
      </trkpt>
      <trkpt lat="44.23594" lon="6.61915">
        <ele>1613</ele>
        <time>2022-06-08T20:51:17Z</time>
      </trkpt>
      <trkpt lat="44.23578" lon="6.61936">
        <ele>1617</ele>
        <time>2022-06-08T20:51:22Z</time>
      </trkpt>
      <trkpt lat="44.23574" lon="6.61931">
        <ele>1619</ele>
        <time>2022-06-08T20:51:23Z</time>
      </trkpt>
      <trkpt lat="44.23574" lon="6.61927">
        <ele>1620</ele>
        <time>2022-06-08T20:51:24Z</time>
      </trkpt>
      <trkpt lat="44.2359" lon="6.61882">
        <ele>1620</ele>
        <time>2022-06-08T20:51:32Z</time>
      </trkpt>
      <trkpt lat="44.23618" lon="6.61821">
        <ele>1618</ele>
        <time>2022-06-08T20:51:44Z</time>
      </trkpt>
      <trkpt lat="44.23613" lon="6.61813">
        <ele>1621</ele>
        <time>2022-06-08T20:51:46Z</time>
      </trkpt>
      <trkpt lat="44.23609" lon="6.61815">
        <ele>1623</ele>
        <time>2022-06-08T20:51:47Z</time>
      </trkpt>
      <trkpt lat="44.23575" lon="6.61855">
        <ele>1631</ele>
        <time>2022-06-08T20:51:57Z</time>
      </trkpt>
      <trkpt lat="44.23545" lon="6.61905">
        <ele>1636</ele>
        <time>2022-06-08T20:52:08Z</time>
      </trkpt>
      <trkpt lat="44.23483" lon="6.61983">
        <ele>1649</ele>
        <time>2022-06-08T20:52:28Z</time>
      </trkpt>
      <trkpt lat="44.23444" lon="6.62042">
        <ele>1652</ele>
        <time>2022-06-08T20:52:41Z</time>
      </trkpt>
      <trkpt lat="44.23426" lon="6.62058">
        <ele>1654</ele>
        <time>2022-06-08T20:52:46Z</time>
      </trkpt>
      <trkpt lat="44.23384" lon="6.62086">
        <ele>1661</ele>
        <time>2022-06-08T20:52:57Z</time>
      </trkpt>
      <trkpt lat="44.23363" lon="6.62111">
        <ele>1661</ele>
        <time>2022-06-08T20:53:03Z</time>
      </trkpt>
      <trkpt lat="44.23343" lon="6.62128">
        <ele>1662</ele>
        <time>2022-06-08T20:53:09Z</time>
      </trkpt>
      <trkpt lat="44.23277" lon="6.62159">
        <ele>1659</ele>
        <time>2022-06-08T20:53:25Z</time>
      </trkpt>
      <trkpt lat="44.23276" lon="6.62152">
        <ele>1663</ele>
        <time>2022-06-08T20:53:26Z</time>
      </trkpt>
      <trkpt lat="44.23277" lon="6.62158">
        <ele>1660</ele>
        <time>2022-06-08T20:53:27Z</time>
      </trkpt>
      <trkpt lat="44.23275" lon="6.62155">
        <ele>1661</ele>
        <time>2022-06-08T20:53:28Z</time>
      </trkpt>
      <trkpt lat="44.23272" lon="6.62157">
        <ele>1661</ele>
        <time>2022-06-08T20:53:29Z</time>
      </trkpt>
      <trkpt lat="44.23276" lon="6.62152">
        <ele>1663</ele>
        <time>2022-06-08T20:53:30Z</time>
      </trkpt>
      <trkpt lat="44.23276" lon="6.62157">
        <ele>1660</ele>
        <time>2022-06-08T20:53:31Z</time>
      </trkpt>
      <trkpt lat="44.23256" lon="6.6217">
        <ele>1657</ele>
        <time>2022-06-08T20:53:36Z</time>
      </trkpt>
      <trkpt lat="44.23218" lon="6.62183">
        <ele>1651</ele>
        <time>2022-06-08T20:53:45Z</time>
      </trkpt>
      <trkpt lat="44.23184" lon="6.62176">
        <ele>1650</ele>
        <time>2022-06-08T20:53:53Z</time>
      </trkpt>
      <trkpt lat="44.23147" lon="6.62158">
        <ele>1650</ele>
        <time>2022-06-08T20:54:02Z</time>
      </trkpt>
      <trkpt lat="44.2312" lon="6.62152">
        <ele>1646</ele>
        <time>2022-06-08T20:54:09Z</time>
      </trkpt>
      <trkpt lat="44.23103" lon="6.6211">
        <ele>1657</ele>
        <time>2022-06-08T20:54:17Z</time>
      </trkpt>
      <trkpt lat="44.23077" lon="6.62085">
        <ele>1659</ele>
        <time>2022-06-08T20:54:24Z</time>
      </trkpt>
      <trkpt lat="44.23061" lon="6.62078">
        <ele>1656</ele>
        <time>2022-06-08T20:54:28Z</time>
      </trkpt>
      <trkpt lat="44.23046" lon="6.62086">
        <ele>1647</ele>
        <time>2022-06-08T20:54:32Z</time>
      </trkpt>
      <trkpt lat="44.23026" lon="6.62068">
        <ele>1648</ele>
        <time>2022-06-08T20:54:37Z</time>
      </trkpt>
      <trkpt lat="44.22997" lon="6.62025">
        <ele>1656</ele>
        <time>2022-06-08T20:54:47Z</time>
      </trkpt>
      <trkpt lat="44.22983" lon="6.62013">
        <ele>1654</ele>
        <time>2022-06-08T20:54:51Z</time>
      </trkpt>
      <trkpt lat="44.22965" lon="6.61984">
        <ele>1656</ele>
        <time>2022-06-08T20:54:58Z</time>
      </trkpt>
      <trkpt lat="44.2296" lon="6.61962">
        <ele>1659</ele>
        <time>2022-06-08T20:55:01Z</time>
      </trkpt>
      <trkpt lat="44.22944" lon="6.61917">
        <ele>1663</ele>
        <time>2022-06-08T20:55:10Z</time>
      </trkpt>
      <trkpt lat="44.22935" lon="6.61879">
        <ele>1670</ele>
        <time>2022-06-08T20:55:17Z</time>
      </trkpt>
      <trkpt lat="44.22908" lon="6.61834">
        <ele>1673</ele>
        <time>2022-06-08T20:55:26Z</time>
      </trkpt>
      <trkpt lat="44.22907" lon="6.61821">
        <ele>1676</ele>
        <time>2022-06-08T20:55:29Z</time>
      </trkpt>
      <trkpt lat="44.229" lon="6.61813">
        <ele>1676</ele>
        <time>2022-06-08T20:55:31Z</time>
      </trkpt>
      <trkpt lat="44.22875" lon="6.61805">
        <ele>1670</ele>
        <time>2022-06-08T20:55:37Z</time>
      </trkpt>
      <trkpt lat="44.22851" lon="6.61778">
        <ele>1667</ele>
        <time>2022-06-08T20:55:44Z</time>
      </trkpt>
      <trkpt lat="44.22842" lon="6.61775">
        <ele>1664</ele>
        <time>2022-06-08T20:55:46Z</time>
      </trkpt>
      <trkpt lat="44.2283" lon="6.61775">
        <ele>1662</ele>
        <time>2022-06-08T20:55:49Z</time>
      </trkpt>
      <trkpt lat="44.22832" lon="6.61865">
        <ele>1649</ele>
        <time>2022-06-08T20:56:04Z</time>
      </trkpt>
      <trkpt lat="44.22827" lon="6.61878">
        <ele>1649</ele>
        <time>2022-06-08T20:56:06Z</time>
      </trkpt>
      <trkpt lat="44.22805" lon="6.6191">
        <ele>1652</ele>
        <time>2022-06-08T20:56:14Z</time>
      </trkpt>
      <trkpt lat="44.22801" lon="6.61911">
        <ele>1653</ele>
        <time>2022-06-08T20:56:15Z</time>
      </trkpt>
      <trkpt lat="44.22764" lon="6.6196">
        <ele>1660</ele>
        <time>2022-06-08T20:56:27Z</time>
      </trkpt>
      <trkpt lat="44.22758" lon="6.61963">
        <ele>1662</ele>
        <time>2022-06-08T20:56:28Z</time>
      </trkpt>
      <trkpt lat="44.22739" lon="6.62024">
        <ele>1669</ele>
        <time>2022-06-08T20:56:39Z</time>
      </trkpt>
      <trkpt lat="44.22733" lon="6.62033">
        <ele>1673</ele>
        <time>2022-06-08T20:56:41Z</time>
      </trkpt>
      <trkpt lat="44.22734" lon="6.62058">
        <ele>1672</ele>
        <time>2022-06-08T20:56:46Z</time>
      </trkpt>
      <trkpt lat="44.22724" lon="6.62072">
        <ele>1678</ele>
        <time>2022-06-08T20:56:49Z</time>
      </trkpt>
      <trkpt lat="44.22718" lon="6.62101">
        <ele>1681</ele>
        <time>2022-06-08T20:56:54Z</time>
      </trkpt>
      <trkpt lat="44.22728" lon="6.62201">
        <ele>1678</ele>
        <time>2022-06-08T20:57:11Z</time>
      </trkpt>
      <trkpt lat="44.22722" lon="6.62239">
        <ele>1680</ele>
        <time>2022-06-08T20:57:17Z</time>
      </trkpt>
      <trkpt lat="44.22723" lon="6.6227">
        <ele>1677</ele>
        <time>2022-06-08T20:57:22Z</time>
      </trkpt>
      <trkpt lat="44.22706" lon="6.62306">
        <ele>1676</ele>
        <time>2022-06-08T20:57:30Z</time>
      </trkpt>
      <trkpt lat="44.22671" lon="6.62327">
        <ele>1677</ele>
        <time>2022-06-08T20:57:39Z</time>
      </trkpt>
      <trkpt lat="44.2263" lon="6.6231">
        <ele>1683</ele>
        <time>2022-06-08T20:57:49Z</time>
      </trkpt>
      <trkpt lat="44.22594" lon="6.62277">
        <ele>1698</ele>
        <time>2022-06-08T20:57:59Z</time>
      </trkpt>
      <trkpt lat="44.22574" lon="6.62276">
        <ele>1702</ele>
        <time>2022-06-08T20:58:03Z</time>
      </trkpt>
      <trkpt lat="44.22493" lon="6.62297">
        <ele>1710</ele>
        <time>2022-06-08T20:58:23Z</time>
      </trkpt>
      <trkpt lat="44.22458" lon="6.62285">
        <ele>1721</ele>
        <time>2022-06-08T20:58:31Z</time>
      </trkpt>
      <trkpt lat="44.22442" lon="6.62288">
        <ele>1723</ele>
        <time>2022-06-08T20:58:35Z</time>
      </trkpt>
      <trkpt lat="44.22433" lon="6.62355">
        <ele>1711</ele>
        <time>2022-06-08T20:58:46Z</time>
      </trkpt>
      <trkpt lat="44.22427" lon="6.6238">
        <ele>1709</ele>
        <time>2022-06-08T20:58:51Z</time>
      </trkpt>
      <trkpt lat="44.22409" lon="6.62414">
        <ele>1706</ele>
        <time>2022-06-08T20:58:58Z</time>
      </trkpt>
      <trkpt lat="44.22382" lon="6.62438">
        <ele>1704</ele>
        <time>2022-06-08T20:59:05Z</time>
      </trkpt>
      <trkpt lat="44.22358" lon="6.62447">
        <ele>1705</ele>
        <time>2022-06-08T20:59:11Z</time>
      </trkpt>
      <trkpt lat="44.22315" lon="6.62481">
        <ele>1702</ele>
        <time>2022-06-08T20:59:22Z</time>
      </trkpt>
      <trkpt lat="44.22214" lon="6.62526">
        <ele>1702</ele>
        <time>2022-06-08T20:59:47Z</time>
      </trkpt>
      <trkpt lat="44.22179" lon="6.62538">
        <ele>1701</ele>
        <time>2022-06-08T20:59:56Z</time>
      </trkpt>
      <trkpt lat="44.2213" lon="6.62548">
        <ele>1702</ele>
        <time>2022-06-08T21:00:07Z</time>
      </trkpt>
      <trkpt lat="44.22029" lon="6.62584">
        <ele>1690</ele>
        <time>2022-06-08T21:00:32Z</time>
      </trkpt>
      <trkpt lat="44.22007" lon="6.6258">
        <ele>1692</ele>
        <time>2022-06-08T21:00:37Z</time>
      </trkpt>
      <trkpt lat="44.21969" lon="6.62597">
        <ele>1687</ele>
        <time>2022-06-08T21:00:46Z</time>
      </trkpt>
      <trkpt lat="44.21926" lon="6.626">
        <ele>1686</ele>
        <time>2022-06-08T21:00:56Z</time>
      </trkpt>
      <trkpt lat="44.21897" lon="6.62607">
        <ele>1686</ele>
        <time>2022-06-08T21:01:03Z</time>
      </trkpt>
      <trkpt lat="44.21867" lon="6.62628">
        <ele>1682</ele>
        <time>2022-06-08T21:01:11Z</time>
      </trkpt>
      <trkpt lat="44.2179" lon="6.62673">
        <ele>1675</ele>
        <time>2022-06-08T21:01:30Z</time>
      </trkpt>
      <trkpt lat="44.21755" lon="6.62685">
        <ele>1673</ele>
        <time>2022-06-08T21:01:39Z</time>
      </trkpt>
      <trkpt lat="44.21747" lon="6.62686">
        <ele>1673</ele>
        <time>2022-06-08T21:01:41Z</time>
      </trkpt>
      <trkpt lat="44.21717" lon="6.62681">
        <ele>1674</ele>
        <time>2022-06-08T21:01:48Z</time>
      </trkpt>
      <trkpt lat="44.21713" lon="6.62678">
        <ele>1675</ele>
        <time>2022-06-08T21:01:49Z</time>
      </trkpt>
      <trkpt lat="44.21705" lon="6.62665">
        <ele>1679</ele>
        <time>2022-06-08T21:01:52Z</time>
      </trkpt>
      <trkpt lat="44.21691" lon="6.62631">
        <ele>1689</ele>
        <time>2022-06-08T21:01:58Z</time>
      </trkpt>
      <trkpt lat="44.21687" lon="6.6263">
        <ele>1690</ele>
        <time>2022-06-08T21:01:59Z</time>
      </trkpt>
      <trkpt lat="44.21664" lon="6.62648">
        <ele>1683</ele>
        <time>2022-06-08T21:02:05Z</time>
      </trkpt>
      <trkpt lat="44.21648" lon="6.62655">
        <ele>1683</ele>
        <time>2022-06-08T21:02:09Z</time>
      </trkpt>
      <trkpt lat="44.21639" lon="6.62666">
        <ele>1681</ele>
        <time>2022-06-08T21:02:12Z</time>
      </trkpt>
      <trkpt lat="44.21627" lon="6.62672">
        <ele>1681</ele>
        <time>2022-06-08T21:02:15Z</time>
      </trkpt>
      <trkpt lat="44.21606" lon="6.62689">
        <ele>1679</ele>
        <time>2022-06-08T21:02:21Z</time>
      </trkpt>
      <trkpt lat="44.21577" lon="6.62706">
        <ele>1677</ele>
        <time>2022-06-08T21:02:28Z</time>
      </trkpt>
      <trkpt lat="44.21539" lon="6.62721">
        <ele>1671</ele>
        <time>2022-06-08T21:02:37Z</time>
      </trkpt>
      <trkpt lat="44.21512" lon="6.62718">
        <ele>1672</ele>
        <time>2022-06-08T21:02:44Z</time>
      </trkpt>
      <trkpt lat="44.21478" lon="6.6272">
        <ele>1669</ele>
        <time>2022-06-08T21:02:51Z</time>
      </trkpt>
      <trkpt lat="44.21447" lon="6.62726">
        <ele>1665</ele>
        <time>2022-06-08T21:02:59Z</time>
      </trkpt>
      <trkpt lat="44.21399" lon="6.62716">
        <ele>1666</ele>
        <time>2022-06-08T21:03:10Z</time>
      </trkpt>
      <trkpt lat="44.21343" lon="6.62715">
        <ele>1664</ele>
        <time>2022-06-08T21:03:23Z</time>
      </trkpt>
      <trkpt lat="44.21336" lon="6.62718">
        <ele>1663</ele>
        <time>2022-06-08T21:03:25Z</time>
      </trkpt>
      <trkpt lat="44.21295" lon="6.62719">
        <ele>1660</ele>
        <time>2022-06-08T21:03:34Z</time>
      </trkpt>
      <trkpt lat="44.21272" lon="6.62705">
        <ele>1665</ele>
        <time>2022-06-08T21:03:40Z</time>
      </trkpt>
      <trkpt lat="44.21265" lon="6.62704">
        <ele>1664</ele>
        <time>2022-06-08T21:03:42Z</time>
      </trkpt>
      <trkpt lat="44.21281" lon="6.62738">
        <ele>1653</ele>
        <time>2022-06-08T21:03:49Z</time>
      </trkpt>
      <trkpt lat="44.21284" lon="6.62749">
        <ele>1648</ele>
        <time>2022-06-08T21:03:51Z</time>
      </trkpt>
      <trkpt lat="44.21275" lon="6.62747">
        <ele>1649</ele>
        <time>2022-06-08T21:03:53Z</time>
      </trkpt>
      <trkpt lat="44.2126" lon="6.62749">
        <ele>1648</ele>
        <time>2022-06-08T21:03:56Z</time>
      </trkpt>
      <trkpt lat="44.21253" lon="6.62758">
        <ele>1646</ele>
        <time>2022-06-08T21:03:59Z</time>
      </trkpt>
      <trkpt lat="44.21249" lon="6.6277">
        <ele>1644</ele>
        <time>2022-06-08T21:04:01Z</time>
      </trkpt>
      <trkpt lat="44.21248" lon="6.62797">
        <ele>1637</ele>
        <time>2022-06-08T21:04:05Z</time>
      </trkpt>
      <trkpt lat="44.21245" lon="6.62807">
        <ele>1635</ele>
        <time>2022-06-08T21:04:07Z</time>
      </trkpt>
      <trkpt lat="44.21229" lon="6.62841">
        <ele>1629</ele>
        <time>2022-06-08T21:04:14Z</time>
      </trkpt>
      <trkpt lat="44.21209" lon="6.62861">
        <ele>1627</ele>
        <time>2022-06-08T21:04:20Z</time>
      </trkpt>
      <trkpt lat="44.21221" lon="6.62855">
        <ele>1627</ele>
        <time>2022-06-08T21:04:23Z</time>
      </trkpt>
      <trkpt lat="44.21242" lon="6.62814">
        <ele>1634</ele>
        <time>2022-06-08T21:04:31Z</time>
      </trkpt>
      <trkpt lat="44.21247" lon="6.628">
        <ele>1637</ele>
        <time>2022-06-08T21:04:34Z</time>
      </trkpt>
      <trkpt lat="44.2125" lon="6.62776">
        <ele>1642</ele>
        <time>2022-06-08T21:04:38Z</time>
      </trkpt>
      <trkpt lat="44.21264" lon="6.62831">
        <ele>1629</ele>
        <time>2022-06-08T21:04:48Z</time>
      </trkpt>
      <trkpt lat="44.21261" lon="6.62855">
        <ele>1625</ele>
        <time>2022-06-08T21:04:52Z</time>
      </trkpt>
      <trkpt lat="44.21247" lon="6.62901">
        <ele>1616</ele>
        <time>2022-06-08T21:05:00Z</time>
      </trkpt>
      <trkpt lat="44.21232" lon="6.62927">
        <ele>1612</ele>
        <time>2022-06-08T21:05:06Z</time>
      </trkpt>
      <trkpt lat="44.21221" lon="6.62959">
        <ele>1608</ele>
        <time>2022-06-08T21:05:12Z</time>
      </trkpt>
      <trkpt lat="44.21204" lon="6.63029">
        <ele>1593</ele>
        <time>2022-06-08T21:05:24Z</time>
      </trkpt>
      <trkpt lat="44.21191" lon="6.63046">
        <ele>1589</ele>
        <time>2022-06-08T21:05:28Z</time>
      </trkpt>
      <trkpt lat="44.21143" lon="6.63078">
        <ele>1577</ele>
        <time>2022-06-08T21:05:41Z</time>
      </trkpt>
      <trkpt lat="44.21119" lon="6.63085">
        <ele>1572</ele>
        <time>2022-06-08T21:05:46Z</time>
      </trkpt>
      <trkpt lat="44.21108" lon="6.63084">
        <ele>1572</ele>
        <time>2022-06-08T21:05:49Z</time>
      </trkpt>
      <trkpt lat="44.21088" lon="6.63088">
        <ele>1568</ele>
        <time>2022-06-08T21:05:54Z</time>
      </trkpt>
      <trkpt lat="44.21075" lon="6.63095">
        <ele>1562</ele>
        <time>2022-06-08T21:05:57Z</time>
      </trkpt>
      <trkpt lat="44.21048" lon="6.63097">
        <ele>1552</ele>
        <time>2022-06-08T21:06:03Z</time>
      </trkpt>
      <trkpt lat="44.21057" lon="6.63109">
        <ele>1550</ele>
        <time>2022-06-08T21:06:06Z</time>
      </trkpt>
      <trkpt lat="44.21076" lon="6.63119">
        <ele>1551</ele>
        <time>2022-06-08T21:06:11Z</time>
      </trkpt>
      <trkpt lat="44.21079" lon="6.63118">
        <ele>1553</ele>
        <time>2022-06-08T21:06:11Z</time>
      </trkpt>
      <trkpt lat="44.21075" lon="6.63125">
        <ele>1548</ele>
        <time>2022-06-08T21:06:13Z</time>
      </trkpt>
      <trkpt lat="44.21062" lon="6.63134">
        <ele>1541</ele>
        <time>2022-06-08T21:06:16Z</time>
      </trkpt>
      <trkpt lat="44.21019" lon="6.63124">
        <ele>1533</ele>
        <time>2022-06-08T21:06:27Z</time>
      </trkpt>
      <trkpt lat="44.20994" lon="6.6311">
        <ele>1530</ele>
        <time>2022-06-08T21:06:33Z</time>
      </trkpt>
      <trkpt lat="44.2098" lon="6.63105">
        <ele>1527</ele>
        <time>2022-06-08T21:06:36Z</time>
      </trkpt>
      <trkpt lat="44.20967" lon="6.63093">
        <ele>1525</ele>
        <time>2022-06-08T21:06:40Z</time>
      </trkpt>
      <trkpt lat="44.20962" lon="6.63095">
        <ele>1523</ele>
        <time>2022-06-08T21:06:41Z</time>
      </trkpt>
      <trkpt lat="44.20961" lon="6.63102">
        <ele>1520</ele>
        <time>2022-06-08T21:06:42Z</time>
      </trkpt>
      <trkpt lat="44.20966" lon="6.6311">
        <ele>1520</ele>
        <time>2022-06-08T21:06:44Z</time>
      </trkpt>
      <trkpt lat="44.20963" lon="6.63114">
        <ele>1517</ele>
        <time>2022-06-08T21:06:45Z</time>
      </trkpt>
      <trkpt lat="44.20952" lon="6.63105">
        <ele>1516</ele>
        <time>2022-06-08T21:06:48Z</time>
      </trkpt>
      <trkpt lat="44.20949" lon="6.63091">
        <ele>1519</ele>
        <time>2022-06-08T21:06:50Z</time>
      </trkpt>
      <trkpt lat="44.20944" lon="6.63084">
        <ele>1519</ele>
        <time>2022-06-08T21:06:52Z</time>
      </trkpt>
      <trkpt lat="44.2094" lon="6.63084">
        <ele>1517</ele>
        <time>2022-06-08T21:06:53Z</time>
      </trkpt>
      <trkpt lat="44.20933" lon="6.6309">
        <ele>1513</ele>
        <time>2022-06-08T21:06:55Z</time>
      </trkpt>
      <trkpt lat="44.2091" lon="6.63093">
        <ele>1503</ele>
        <time>2022-06-08T21:07:00Z</time>
      </trkpt>
      <trkpt lat="44.20898" lon="6.63087">
        <ele>1501</ele>
        <time>2022-06-08T21:07:03Z</time>
      </trkpt>
      <trkpt lat="44.2089" lon="6.63088">
        <ele>1498</ele>
        <time>2022-06-08T21:07:05Z</time>
      </trkpt>
      <trkpt lat="44.20828" lon="6.63082">
        <ele>1479</ele>
        <time>2022-06-08T21:07:20Z</time>
      </trkpt>
      <trkpt lat="44.20799" lon="6.63076">
        <ele>1474</ele>
        <time>2022-06-08T21:07:27Z</time>
      </trkpt>
      <trkpt lat="44.20769" lon="6.63081">
        <ele>1465</ele>
        <time>2022-06-08T21:07:34Z</time>
      </trkpt>
      <trkpt lat="44.20731" lon="6.63079">
        <ele>1456</ele>
        <time>2022-06-08T21:07:42Z</time>
      </trkpt>
      <trkpt lat="44.20713" lon="6.63081">
        <ele>1451</ele>
        <time>2022-06-08T21:07:47Z</time>
      </trkpt>
      <trkpt lat="44.20696" lon="6.63092">
        <ele>1444</ele>
        <time>2022-06-08T21:07:51Z</time>
      </trkpt>
      <trkpt lat="44.20685" lon="6.63092">
        <ele>1441</ele>
        <time>2022-06-08T21:07:54Z</time>
      </trkpt>
      <trkpt lat="44.20659" lon="6.63081">
        <ele>1436</ele>
        <time>2022-06-08T21:08:00Z</time>
      </trkpt>
      <trkpt lat="44.20633" lon="6.63046">
        <ele>1437</ele>
        <time>2022-06-08T21:08:08Z</time>
      </trkpt>
      <trkpt lat="44.2063" lon="6.63033">
        <ele>1439</ele>
        <time>2022-06-08T21:08:11Z</time>
      </trkpt>
      <trkpt lat="44.20632" lon="6.63006">
        <ele>1445</ele>
        <time>2022-06-08T21:08:15Z</time>
      </trkpt>
      <trkpt lat="44.20616" lon="6.63007">
        <ele>1441</ele>
        <time>2022-06-08T21:08:19Z</time>
      </trkpt>
      <trkpt lat="44.20591" lon="6.62986">
        <ele>1440</ele>
        <time>2022-06-08T21:08:26Z</time>
      </trkpt>
      <trkpt lat="44.20564" lon="6.62945">
        <ele>1440</ele>
        <time>2022-06-08T21:08:35Z</time>
      </trkpt>
      <trkpt lat="44.20542" lon="6.62946">
        <ele>1433</ele>
        <time>2022-06-08T21:08:40Z</time>
      </trkpt>
      <trkpt lat="44.20536" lon="6.62948">
        <ele>1431</ele>
        <time>2022-06-08T21:08:42Z</time>
      </trkpt>
      <trkpt lat="44.20523" lon="6.6296">
        <ele>1426</ele>
        <time>2022-06-08T21:08:45Z</time>
      </trkpt>
      <trkpt lat="44.20541" lon="6.62998">
        <ele>1425</ele>
        <time>2022-06-08T21:08:53Z</time>
      </trkpt>
      <trkpt lat="44.20584" lon="6.63064">
        <ele>1419</ele>
        <time>2022-06-08T21:09:08Z</time>
      </trkpt>
      <trkpt lat="44.20592" lon="6.63081">
        <ele>1417</ele>
        <time>2022-06-08T21:09:11Z</time>
      </trkpt>
      <trkpt lat="44.2061" lon="6.63144">
        <ele>1409</ele>
        <time>2022-06-08T21:09:23Z</time>
      </trkpt>
      <trkpt lat="44.20619" lon="6.63196">
        <ele>1403</ele>
        <time>2022-06-08T21:09:32Z</time>
      </trkpt>
      <trkpt lat="44.20623" lon="6.63225">
        <ele>1400</ele>
        <time>2022-06-08T21:09:37Z</time>
      </trkpt>
      <trkpt lat="44.2062" lon="6.63242">
        <ele>1397</ele>
        <time>2022-06-08T21:09:40Z</time>
      </trkpt>
      <trkpt lat="44.20615" lon="6.63246">
        <ele>1395</ele>
        <time>2022-06-08T21:09:41Z</time>
      </trkpt>
      <trkpt lat="44.20609" lon="6.63248">
        <ele>1393</ele>
        <time>2022-06-08T21:09:42Z</time>
      </trkpt>
      <trkpt lat="44.20602" lon="6.63245">
        <ele>1392</ele>
        <time>2022-06-08T21:09:44Z</time>
      </trkpt>
      <trkpt lat="44.20552" lon="6.63154">
        <ele>1391</ele>
        <time>2022-06-08T21:10:03Z</time>
      </trkpt>
      <trkpt lat="44.20535" lon="6.63135">
        <ele>1391</ele>
        <time>2022-06-08T21:10:08Z</time>
      </trkpt>
      <trkpt lat="44.20528" lon="6.63131">
        <ele>1390</ele>
        <time>2022-06-08T21:10:10Z</time>
      </trkpt>
      <trkpt lat="44.20504" lon="6.63126">
        <ele>1384</ele>
        <time>2022-06-08T21:10:16Z</time>
      </trkpt>
      <trkpt lat="44.20465" lon="6.631">
        <ele>1387</ele>
        <time>2022-06-08T21:10:26Z</time>
      </trkpt>
      <trkpt lat="44.20457" lon="6.63097">
        <ele>1388</ele>
        <time>2022-06-08T21:10:28Z</time>
      </trkpt>
      <trkpt lat="44.20407" lon="6.6309">
        <ele>1390</ele>
        <time>2022-06-08T21:10:39Z</time>
      </trkpt>
      <trkpt lat="44.2038" lon="6.63098">
        <ele>1390</ele>
        <time>2022-06-08T21:10:46Z</time>
      </trkpt>
      <trkpt lat="44.20351" lon="6.63111">
        <ele>1389</ele>
        <time>2022-06-08T21:10:53Z</time>
      </trkpt>
      <trkpt lat="44.20303" lon="6.63141">
        <ele>1380</ele>
        <time>2022-06-08T21:11:05Z</time>
      </trkpt>
      <trkpt lat="44.20293" lon="6.63145">
        <ele>1379</ele>
        <time>2022-06-08T21:11:08Z</time>
      </trkpt>
      <trkpt lat="44.20276" lon="6.63147">
        <ele>1378</ele>
        <time>2022-06-08T21:11:12Z</time>
      </trkpt>
      <trkpt lat="44.2023" lon="6.63141">
        <ele>1377</ele>
        <time>2022-06-08T21:11:23Z</time>
      </trkpt>
      <trkpt lat="44.20151" lon="6.63114">
        <ele>1375</ele>
        <time>2022-06-08T21:11:42Z</time>
      </trkpt>
      <trkpt lat="44.20123" lon="6.63123">
        <ele>1371</ele>
        <time>2022-06-08T21:11:48Z</time>
      </trkpt>
      <trkpt lat="44.20112" lon="6.63124">
        <ele>1370</ele>
        <time>2022-06-08T21:11:51Z</time>
      </trkpt>
      <trkpt lat="44.20115" lon="6.63151">
        <ele>1366</ele>
        <time>2022-06-08T21:11:55Z</time>
      </trkpt>
      <trkpt lat="44.2011" lon="6.63172">
        <ele>1362</ele>
        <time>2022-06-08T21:11:59Z</time>
      </trkpt>
      <trkpt lat="44.20107" lon="6.63209">
        <ele>1357</ele>
        <time>2022-06-08T21:12:05Z</time>
      </trkpt>
      <trkpt lat="44.20109" lon="6.63239">
        <ele>1354</ele>
        <time>2022-06-08T21:12:10Z</time>
      </trkpt>
      <trkpt lat="44.2012" lon="6.63276">
        <ele>1349</ele>
        <time>2022-06-08T21:12:17Z</time>
      </trkpt>
      <trkpt lat="44.20118" lon="6.63279">
        <ele>1349</ele>
        <time>2022-06-08T21:12:18Z</time>
      </trkpt>
      <trkpt lat="44.20114" lon="6.63281">
        <ele>1349</ele>
        <time>2022-06-08T21:12:19Z</time>
      </trkpt>
      <trkpt lat="44.20098" lon="6.63278">
        <ele>1349</ele>
        <time>2022-06-08T21:12:23Z</time>
      </trkpt>
      <trkpt lat="44.20062" lon="6.63278">
        <ele>1347</ele>
        <time>2022-06-08T21:12:31Z</time>
      </trkpt>
      <trkpt lat="44.20025" lon="6.6329">
        <ele>1342</ele>
        <time>2022-06-08T21:12:40Z</time>
      </trkpt>
      <trkpt lat="44.19944" lon="6.63309">
        <ele>1340</ele>
        <time>2022-06-08T21:12:59Z</time>
      </trkpt>
      <trkpt lat="44.19917" lon="6.63321">
        <ele>1339</ele>
        <time>2022-06-08T21:13:06Z</time>
      </trkpt>
      <trkpt lat="44.19891" lon="6.63337">
        <ele>1336</ele>
        <time>2022-06-08T21:13:12Z</time>
      </trkpt>
      <trkpt lat="44.19816" lon="6.63355">
        <ele>1327</ele>
        <time>2022-06-08T21:13:30Z</time>
      </trkpt>
      <trkpt lat="44.19802" lon="6.63357">
        <ele>1325</ele>
        <time>2022-06-08T21:13:33Z</time>
      </trkpt>
      <trkpt lat="44.19774" lon="6.63352">
        <ele>1322</ele>
        <time>2022-06-08T21:13:40Z</time>
      </trkpt>
      <trkpt lat="44.19752" lon="6.63359">
        <ele>1319</ele>
        <time>2022-06-08T21:13:45Z</time>
      </trkpt>
      <trkpt lat="44.19725" lon="6.63359">
        <ele>1315</ele>
        <time>2022-06-08T21:13:51Z</time>
      </trkpt>
      <trkpt lat="44.19711" lon="6.63356">
        <ele>1313</ele>
        <time>2022-06-08T21:13:55Z</time>
      </trkpt>
      <trkpt lat="44.19685" lon="6.63361">
        <ele>1309</ele>
        <time>2022-06-08T21:14:01Z</time>
      </trkpt>
      <trkpt lat="44.19667" lon="6.63358">
        <ele>1306</ele>
        <time>2022-06-08T21:14:05Z</time>
      </trkpt>
      <trkpt lat="44.19608" lon="6.6331">
        <ele>1309</ele>
        <time>2022-06-08T21:14:21Z</time>
      </trkpt>
      <trkpt lat="44.19578" lon="6.63294">
        <ele>1309</ele>
        <time>2022-06-08T21:14:29Z</time>
      </trkpt>
      <trkpt lat="44.1955" lon="6.63265">
        <ele>1309</ele>
        <time>2022-06-08T21:14:37Z</time>
      </trkpt>
      <trkpt lat="44.19546" lon="6.63264">
        <ele>1309</ele>
        <time>2022-06-08T21:14:38Z</time>
      </trkpt>
      <trkpt lat="44.19539" lon="6.63268">
        <ele>1307</ele>
        <time>2022-06-08T21:14:39Z</time>
      </trkpt>
      <trkpt lat="44.19529" lon="6.63267">
        <ele>1306</ele>
        <time>2022-06-08T21:14:42Z</time>
      </trkpt>
      <trkpt lat="44.19504" lon="6.6325">
        <ele>1305</ele>
        <time>2022-06-08T21:14:48Z</time>
      </trkpt>
      <trkpt lat="44.19449" lon="6.63219">
        <ele>1302</ele>
        <time>2022-06-08T21:15:02Z</time>
      </trkpt>
      <trkpt lat="44.19429" lon="6.63197">
        <ele>1302</ele>
        <time>2022-06-08T21:15:08Z</time>
      </trkpt>
      <trkpt lat="44.19422" lon="6.63193">
        <ele>1302</ele>
        <time>2022-06-08T21:15:10Z</time>
      </trkpt>
      <trkpt lat="44.19394" lon="6.63185">
        <ele>1300</ele>
        <time>2022-06-08T21:15:17Z</time>
      </trkpt>
      <trkpt lat="44.1938" lon="6.63183">
        <ele>1299</ele>
        <time>2022-06-08T21:15:20Z</time>
      </trkpt>
      <trkpt lat="44.19366" lon="6.63187">
        <ele>1297</ele>
        <time>2022-06-08T21:15:23Z</time>
      </trkpt>
      <trkpt lat="44.19332" lon="6.63179">
        <ele>1295</ele>
        <time>2022-06-08T21:15:31Z</time>
      </trkpt>
      <trkpt lat="44.19318" lon="6.63187">
        <ele>1294</ele>
        <time>2022-06-08T21:15:35Z</time>
      </trkpt>
      <trkpt lat="44.19304" lon="6.6318">
        <ele>1294</ele>
        <time>2022-06-08T21:15:38Z</time>
      </trkpt>
      <trkpt lat="44.1928" lon="6.6318">
        <ele>1293</ele>
        <time>2022-06-08T21:15:44Z</time>
      </trkpt>
      <trkpt lat="44.19215" lon="6.63189">
        <ele>1291</ele>
        <time>2022-06-08T21:15:59Z</time>
      </trkpt>
      <trkpt lat="44.1915" lon="6.63173">
        <ele>1293</ele>
        <time>2022-06-08T21:16:14Z</time>
      </trkpt>
      <trkpt lat="44.19098" lon="6.63177">
        <ele>1294</ele>
        <time>2022-06-08T21:16:27Z</time>
      </trkpt>
      <trkpt lat="44.19085" lon="6.63182">
        <ele>1293</ele>
        <time>2022-06-08T21:16:30Z</time>
      </trkpt>
      <trkpt lat="44.19068" lon="6.63196">
        <ele>1292</ele>
        <time>2022-06-08T21:16:34Z</time>
      </trkpt>
      <trkpt lat="44.1901" lon="6.63231">
        <ele>1288</ele>
        <time>2022-06-08T21:16:49Z</time>
      </trkpt>
      <trkpt lat="44.1897" lon="6.63249">
        <ele>1288</ele>
        <time>2022-06-08T21:16:59Z</time>
      </trkpt>
      <trkpt lat="44.18902" lon="6.63287">
        <ele>1286</ele>
        <time>2022-06-08T21:17:16Z</time>
      </trkpt>
      <trkpt lat="44.18864" lon="6.63263">
        <ele>1287</ele>
        <time>2022-06-08T21:17:26Z</time>
      </trkpt>
      <trkpt lat="44.18851" lon="6.63247">
        <ele>1288</ele>
        <time>2022-06-08T21:17:30Z</time>
      </trkpt>
      <trkpt lat="44.18769" lon="6.63164">
        <ele>1292</ele>
        <time>2022-06-08T21:17:54Z</time>
      </trkpt>
      <trkpt lat="44.18752" lon="6.63152">
        <ele>1293</ele>
        <time>2022-06-08T21:17:58Z</time>
      </trkpt>
      <trkpt lat="44.18738" lon="6.63129">
        <ele>1301</ele>
        <time>2022-06-08T21:18:03Z</time>
      </trkpt>
      <trkpt lat="44.18734" lon="6.63126">
        <ele>1302</ele>
        <time>2022-06-08T21:18:04Z</time>
      </trkpt>
      <trkpt lat="44.18684" lon="6.63149">
        <ele>1292</ele>
        <time>2022-06-08T21:18:16Z</time>
      </trkpt>
      <trkpt lat="44.18674" lon="6.63159">
        <ele>1288</ele>
        <time>2022-06-08T21:18:19Z</time>
      </trkpt>
      <trkpt lat="44.18666" lon="6.63175">
        <ele>1287</ele>
        <time>2022-06-08T21:18:23Z</time>
      </trkpt>
      <trkpt lat="44.18662" lon="6.63177">
        <ele>1287</ele>
        <time>2022-06-08T21:18:24Z</time>
      </trkpt>
      <trkpt lat="44.18647" lon="6.63176">
        <ele>1286</ele>
        <time>2022-06-08T21:18:27Z</time>
      </trkpt>
      <trkpt lat="44.18615" lon="6.63166">
        <ele>1282</ele>
        <time>2022-06-08T21:18:35Z</time>
      </trkpt>
      <trkpt lat="44.18542" lon="6.63178">
        <ele>1285</ele>
        <time>2022-06-08T21:18:52Z</time>
      </trkpt>
      <trkpt lat="44.18447" lon="6.6318">
        <ele>1291</ele>
        <time>2022-06-08T21:19:14Z</time>
      </trkpt>
      <trkpt lat="44.18431" lon="6.63174">
        <ele>1290</ele>
        <time>2022-06-08T21:19:18Z</time>
      </trkpt>
      <trkpt lat="44.18421" lon="6.63166">
        <ele>1287</ele>
        <time>2022-06-08T21:19:21Z</time>
      </trkpt>
      <trkpt lat="44.18411" lon="6.63153">
        <ele>1285</ele>
        <time>2022-06-08T21:19:24Z</time>
      </trkpt>
      <trkpt lat="44.18378" lon="6.63051">
        <ele>1269</ele>
        <time>2022-06-08T21:19:43Z</time>
      </trkpt>
      <trkpt lat="44.18363" lon="6.63014">
        <ele>1268</ele>
        <time>2022-06-08T21:19:50Z</time>
      </trkpt>
      <trkpt lat="44.1835" lon="6.62997">
        <ele>1268</ele>
        <time>2022-06-08T21:19:54Z</time>
      </trkpt>
      <trkpt lat="44.18347" lon="6.62988">
        <ele>1268</ele>
        <time>2022-06-08T21:19:55Z</time>
      </trkpt>
      <trkpt lat="44.18345" lon="6.62987">
        <ele>1268</ele>
        <time>2022-06-08T21:19:56Z</time>
      </trkpt>
      <trkpt lat="44.18344" lon="6.62992">
        <ele>1269</ele>
        <time>2022-06-08T21:19:57Z</time>
      </trkpt>
      <trkpt lat="44.18347" lon="6.62993">
        <ele>1268</ele>
        <time>2022-06-08T21:19:58Z</time>
      </trkpt>
      <trkpt lat="44.18348" lon="6.62997">
        <ele>1269</ele>
        <time>2022-06-08T21:19:58Z</time>
      </trkpt>
      <trkpt lat="44.18337" lon="6.62996">
        <ele>1269</ele>
        <time>2022-06-08T21:20:01Z</time>
      </trkpt>
      <trkpt lat="44.18319" lon="6.62974">
        <ele>1267</ele>
        <time>2022-06-08T21:20:06Z</time>
      </trkpt>
      <trkpt lat="44.18294" lon="6.62936">
        <ele>1261</ele>
        <time>2022-06-08T21:20:15Z</time>
      </trkpt>
      <trkpt lat="44.18278" lon="6.62863">
        <ele>1255</ele>
        <time>2022-06-08T21:20:28Z</time>
      </trkpt>
      <trkpt lat="44.18276" lon="6.62827">
        <ele>1254</ele>
        <time>2022-06-08T21:20:34Z</time>
      </trkpt>
      <trkpt lat="44.18278" lon="6.6281">
        <ele>1254</ele>
        <time>2022-06-08T21:20:37Z</time>
      </trkpt>
      <trkpt lat="44.18273" lon="6.62795">
        <ele>1253</ele>
        <time>2022-06-08T21:20:40Z</time>
      </trkpt>
      <trkpt lat="44.18267" lon="6.62789">
        <ele>1252</ele>
        <time>2022-06-08T21:20:41Z</time>
      </trkpt>
      <trkpt lat="44.18215" lon="6.62759">
        <ele>1249</ele>
        <time>2022-06-08T21:20:54Z</time>
      </trkpt>
      <trkpt lat="44.1821" lon="6.62758">
        <ele>1249</ele>
        <time>2022-06-08T21:20:56Z</time>
      </trkpt>
      <trkpt lat="44.18133" lon="6.62774">
        <ele>1247</ele>
        <time>2022-06-08T21:21:14Z</time>
      </trkpt>
      <trkpt lat="44.18125" lon="6.6277">
        <ele>1247</ele>
        <time>2022-06-08T21:21:16Z</time>
      </trkpt>
      <trkpt lat="44.18094" lon="6.62738">
        <ele>1248</ele>
        <time>2022-06-08T21:21:25Z</time>
      </trkpt>
      <trkpt lat="44.18093" lon="6.62741">
        <ele>1248</ele>
        <time>2022-06-08T21:21:25Z</time>
      </trkpt>
      <trkpt lat="44.18097" lon="6.62751">
        <ele>1248</ele>
        <time>2022-06-08T21:21:27Z</time>
      </trkpt>
      <trkpt lat="44.18094" lon="6.62751">
        <ele>1248</ele>
        <time>2022-06-08T21:21:28Z</time>
      </trkpt>
      <trkpt lat="44.18096" lon="6.62745">
        <ele>1248</ele>
        <time>2022-06-08T21:21:29Z</time>
      </trkpt>
      <trkpt lat="44.1808" lon="6.6271">
        <ele>1249</ele>
        <time>2022-06-08T21:21:36Z</time>
      </trkpt>
      <trkpt lat="44.18068" lon="6.62655">
        <ele>1249</ele>
        <time>2022-06-08T21:21:46Z</time>
      </trkpt>
      <trkpt lat="44.1806" lon="6.62589">
        <ele>1246</ele>
        <time>2022-06-08T21:21:57Z</time>
      </trkpt>
      <trkpt lat="44.18068" lon="6.62587">
        <ele>1246</ele>
        <time>2022-06-08T21:21:59Z</time>
      </trkpt>
      <trkpt lat="44.18067" lon="6.62592">
        <ele>1246</ele>
        <time>2022-06-08T21:22:00Z</time>
      </trkpt>
      <trkpt lat="44.18058" lon="6.6259">
        <ele>1246</ele>
        <time>2022-06-08T21:22:02Z</time>
      </trkpt>
      <trkpt lat="44.18057" lon="6.62592">
        <ele>1246</ele>
        <time>2022-06-08T21:22:02Z</time>
      </trkpt>
      <trkpt lat="44.18058" lon="6.6259">
        <ele>1246</ele>
        <time>2022-06-08T21:22:03Z</time>
      </trkpt>
      <trkpt lat="44.18057" lon="6.62592">
        <ele>1246</ele>
        <time>2022-06-08T21:22:03Z</time>
      </trkpt>
      <trkpt lat="44.18054" lon="6.62589">
        <ele>1246</ele>
        <time>2022-06-08T21:22:04Z</time>
      </trkpt>
      <trkpt lat="44.18058" lon="6.62588">
        <ele>1246</ele>
        <time>2022-06-08T21:22:05Z</time>
      </trkpt>
      <trkpt lat="44.18059" lon="6.62592">
        <ele>1246</ele>
        <time>2022-06-08T21:22:05Z</time>
      </trkpt>
      <trkpt lat="44.18062" lon="6.62593">
        <ele>1246</ele>
        <time>2022-06-08T21:22:06Z</time>
      </trkpt>
      <trkpt lat="44.18056" lon="6.62587">
        <ele>1246</ele>
        <time>2022-06-08T21:22:08Z</time>
      </trkpt>
      <trkpt lat="44.18053" lon="6.62589">
        <ele>1246</ele>
        <time>2022-06-08T21:22:09Z</time>
      </trkpt>
      <trkpt lat="44.18059" lon="6.62594">
        <ele>1246</ele>
        <time>2022-06-08T21:22:10Z</time>
      </trkpt>
      <trkpt lat="44.18058" lon="6.62588">
        <ele>1246</ele>
        <time>2022-06-08T21:22:11Z</time>
      </trkpt>
      <trkpt lat="44.18061" lon="6.6259">
        <ele>1246</ele>
        <time>2022-06-08T21:22:12Z</time>
      </trkpt>
      <trkpt lat="44.18063" lon="6.62586">
        <ele>1246</ele>
        <time>2022-06-08T21:22:13Z</time>
      </trkpt>
      <trkpt lat="44.18056" lon="6.62592">
        <ele>1246</ele>
        <time>2022-06-08T21:22:15Z</time>
      </trkpt>
      <trkpt lat="44.18062" lon="6.62589">
        <ele>1246</ele>
        <time>2022-06-08T21:22:16Z</time>
      </trkpt>
      <trkpt lat="44.18053" lon="6.62599">
        <ele>1246</ele>
        <time>2022-06-08T21:22:19Z</time>
      </trkpt>
      <trkpt lat="44.18053" lon="6.62614">
        <ele>1246</ele>
        <time>2022-06-08T21:22:22Z</time>
      </trkpt>
      <trkpt lat="44.18071" lon="6.62696">
        <ele>1249</ele>
        <time>2022-06-08T21:22:36Z</time>
      </trkpt>
      <trkpt lat="44.18092" lon="6.62738">
        <ele>1248</ele>
        <time>2022-06-08T21:22:45Z</time>
      </trkpt>
      <trkpt lat="44.18099" lon="6.62746">
        <ele>1248</ele>
        <time>2022-06-08T21:22:47Z</time>
      </trkpt>
      <trkpt lat="44.18099" lon="6.62743">
        <ele>1248</ele>
        <time>2022-06-08T21:22:47Z</time>
      </trkpt>
      <trkpt lat="44.18097" lon="6.62745">
        <ele>1248</ele>
        <time>2022-06-08T21:22:48Z</time>
      </trkpt>
      <trkpt lat="44.1808" lon="6.62722">
        <ele>1249</ele>
        <time>2022-06-08T21:22:53Z</time>
      </trkpt>
      <trkpt lat="44.18065" lon="6.62647">
        <ele>1248</ele>
        <time>2022-06-08T21:23:06Z</time>
      </trkpt>
      <trkpt lat="44.18053" lon="6.62604">
        <ele>1246</ele>
        <time>2022-06-08T21:23:14Z</time>
      </trkpt>
      <trkpt lat="44.18047" lon="6.62594">
        <ele>1246</ele>
        <time>2022-06-08T21:23:16Z</time>
      </trkpt>
      <trkpt lat="44.18033" lon="6.62588">
        <ele>1245</ele>
        <time>2022-06-08T21:23:20Z</time>
      </trkpt>
      <trkpt lat="44.17976" lon="6.62572">
        <ele>1242</ele>
        <time>2022-06-08T21:23:33Z</time>
      </trkpt>
      <trkpt lat="44.17972" lon="6.62568">
        <ele>1242</ele>
        <time>2022-06-08T21:23:34Z</time>
      </trkpt>
      <trkpt lat="44.17965" lon="6.62558">
        <ele>1242</ele>
        <time>2022-06-08T21:23:37Z</time>
      </trkpt>
      <trkpt lat="44.17957" lon="6.62539">
        <ele>1241</ele>
        <time>2022-06-08T21:23:40Z</time>
      </trkpt>
      <trkpt lat="44.17954" lon="6.62517">
        <ele>1240</ele>
        <time>2022-06-08T21:23:44Z</time>
      </trkpt>
      <trkpt lat="44.1796" lon="6.6249">
        <ele>1240</ele>
        <time>2022-06-08T21:23:49Z</time>
      </trkpt>
      <trkpt lat="44.17958" lon="6.62489">
        <ele>1240</ele>
        <time>2022-06-08T21:23:49Z</time>
      </trkpt>
      <trkpt lat="44.17953" lon="6.62492">
        <ele>1240</ele>
        <time>2022-06-08T21:23:51Z</time>
      </trkpt>
      <trkpt lat="44.17941" lon="6.62513">
        <ele>1239</ele>
        <time>2022-06-08T21:23:55Z</time>
      </trkpt>
      <trkpt lat="44.17944" lon="6.62505">
        <ele>1239</ele>
        <time>2022-06-08T21:23:57Z</time>
      </trkpt>
      <trkpt lat="44.17943" lon="6.62491">
        <ele>1239</ele>
        <time>2022-06-08T21:23:59Z</time>
      </trkpt>
      <trkpt lat="44.1794" lon="6.62491">
        <ele>1239</ele>
        <time>2022-06-08T21:24:00Z</time>
      </trkpt>
      <trkpt lat="44.17943" lon="6.62494">
        <ele>1239</ele>
        <time>2022-06-08T21:24:01Z</time>
      </trkpt>
      <trkpt lat="44.17941" lon="6.62496">
        <ele>1239</ele>
        <time>2022-06-08T21:24:01Z</time>
      </trkpt>
      <trkpt lat="44.17938" lon="6.6249">
        <ele>1238</ele>
        <time>2022-06-08T21:24:02Z</time>
      </trkpt>
      <trkpt lat="44.17943" lon="6.62491">
        <ele>1239</ele>
        <time>2022-06-08T21:24:04Z</time>
      </trkpt>
      <trkpt lat="44.17944" lon="6.62489">
        <ele>1239</ele>
        <time>2022-06-08T21:24:04Z</time>
      </trkpt>
      <trkpt lat="44.17941" lon="6.62497">
        <ele>1239</ele>
        <time>2022-06-08T21:24:05Z</time>
      </trkpt>
      <trkpt lat="44.1794" lon="6.62494">
        <ele>1239</ele>
        <time>2022-06-08T21:24:06Z</time>
      </trkpt>
      <trkpt lat="44.17943" lon="6.62492">
        <ele>1239</ele>
        <time>2022-06-08T21:24:07Z</time>
      </trkpt>
      <trkpt lat="44.17941" lon="6.62491">
        <ele>1239</ele>
        <time>2022-06-08T21:24:07Z</time>
      </trkpt>
      <trkpt lat="44.17952" lon="6.6251">
        <ele>1240</ele>
        <time>2022-06-08T21:24:11Z</time>
      </trkpt>
      <trkpt lat="44.17958" lon="6.625">
        <ele>1240</ele>
        <time>2022-06-08T21:24:14Z</time>
      </trkpt>
      <trkpt lat="44.17957" lon="6.6249">
        <ele>1240</ele>
        <time>2022-06-08T21:24:15Z</time>
      </trkpt>
      <trkpt lat="44.17955" lon="6.62494">
        <ele>1240</ele>
        <time>2022-06-08T21:24:16Z</time>
      </trkpt>
      <trkpt lat="44.17954" lon="6.62479">
        <ele>1239</ele>
        <time>2022-06-08T21:24:19Z</time>
      </trkpt>
      <trkpt lat="44.17969" lon="6.62443">
        <ele>1239</ele>
        <time>2022-06-08T21:24:26Z</time>
      </trkpt>
      <trkpt lat="44.18007" lon="6.62396">
        <ele>1240</ele>
        <time>2022-06-08T21:24:37Z</time>
      </trkpt>
      <trkpt lat="44.18008" lon="6.62301">
        <ele>1239</ele>
        <time>2022-06-08T21:24:53Z</time>
      </trkpt>
      <trkpt lat="44.18015" lon="6.62208">
        <ele>1246</ele>
        <time>2022-06-08T21:25:09Z</time>
      </trkpt>
      <trkpt lat="44.18009" lon="6.62184">
        <ele>1246</ele>
        <time>2022-06-08T21:25:13Z</time>
      </trkpt>
      <trkpt lat="44.17969" lon="6.62085">
        <ele>1249</ele>
        <time>2022-06-08T21:25:32Z</time>
      </trkpt>
      <trkpt lat="44.17902" lon="6.61977">
        <ele>1236</ele>
        <time>2022-06-08T21:25:56Z</time>
      </trkpt>
      <trkpt lat="44.17824" lon="6.61884">
        <ele>1234</ele>
        <time>2022-06-08T21:26:20Z</time>
      </trkpt>
      <trkpt lat="44.17737" lon="6.61828">
        <ele>1232</ele>
        <time>2022-06-08T21:26:43Z</time>
      </trkpt>
      <trkpt lat="44.17627" lon="6.61793">
        <ele>1233</ele>
        <time>2022-06-08T21:27:09Z</time>
      </trkpt>
      <trkpt lat="44.17573" lon="6.61747">
        <ele>1232</ele>
        <time>2022-06-08T21:27:24Z</time>
      </trkpt>
      <trkpt lat="44.17571" lon="6.61751">
        <ele>1231</ele>
        <time>2022-06-08T21:27:24Z</time>
      </trkpt>
      <trkpt lat="44.17607" lon="6.61784">
        <ele>1232</ele>
        <time>2022-06-08T21:27:35Z</time>
      </trkpt>
      <trkpt lat="44.17603" lon="6.61791">
        <ele>1230</ele>
        <time>2022-06-08T21:27:36Z</time>
      </trkpt>
      <trkpt lat="44.17591" lon="6.61789">
        <ele>1229</ele>
        <time>2022-06-08T21:27:39Z</time>
      </trkpt>
      <trkpt lat="44.17573" lon="6.61781">
        <ele>1228</ele>
        <time>2022-06-08T21:27:43Z</time>
      </trkpt>
      <trkpt lat="44.17522" lon="6.61765">
        <ele>1225</ele>
        <time>2022-06-08T21:27:55Z</time>
      </trkpt>
      <trkpt lat="44.17471" lon="6.61733">
        <ele>1223</ele>
        <time>2022-06-08T21:28:09Z</time>
      </trkpt>
      <trkpt lat="44.17465" lon="6.61732">
        <ele>1223</ele>
        <time>2022-06-08T21:28:10Z</time>
      </trkpt>
      <trkpt lat="44.17443" lon="6.61737">
        <ele>1221</ele>
        <time>2022-06-08T21:28:15Z</time>
      </trkpt>
      <trkpt lat="44.1742" lon="6.61756">
        <ele>1219</ele>
        <time>2022-06-08T21:28:21Z</time>
      </trkpt>
      <trkpt lat="44.1741" lon="6.61772">
        <ele>1219</ele>
        <time>2022-06-08T21:28:25Z</time>
      </trkpt>
      <trkpt lat="44.17398" lon="6.618">
        <ele>1219</ele>
        <time>2022-06-08T21:28:30Z</time>
      </trkpt>
      <trkpt lat="44.17389" lon="6.61809">
        <ele>1219</ele>
        <time>2022-06-08T21:28:33Z</time>
      </trkpt>
      <trkpt lat="44.1738" lon="6.61808">
        <ele>1218</ele>
        <time>2022-06-08T21:28:35Z</time>
      </trkpt>
      <trkpt lat="44.17326" lon="6.61813">
        <ele>1218</ele>
        <time>2022-06-08T21:28:48Z</time>
      </trkpt>
      <trkpt lat="44.17288" lon="6.61819">
        <ele>1221</ele>
        <time>2022-06-08T21:28:57Z</time>
      </trkpt>
      <trkpt lat="44.17274" lon="6.61814">
        <ele>1221</ele>
        <time>2022-06-08T21:29:00Z</time>
      </trkpt>
      <trkpt lat="44.17248" lon="6.61799">
        <ele>1221</ele>
        <time>2022-06-08T21:29:07Z</time>
      </trkpt>
      <trkpt lat="44.17207" lon="6.61783">
        <ele>1221</ele>
        <time>2022-06-08T21:29:17Z</time>
      </trkpt>
      <trkpt lat="44.17148" lon="6.61784">
        <ele>1223</ele>
        <time>2022-06-08T21:29:30Z</time>
      </trkpt>
      <trkpt lat="44.17118" lon="6.61797">
        <ele>1227</ele>
        <time>2022-06-08T21:29:38Z</time>
      </trkpt>
      <trkpt lat="44.17084" lon="6.61818">
        <ele>1232</ele>
        <time>2022-06-08T21:29:46Z</time>
      </trkpt>
      <trkpt lat="44.17041" lon="6.61809">
        <ele>1238</ele>
        <time>2022-06-08T21:29:57Z</time>
      </trkpt>
      <trkpt lat="44.17007" lon="6.61786">
        <ele>1238</ele>
        <time>2022-06-08T21:30:05Z</time>
      </trkpt>
      <trkpt lat="44.16973" lon="6.61774">
        <ele>1240</ele>
        <time>2022-06-08T21:30:14Z</time>
      </trkpt>
      <trkpt lat="44.16937" lon="6.61775">
        <ele>1244</ele>
        <time>2022-06-08T21:30:22Z</time>
      </trkpt>
      <trkpt lat="44.16902" lon="6.61784">
        <ele>1252</ele>
        <time>2022-06-08T21:30:30Z</time>
      </trkpt>
      <trkpt lat="44.16872" lon="6.61775">
        <ele>1254</ele>
        <time>2022-06-08T21:30:37Z</time>
      </trkpt>
      <trkpt lat="44.16839" lon="6.6176">
        <ele>1254</ele>
        <time>2022-06-08T21:30:46Z</time>
      </trkpt>
      <trkpt lat="44.16809" lon="6.61739">
        <ele>1250</ele>
        <time>2022-06-08T21:30:53Z</time>
      </trkpt>
      <trkpt lat="44.16785" lon="6.6174">
        <ele>1252</ele>
        <time>2022-06-08T21:30:59Z</time>
      </trkpt>
      <trkpt lat="44.16753" lon="6.61746">
        <ele>1256</ele>
        <time>2022-06-08T21:31:07Z</time>
      </trkpt>
      <trkpt lat="44.16747" lon="6.61753">
        <ele>1259</ele>
        <time>2022-06-08T21:31:08Z</time>
      </trkpt>
      <trkpt lat="44.16728" lon="6.61764">
        <ele>1266</ele>
        <time>2022-06-08T21:31:13Z</time>
      </trkpt>
      <trkpt lat="44.16701" lon="6.61755">
        <ele>1265</ele>
        <time>2022-06-08T21:31:20Z</time>
      </trkpt>
      <trkpt lat="44.16683" lon="6.61736">
        <ele>1260</ele>
        <time>2022-06-08T21:31:25Z</time>
      </trkpt>
      <trkpt lat="44.16678" lon="6.61734">
        <ele>1260</ele>
        <time>2022-06-08T21:31:26Z</time>
      </trkpt>
      <trkpt lat="44.16649" lon="6.61735">
        <ele>1264</ele>
        <time>2022-06-08T21:31:33Z</time>
      </trkpt>
      <trkpt lat="44.16623" lon="6.6174">
        <ele>1269</ele>
        <time>2022-06-08T21:31:39Z</time>
      </trkpt>
      <trkpt lat="44.16595" lon="6.61757">
        <ele>1278</ele>
        <time>2022-06-08T21:31:46Z</time>
      </trkpt>
      <trkpt lat="44.16577" lon="6.61774">
        <ele>1286</ele>
        <time>2022-06-08T21:31:51Z</time>
      </trkpt>
      <trkpt lat="44.16555" lon="6.61765">
        <ele>1287</ele>
        <time>2022-06-08T21:31:57Z</time>
      </trkpt>
      <trkpt lat="44.16493" lon="6.61727">
        <ele>1288</ele>
        <time>2022-06-08T21:32:12Z</time>
      </trkpt>
      <trkpt lat="44.1648" lon="6.61724">
        <ele>1291</ele>
        <time>2022-06-08T21:32:15Z</time>
      </trkpt>
      <trkpt lat="44.16459" lon="6.61714">
        <ele>1295</ele>
        <time>2022-06-08T21:32:21Z</time>
      </trkpt>
      <trkpt lat="44.16435" lon="6.6171">
        <ele>1300</ele>
        <time>2022-06-08T21:32:26Z</time>
      </trkpt>
      <trkpt lat="44.16396" lon="6.61687">
        <ele>1303</ele>
        <time>2022-06-08T21:32:36Z</time>
      </trkpt>
      <trkpt lat="44.16348" lon="6.61667">
        <ele>1306</ele>
        <time>2022-06-08T21:32:48Z</time>
      </trkpt>
      <trkpt lat="44.16318" lon="6.61642">
        <ele>1307</ele>
        <time>2022-06-08T21:32:56Z</time>
      </trkpt>
      <trkpt lat="44.16269" lon="6.61617">
        <ele>1311</ele>
        <time>2022-06-08T21:33:08Z</time>
      </trkpt>
      <trkpt lat="44.16237" lon="6.61615">
        <ele>1318</ele>
        <time>2022-06-08T21:33:16Z</time>
      </trkpt>
      <trkpt lat="44.16219" lon="6.61592">
        <ele>1318</ele>
        <time>2022-06-08T21:33:21Z</time>
      </trkpt>
      <trkpt lat="44.16203" lon="6.61543">
        <ele>1311</ele>
        <time>2022-06-08T21:33:30Z</time>
      </trkpt>
      <trkpt lat="44.16175" lon="6.61499">
        <ele>1311</ele>
        <time>2022-06-08T21:33:40Z</time>
      </trkpt>
      <trkpt lat="44.16083" lon="6.61448">
        <ele>1316</ele>
        <time>2022-06-08T21:34:03Z</time>
      </trkpt>
      <trkpt lat="44.1607" lon="6.61444">
        <ele>1317</ele>
        <time>2022-06-08T21:34:07Z</time>
      </trkpt>
      <trkpt lat="44.16056" lon="6.61444">
        <ele>1318</ele>
        <time>2022-06-08T21:34:10Z</time>
      </trkpt>
      <trkpt lat="44.16004" lon="6.61458">
        <ele>1325</ele>
        <time>2022-06-08T21:34:22Z</time>
      </trkpt>
      <trkpt lat="44.1598" lon="6.61444">
        <ele>1329</ele>
        <time>2022-06-08T21:34:28Z</time>
      </trkpt>
      <trkpt lat="44.15941" lon="6.61402">
        <ele>1334</ele>
        <time>2022-06-08T21:34:40Z</time>
      </trkpt>
      <trkpt lat="44.15913" lon="6.61363">
        <ele>1335</ele>
        <time>2022-06-08T21:34:49Z</time>
      </trkpt>
      <trkpt lat="44.15872" lon="6.61313">
        <ele>1333</ele>
        <time>2022-06-08T21:35:02Z</time>
      </trkpt>
      <trkpt lat="44.15864" lon="6.61307">
        <ele>1333</ele>
        <time>2022-06-08T21:35:04Z</time>
      </trkpt>
      <trkpt lat="44.15838" lon="6.61308">
        <ele>1339</ele>
        <time>2022-06-08T21:35:10Z</time>
      </trkpt>
      <trkpt lat="44.15813" lon="6.61329">
        <ele>1350</ele>
        <time>2022-06-08T21:35:17Z</time>
      </trkpt>
      <trkpt lat="44.15792" lon="6.61325">
        <ele>1352</ele>
        <time>2022-06-08T21:35:22Z</time>
      </trkpt>
      <trkpt lat="44.15775" lon="6.61311">
        <ele>1351</ele>
        <time>2022-06-08T21:35:26Z</time>
      </trkpt>
      <trkpt lat="44.15757" lon="6.61305">
        <ele>1353</ele>
        <time>2022-06-08T21:35:31Z</time>
      </trkpt>
      <trkpt lat="44.15735" lon="6.61303">
        <ele>1359</ele>
        <time>2022-06-08T21:35:36Z</time>
      </trkpt>
      <trkpt lat="44.15717" lon="6.61277">
        <ele>1357</ele>
        <time>2022-06-08T21:35:42Z</time>
      </trkpt>
      <trkpt lat="44.15699" lon="6.61241">
        <ele>1352</ele>
        <time>2022-06-08T21:35:49Z</time>
      </trkpt>
      <trkpt lat="44.15676" lon="6.61221">
        <ele>1354</ele>
        <time>2022-06-08T21:35:55Z</time>
      </trkpt>
      <trkpt lat="44.15648" lon="6.61235">
        <ele>1363</ele>
        <time>2022-06-08T21:36:02Z</time>
      </trkpt>
      <trkpt lat="44.156" lon="6.61233">
        <ele>1368</ele>
        <time>2022-06-08T21:36:14Z</time>
      </trkpt>
      <trkpt lat="44.15597" lon="6.61243">
        <ele>1371</ele>
        <time>2022-06-08T21:36:15Z</time>
      </trkpt>
      <trkpt lat="44.15602" lon="6.61252">
        <ele>1373</ele>
        <time>2022-06-08T21:36:17Z</time>
      </trkpt>
      <trkpt lat="44.15652" lon="6.61263">
        <ele>1371</ele>
        <time>2022-06-08T21:36:29Z</time>
      </trkpt>
      <trkpt lat="44.15675" lon="6.61286">
        <ele>1374</ele>
        <time>2022-06-08T21:36:36Z</time>
      </trkpt>
      <trkpt lat="44.15691" lon="6.61321">
        <ele>1380</ele>
        <time>2022-06-08T21:36:43Z</time>
      </trkpt>
      <trkpt lat="44.15701" lon="6.61351">
        <ele>1386</ele>
        <time>2022-06-08T21:36:48Z</time>
      </trkpt>
      <trkpt lat="44.15716" lon="6.61378">
        <ele>1389</ele>
        <time>2022-06-08T21:36:54Z</time>
      </trkpt>
      <trkpt lat="44.15735" lon="6.61402">
        <ele>1390</ele>
        <time>2022-06-08T21:37:00Z</time>
      </trkpt>
      <trkpt lat="44.15758" lon="6.61419">
        <ele>1389</ele>
        <time>2022-06-08T21:37:06Z</time>
      </trkpt>
      <trkpt lat="44.15803" lon="6.61443">
        <ele>1389</ele>
        <time>2022-06-08T21:37:17Z</time>
      </trkpt>
      <trkpt lat="44.15825" lon="6.61458">
        <ele>1389</ele>
        <time>2022-06-08T21:37:23Z</time>
      </trkpt>
      <trkpt lat="44.15839" lon="6.6148">
        <ele>1390</ele>
        <time>2022-06-08T21:37:28Z</time>
      </trkpt>
      <trkpt lat="44.15847" lon="6.61509">
        <ele>1394</ele>
        <time>2022-06-08T21:37:33Z</time>
      </trkpt>
      <trkpt lat="44.1585" lon="6.61558">
        <ele>1403</ele>
        <time>2022-06-08T21:37:41Z</time>
      </trkpt>
      <trkpt lat="44.15863" lon="6.61598">
        <ele>1405</ele>
        <time>2022-06-08T21:37:49Z</time>
      </trkpt>
      <trkpt lat="44.15865" lon="6.61616">
        <ele>1407</ele>
        <time>2022-06-08T21:37:52Z</time>
      </trkpt>
      <trkpt lat="44.15862" lon="6.61633">
        <ele>1411</ele>
        <time>2022-06-08T21:37:55Z</time>
      </trkpt>
      <trkpt lat="44.15854" lon="6.61656">
        <ele>1418</ele>
        <time>2022-06-08T21:37:59Z</time>
      </trkpt>
      <trkpt lat="44.15853" lon="6.61672">
        <ele>1421</ele>
        <time>2022-06-08T21:38:02Z</time>
      </trkpt>
      <trkpt lat="44.15859" lon="6.61704">
        <ele>1427</ele>
        <time>2022-06-08T21:38:07Z</time>
      </trkpt>
      <trkpt lat="44.15867" lon="6.61715">
        <ele>1427</ele>
        <time>2022-06-08T21:38:10Z</time>
      </trkpt>
      <trkpt lat="44.1591" lon="6.61742">
        <ele>1418</ele>
        <time>2022-06-08T21:38:21Z</time>
      </trkpt>
      <trkpt lat="44.1594" lon="6.61779">
        <ele>1421</ele>
        <time>2022-06-08T21:38:30Z</time>
      </trkpt>
      <trkpt lat="44.15961" lon="6.61835">
        <ele>1433</ele>
        <time>2022-06-08T21:38:41Z</time>
      </trkpt>
      <trkpt lat="44.15998" lon="6.61888">
        <ele>1438</ele>
        <time>2022-06-08T21:38:53Z</time>
      </trkpt>
      <trkpt lat="44.16009" lon="6.61914">
        <ele>1443</ele>
        <time>2022-06-08T21:38:58Z</time>
      </trkpt>
      <trkpt lat="44.16026" lon="6.61941">
        <ele>1450</ele>
        <time>2022-06-08T21:39:04Z</time>
      </trkpt>
      <trkpt lat="44.16048" lon="6.61958">
        <ele>1451</ele>
        <time>2022-06-08T21:39:10Z</time>
      </trkpt>
      <trkpt lat="44.16087" lon="6.6198">
        <ele>1449</ele>
        <time>2022-06-08T21:39:20Z</time>
      </trkpt>
      <trkpt lat="44.16124" lon="6.62015">
        <ele>1458</ele>
        <time>2022-06-08T21:39:30Z</time>
      </trkpt>
      <trkpt lat="44.16136" lon="6.62023">
        <ele>1460</ele>
        <time>2022-06-08T21:39:34Z</time>
      </trkpt>
      <trkpt lat="44.1616" lon="6.62025">
        <ele>1458</ele>
        <time>2022-06-08T21:39:39Z</time>
      </trkpt>
      <trkpt lat="44.16181" lon="6.62038">
        <ele>1457</ele>
        <time>2022-06-08T21:39:45Z</time>
      </trkpt>
      <trkpt lat="44.16187" lon="6.62071">
        <ele>1466</ele>
        <time>2022-06-08T21:39:50Z</time>
      </trkpt>
      <trkpt lat="44.16237" lon="6.62143">
        <ele>1478</ele>
        <time>2022-06-08T21:40:07Z</time>
      </trkpt>
      <trkpt lat="44.16276" lon="6.62182">
        <ele>1482</ele>
        <time>2022-06-08T21:40:18Z</time>
      </trkpt>
      <trkpt lat="44.16295" lon="6.62192">
        <ele>1481</ele>
        <time>2022-06-08T21:40:23Z</time>
      </trkpt>
      <trkpt lat="44.16315" lon="6.62192">
        <ele>1476</ele>
        <time>2022-06-08T21:40:28Z</time>
      </trkpt>
      <trkpt lat="44.16327" lon="6.62197">
        <ele>1474</ele>
        <time>2022-06-08T21:40:31Z</time>
      </trkpt>
      <trkpt lat="44.16333" lon="6.62225">
        <ele>1481</ele>
        <time>2022-06-08T21:40:35Z</time>
      </trkpt>
      <trkpt lat="44.16338" lon="6.62276">
        <ele>1496</ele>
        <time>2022-06-08T21:40:44Z</time>
      </trkpt>
      <trkpt lat="44.16346" lon="6.62302">
        <ele>1502</ele>
        <time>2022-06-08T21:40:49Z</time>
      </trkpt>
      <trkpt lat="44.16354" lon="6.62311">
        <ele>1504</ele>
        <time>2022-06-08T21:40:51Z</time>
      </trkpt>
      <trkpt lat="44.16373" lon="6.62325">
        <ele>1505</ele>
        <time>2022-06-08T21:40:56Z</time>
      </trkpt>
      <trkpt lat="44.1639" lon="6.6233">
        <ele>1504</ele>
        <time>2022-06-08T21:41:00Z</time>
      </trkpt>
      <trkpt lat="44.16445" lon="6.62327">
        <ele>1497</ele>
        <time>2022-06-08T21:41:13Z</time>
      </trkpt>
      <trkpt lat="44.1647" lon="6.62345">
        <ele>1502</ele>
        <time>2022-06-08T21:41:20Z</time>
      </trkpt>
      <trkpt lat="44.165" lon="6.62373">
        <ele>1510</ele>
        <time>2022-06-08T21:41:28Z</time>
      </trkpt>
      <trkpt lat="44.16528" lon="6.62406">
        <ele>1515</ele>
        <time>2022-06-08T21:41:37Z</time>
      </trkpt>
      <trkpt lat="44.16562" lon="6.62461">
        <ele>1524</ele>
        <time>2022-06-08T21:41:49Z</time>
      </trkpt>
      <trkpt lat="44.16569" lon="6.62458">
        <ele>1521</ele>
        <time>2022-06-08T21:41:51Z</time>
      </trkpt>
      <trkpt lat="44.16565" lon="6.62463">
        <ele>1524</ele>
        <time>2022-06-08T21:41:52Z</time>
      </trkpt>
      <trkpt lat="44.1657" lon="6.62472">
        <ele>1525</ele>
        <time>2022-06-08T21:41:54Z</time>
      </trkpt>
      <trkpt lat="44.16589" lon="6.6249">
        <ele>1525</ele>
        <time>2022-06-08T21:41:59Z</time>
      </trkpt>
      <trkpt lat="44.16615" lon="6.62524">
        <ele>1531</ele>
        <time>2022-06-08T21:42:07Z</time>
      </trkpt>
      <trkpt lat="44.16639" lon="6.62545">
        <ele>1534</ele>
        <time>2022-06-08T21:42:14Z</time>
      </trkpt>
      <trkpt lat="44.16666" lon="6.62553">
        <ele>1531</ele>
        <time>2022-06-08T21:42:21Z</time>
      </trkpt>
      <trkpt lat="44.16698" lon="6.62566">
        <ele>1529</ele>
        <time>2022-06-08T21:42:28Z</time>
      </trkpt>
      <trkpt lat="44.1673" lon="6.62595">
        <ele>1535</ele>
        <time>2022-06-08T21:42:37Z</time>
      </trkpt>
      <trkpt lat="44.16748" lon="6.62613">
        <ele>1540</ele>
        <time>2022-06-08T21:42:42Z</time>
      </trkpt>
      <trkpt lat="44.16769" lon="6.62647">
        <ele>1549</ele>
        <time>2022-06-08T21:42:50Z</time>
      </trkpt>
      <trkpt lat="44.16792" lon="6.62674">
        <ele>1551</ele>
        <time>2022-06-08T21:42:57Z</time>
      </trkpt>
      <trkpt lat="44.16813" lon="6.62705">
        <ele>1554</ele>
        <time>2022-06-08T21:43:04Z</time>
      </trkpt>
      <trkpt lat="44.16839" lon="6.62733">
        <ele>1555</ele>
        <time>2022-06-08T21:43:12Z</time>
      </trkpt>
      <trkpt lat="44.16848" lon="6.62738">
        <ele>1556</ele>
        <time>2022-06-08T21:43:14Z</time>
      </trkpt>
      <trkpt lat="44.16868" lon="6.62763">
        <ele>1560</ele>
        <time>2022-06-08T21:43:20Z</time>
      </trkpt>
      <trkpt lat="44.16913" lon="6.62803">
        <ele>1560</ele>
        <time>2022-06-08T21:43:33Z</time>
      </trkpt>
      <trkpt lat="44.1695" lon="6.62851">
        <ele>1567</ele>
        <time>2022-06-08T21:43:45Z</time>
      </trkpt>
      <trkpt lat="44.16978" lon="6.62872">
        <ele>1570</ele>
        <time>2022-06-08T21:43:52Z</time>
      </trkpt>
      <trkpt lat="44.17003" lon="6.62895">
        <ele>1571</ele>
        <time>2022-06-08T21:43:59Z</time>
      </trkpt>
      <trkpt lat="44.17007" lon="6.62902">
        <ele>1572</ele>
        <time>2022-06-08T21:44:00Z</time>
      </trkpt>
      <trkpt lat="44.17025" lon="6.6292">
        <ele>1570</ele>
        <time>2022-06-08T21:44:06Z</time>
      </trkpt>
      <trkpt lat="44.17049" lon="6.62955">
        <ele>1571</ele>
        <time>2022-06-08T21:44:14Z</time>
      </trkpt>
      <trkpt lat="44.17058" lon="6.62994">
        <ele>1577</ele>
        <time>2022-06-08T21:44:21Z</time>
      </trkpt>
      <trkpt lat="44.17056" lon="6.63036">
        <ele>1584</ele>
        <time>2022-06-08T21:44:28Z</time>
      </trkpt>
      <trkpt lat="44.17061" lon="6.63095">
        <ele>1588</ele>
        <time>2022-06-08T21:44:38Z</time>
      </trkpt>
      <trkpt lat="44.17055" lon="6.6314">
        <ele>1588</ele>
        <time>2022-06-08T21:44:45Z</time>
      </trkpt>
      <trkpt lat="44.17041" lon="6.63199">
        <ele>1585</ele>
        <time>2022-06-08T21:44:56Z</time>
      </trkpt>
      <trkpt lat="44.1702" lon="6.63247">
        <ele>1582</ele>
        <time>2022-06-08T21:45:05Z</time>
      </trkpt>
      <trkpt lat="44.16998" lon="6.63274">
        <ele>1580</ele>
        <time>2022-06-08T21:45:12Z</time>
      </trkpt>
      <trkpt lat="44.16957" lon="6.63293">
        <ele>1588</ele>
        <time>2022-06-08T21:45:22Z</time>
      </trkpt>
      <trkpt lat="44.16887" lon="6.63341">
        <ele>1600</ele>
        <time>2022-06-08T21:45:40Z</time>
      </trkpt>
      <trkpt lat="44.16865" lon="6.63377">
        <ele>1600</ele>
        <time>2022-06-08T21:45:48Z</time>
      </trkpt>
      <trkpt lat="44.16828" lon="6.63446">
        <ele>1599</ele>
        <time>2022-06-08T21:46:03Z</time>
      </trkpt>
      <trkpt lat="44.16799" lon="6.63484">
        <ele>1610</ele>
        <time>2022-06-08T21:46:12Z</time>
      </trkpt>
      <trkpt lat="44.1678" lon="6.63531">
        <ele>1606</ele>
        <time>2022-06-08T21:46:21Z</time>
      </trkpt>
      <trkpt lat="44.16736" lon="6.63624">
        <ele>1613</ele>
        <time>2022-06-08T21:46:40Z</time>
      </trkpt>
      <trkpt lat="44.16725" lon="6.63669">
        <ele>1615</ele>
        <time>2022-06-08T21:46:48Z</time>
      </trkpt>
      <trkpt lat="44.16717" lon="6.63725">
        <ele>1610</ele>
        <time>2022-06-08T21:46:57Z</time>
      </trkpt>
      <trkpt lat="44.16716" lon="6.63766">
        <ele>1602</ele>
        <time>2022-06-08T21:47:04Z</time>
      </trkpt>
      <trkpt lat="44.16688" lon="6.63858">
        <ele>1605</ele>
        <time>2022-06-08T21:47:21Z</time>
      </trkpt>
      <trkpt lat="44.16676" lon="6.63886">
        <ele>1607</ele>
        <time>2022-06-08T21:47:26Z</time>
      </trkpt>
      <trkpt lat="44.1666" lon="6.6391">
        <ele>1614</ele>
        <time>2022-06-08T21:47:32Z</time>
      </trkpt>
      <trkpt lat="44.16635" lon="6.63931">
        <ele>1620</ele>
        <time>2022-06-08T21:47:39Z</time>
      </trkpt>
      <trkpt lat="44.16619" lon="6.63998">
        <ele>1604</ele>
        <time>2022-06-08T21:47:50Z</time>
      </trkpt>
      <trkpt lat="44.16614" lon="6.64007">
        <ele>1603</ele>
        <time>2022-06-08T21:47:52Z</time>
      </trkpt>
      <trkpt lat="44.1659" lon="6.64028">
        <ele>1609</ele>
        <time>2022-06-08T21:47:59Z</time>
      </trkpt>
      <trkpt lat="44.16561" lon="6.64037">
        <ele>1621</ele>
        <time>2022-06-08T21:48:06Z</time>
      </trkpt>
      <trkpt lat="44.16525" lon="6.64054">
        <ele>1630</ele>
        <time>2022-06-08T21:48:15Z</time>
      </trkpt>
      <trkpt lat="44.16501" lon="6.64091">
        <ele>1625</ele>
        <time>2022-06-08T21:48:23Z</time>
      </trkpt>
      <trkpt lat="44.16469" lon="6.6412">
        <ele>1631</ele>
        <time>2022-06-08T21:48:32Z</time>
      </trkpt>
      <trkpt lat="44.16436" lon="6.64155">
        <ele>1638</ele>
        <time>2022-06-08T21:48:42Z</time>
      </trkpt>
      <trkpt lat="44.16386" lon="6.64231">
        <ele>1648</ele>
        <time>2022-06-08T21:48:59Z</time>
      </trkpt>
      <trkpt lat="44.16347" lon="6.64278">
        <ele>1664</ele>
        <time>2022-06-08T21:49:11Z</time>
      </trkpt>
      <trkpt lat="44.16325" lon="6.6434">
        <ele>1668</ele>
        <time>2022-06-08T21:49:23Z</time>
      </trkpt>
      <trkpt lat="44.16311" lon="6.64405">
        <ele>1661</ele>
        <time>2022-06-08T21:49:34Z</time>
      </trkpt>
      <trkpt lat="44.16289" lon="6.64453">
        <ele>1661</ele>
        <time>2022-06-08T21:49:43Z</time>
      </trkpt>
      <trkpt lat="44.16268" lon="6.64512">
        <ele>1651</ele>
        <time>2022-06-08T21:49:55Z</time>
      </trkpt>
      <trkpt lat="44.16246" lon="6.64553">
        <ele>1646</ele>
        <time>2022-06-08T21:50:03Z</time>
      </trkpt>
      <trkpt lat="44.16237" lon="6.64564">
        <ele>1646</ele>
        <time>2022-06-08T21:50:06Z</time>
      </trkpt>
      <trkpt lat="44.16212" lon="6.64588">
        <ele>1650</ele>
        <time>2022-06-08T21:50:13Z</time>
      </trkpt>
      <trkpt lat="44.16193" lon="6.64599">
        <ele>1656</ele>
        <time>2022-06-08T21:50:18Z</time>
      </trkpt>
      <trkpt lat="44.16186" lon="6.64608">
        <ele>1657</ele>
        <time>2022-06-08T21:50:20Z</time>
      </trkpt>
      <trkpt lat="44.16154" lon="6.64673">
        <ele>1652</ele>
        <time>2022-06-08T21:50:33Z</time>
      </trkpt>
      <trkpt lat="44.16153" lon="6.64689">
        <ele>1646</ele>
        <time>2022-06-08T21:50:36Z</time>
      </trkpt>
      <trkpt lat="44.16147" lon="6.64708">
        <ele>1642</ele>
        <time>2022-06-08T21:50:39Z</time>
      </trkpt>
      <trkpt lat="44.16131" lon="6.64728">
        <ele>1641</ele>
        <time>2022-06-08T21:50:44Z</time>
      </trkpt>
      <trkpt lat="44.16131" lon="6.64732">
        <ele>1640</ele>
        <time>2022-06-08T21:50:45Z</time>
      </trkpt>
      <trkpt lat="44.16124" lon="6.64738">
        <ele>1640</ele>
        <time>2022-06-08T21:50:47Z</time>
      </trkpt>
      <trkpt lat="44.16125" lon="6.6474">
        <ele>1639</ele>
        <time>2022-06-08T21:50:47Z</time>
      </trkpt>
      <trkpt lat="44.16095" lon="6.64767">
        <ele>1641</ele>
        <time>2022-06-08T21:50:56Z</time>
      </trkpt>
      <trkpt lat="44.16057" lon="6.64774">
        <ele>1661</ele>
        <time>2022-06-08T21:51:05Z</time>
      </trkpt>
      <trkpt lat="44.16026" lon="6.64787">
        <ele>1675</ele>
        <time>2022-06-08T21:51:12Z</time>
      </trkpt>
      <trkpt lat="44.16034" lon="6.648">
        <ele>1664</ele>
        <time>2022-06-08T21:51:15Z</time>
      </trkpt>
      <trkpt lat="44.16027" lon="6.64849">
        <ele>1646</ele>
        <time>2022-06-08T21:51:23Z</time>
      </trkpt>
      <trkpt lat="44.16012" lon="6.64872">
        <ele>1647</ele>
        <time>2022-06-08T21:51:29Z</time>
      </trkpt>
      <trkpt lat="44.16006" lon="6.64886">
        <ele>1646</ele>
        <time>2022-06-08T21:51:31Z</time>
      </trkpt>
      <trkpt lat="44.15968" lon="6.64926">
        <ele>1656</ele>
        <time>2022-06-08T21:51:43Z</time>
      </trkpt>
      <trkpt lat="44.15965" lon="6.64981">
        <ele>1645</ele>
        <time>2022-06-08T21:51:52Z</time>
      </trkpt>
      <trkpt lat="44.15958" lon="6.65021">
        <ele>1639</ele>
        <time>2022-06-08T21:51:59Z</time>
      </trkpt>
      <trkpt lat="44.15948" lon="6.65032">
        <ele>1641</ele>
        <time>2022-06-08T21:52:02Z</time>
      </trkpt>
      <trkpt lat="44.1591" lon="6.65098">
        <ele>1642</ele>
        <time>2022-06-08T21:52:16Z</time>
      </trkpt>
      <trkpt lat="44.15908" lon="6.65113">
        <ele>1640</ele>
        <time>2022-06-08T21:52:18Z</time>
      </trkpt>
      <trkpt lat="44.15853" lon="6.6522">
        <ele>1648</ele>
        <time>2022-06-08T21:52:40Z</time>
      </trkpt>
      <trkpt lat="44.15849" lon="6.65296">
        <ele>1644</ele>
        <time>2022-06-08T21:52:53Z</time>
      </trkpt>
      <trkpt lat="44.1585" lon="6.65323">
        <ele>1642</ele>
        <time>2022-06-08T21:52:58Z</time>
      </trkpt>
      <trkpt lat="44.15841" lon="6.65368">
        <ele>1640</ele>
        <time>2022-06-08T21:53:06Z</time>
      </trkpt>
      <trkpt lat="44.15802" lon="6.65459">
        <ele>1641</ele>
        <time>2022-06-08T21:53:23Z</time>
      </trkpt>
      <trkpt lat="44.1579" lon="6.6548">
        <ele>1641</ele>
        <time>2022-06-08T21:53:28Z</time>
      </trkpt>
      <trkpt lat="44.15771" lon="6.65491">
        <ele>1644</ele>
        <time>2022-06-08T21:53:33Z</time>
      </trkpt>
      <trkpt lat="44.15744" lon="6.65526">
        <ele>1648</ele>
        <time>2022-06-08T21:53:41Z</time>
      </trkpt>
      <trkpt lat="44.15728" lon="6.65533">
        <ele>1653</ele>
        <time>2022-06-08T21:53:45Z</time>
      </trkpt>
      <trkpt lat="44.15711" lon="6.65546">
        <ele>1658</ele>
        <time>2022-06-08T21:53:50Z</time>
      </trkpt>
      <trkpt lat="44.15698" lon="6.65568">
        <ele>1659</ele>
        <time>2022-06-08T21:53:54Z</time>
      </trkpt>
      <trkpt lat="44.15688" lon="6.65601">
        <ele>1657</ele>
        <time>2022-06-08T21:54:00Z</time>
      </trkpt>
      <trkpt lat="44.15688" lon="6.65643">
        <ele>1653</ele>
        <time>2022-06-08T21:54:07Z</time>
      </trkpt>
      <trkpt lat="44.15677" lon="6.65692">
        <ele>1653</ele>
        <time>2022-06-08T21:54:16Z</time>
      </trkpt>
      <trkpt lat="44.15678" lon="6.65703">
        <ele>1653</ele>
        <time>2022-06-08T21:54:18Z</time>
      </trkpt>
      <trkpt lat="44.15669" lon="6.65719">
        <ele>1653</ele>
        <time>2022-06-08T21:54:21Z</time>
      </trkpt>
      <trkpt lat="44.1567" lon="6.6573">
        <ele>1653</ele>
        <time>2022-06-08T21:54:23Z</time>
      </trkpt>
      <trkpt lat="44.15667" lon="6.65739">
        <ele>1653</ele>
        <time>2022-06-08T21:54:25Z</time>
      </trkpt>
      <trkpt lat="44.15653" lon="6.6575">
        <ele>1656</ele>
        <time>2022-06-08T21:54:29Z</time>
      </trkpt>
      <trkpt lat="44.15647" lon="6.6575">
        <ele>1657</ele>
        <time>2022-06-08T21:54:30Z</time>
      </trkpt>
      <trkpt lat="44.15641" lon="6.65762">
        <ele>1659</ele>
        <time>2022-06-08T21:54:32Z</time>
      </trkpt>
      <trkpt lat="44.15631" lon="6.65774">
        <ele>1661</ele>
        <time>2022-06-08T21:54:36Z</time>
      </trkpt>
      <trkpt lat="44.15627" lon="6.65789">
        <ele>1662</ele>
        <time>2022-06-08T21:54:38Z</time>
      </trkpt>
      <trkpt lat="44.15619" lon="6.65797">
        <ele>1662</ele>
        <time>2022-06-08T21:54:41Z</time>
      </trkpt>
      <trkpt lat="44.15608" lon="6.65801">
        <ele>1663</ele>
        <time>2022-06-08T21:54:43Z</time>
      </trkpt>
      <trkpt lat="44.1556" lon="6.65806">
        <ele>1672</ele>
        <time>2022-06-08T21:54:54Z</time>
      </trkpt>
      <trkpt lat="44.15548" lon="6.65812">
        <ele>1675</ele>
        <time>2022-06-08T21:54:57Z</time>
      </trkpt>
      <trkpt lat="44.15536" lon="6.65823">
        <ele>1677</ele>
        <time>2022-06-08T21:55:01Z</time>
      </trkpt>
      <trkpt lat="44.15527" lon="6.65837">
        <ele>1678</ele>
        <time>2022-06-08T21:55:04Z</time>
      </trkpt>
      <trkpt lat="44.15511" lon="6.65896">
        <ele>1679</ele>
        <time>2022-06-08T21:55:14Z</time>
      </trkpt>
      <trkpt lat="44.15513" lon="6.65907">
        <ele>1678</ele>
        <time>2022-06-08T21:55:16Z</time>
      </trkpt>
      <trkpt lat="44.15516" lon="6.6591">
        <ele>1677</ele>
        <time>2022-06-08T21:55:17Z</time>
      </trkpt>
      <trkpt lat="44.15514" lon="6.65954">
        <ele>1678</ele>
        <time>2022-06-08T21:55:25Z</time>
      </trkpt>
      <trkpt lat="44.15518" lon="6.65989">
        <ele>1679</ele>
        <time>2022-06-08T21:55:31Z</time>
      </trkpt>
      <trkpt lat="44.15524" lon="6.66011">
        <ele>1679</ele>
        <time>2022-06-08T21:55:35Z</time>
      </trkpt>
      <trkpt lat="44.15535" lon="6.66101">
        <ele>1684</ele>
        <time>2022-06-08T21:55:50Z</time>
      </trkpt>
      <trkpt lat="44.15512" lon="6.66174">
        <ele>1687</ele>
        <time>2022-06-08T21:56:03Z</time>
      </trkpt>
      <trkpt lat="44.15514" lon="6.66185">
        <ele>1687</ele>
        <time>2022-06-08T21:56:05Z</time>
      </trkpt>
      <trkpt lat="44.15511" lon="6.66194">
        <ele>1687</ele>
        <time>2022-06-08T21:56:07Z</time>
      </trkpt>
      <trkpt lat="44.1549" lon="6.66226">
        <ele>1685</ele>
        <time>2022-06-08T21:56:14Z</time>
      </trkpt>
      <trkpt lat="44.15454" lon="6.66261">
        <ele>1687</ele>
        <time>2022-06-08T21:56:24Z</time>
      </trkpt>
      <trkpt lat="44.15357" lon="6.66378">
        <ele>1688</ele>
        <time>2022-06-08T21:56:54Z</time>
      </trkpt>
      <trkpt lat="44.15349" lon="6.66386">
        <ele>1688</ele>
        <time>2022-06-08T21:56:57Z</time>
      </trkpt>
      <trkpt lat="44.15346" lon="6.66384">
        <ele>1689</ele>
        <time>2022-06-08T21:56:57Z</time>
      </trkpt>
      <trkpt lat="44.15341" lon="6.66386">
        <ele>1689</ele>
        <time>2022-06-08T21:56:59Z</time>
      </trkpt>
      <trkpt lat="44.15323" lon="6.664">
        <ele>1691</ele>
        <time>2022-06-08T21:57:03Z</time>
      </trkpt>
      <trkpt lat="44.15317" lon="6.66401">
        <ele>1694</ele>
        <time>2022-06-08T21:57:05Z</time>
      </trkpt>
      <trkpt lat="44.15333" lon="6.6641">
        <ele>1687</ele>
        <time>2022-06-08T21:57:09Z</time>
      </trkpt>
      <trkpt lat="44.15339" lon="6.66418">
        <ele>1686</ele>
        <time>2022-06-08T21:57:11Z</time>
      </trkpt>
      <trkpt lat="44.15328" lon="6.66415">
        <ele>1688</ele>
        <time>2022-06-08T21:57:13Z</time>
      </trkpt>
      <trkpt lat="44.1533" lon="6.66403">
        <ele>1689</ele>
        <time>2022-06-08T21:57:15Z</time>
      </trkpt>
      <trkpt lat="44.15338" lon="6.66407">
        <ele>1687</ele>
        <time>2022-06-08T21:57:17Z</time>
      </trkpt>
      <trkpt lat="44.15326" lon="6.66402">
        <ele>1690</ele>
        <time>2022-06-08T21:57:20Z</time>
      </trkpt>
      <trkpt lat="44.15327" lon="6.66407">
        <ele>1689</ele>
        <time>2022-06-08T21:57:21Z</time>
      </trkpt>
      <trkpt lat="44.15338" lon="6.66406">
        <ele>1687</ele>
        <time>2022-06-08T21:57:24Z</time>
      </trkpt>
      <trkpt lat="44.15342" lon="6.66418">
        <ele>1686</ele>
        <time>2022-06-08T21:57:26Z</time>
      </trkpt>
      <trkpt lat="44.15332" lon="6.66414">
        <ele>1687</ele>
        <time>2022-06-08T21:57:28Z</time>
      </trkpt>
      <trkpt lat="44.15324" lon="6.66418">
        <ele>1689</ele>
        <time>2022-06-08T21:57:30Z</time>
      </trkpt>
      <trkpt lat="44.15322" lon="6.66422">
        <ele>1690</ele>
        <time>2022-06-08T21:57:31Z</time>
      </trkpt>
      <trkpt lat="44.15311" lon="6.6643">
        <ele>1694</ele>
        <time>2022-06-08T21:57:34Z</time>
      </trkpt>
      <trkpt lat="44.15292" lon="6.6646">
        <ele>1699</ele>
        <time>2022-06-08T21:57:41Z</time>
      </trkpt>
      <trkpt lat="44.1528" lon="6.665">
        <ele>1700</ele>
        <time>2022-06-08T21:57:48Z</time>
      </trkpt>
      <trkpt lat="44.15251" lon="6.66551">
        <ele>1700</ele>
        <time>2022-06-08T21:57:59Z</time>
      </trkpt>
      <trkpt lat="44.15231" lon="6.66607">
        <ele>1704</ele>
        <time>2022-06-08T21:58:09Z</time>
      </trkpt>
      <trkpt lat="44.15227" lon="6.66611">
        <ele>1706</ele>
        <time>2022-06-08T21:58:11Z</time>
      </trkpt>
      <trkpt lat="44.15221" lon="6.66636">
        <ele>1706</ele>
        <time>2022-06-08T21:58:15Z</time>
      </trkpt>
      <trkpt lat="44.15203" lon="6.66685">
        <ele>1706</ele>
        <time>2022-06-08T21:58:24Z</time>
      </trkpt>
      <trkpt lat="44.15189" lon="6.667">
        <ele>1706</ele>
        <time>2022-06-08T21:58:28Z</time>
      </trkpt>
      <trkpt lat="44.15171" lon="6.66729">
        <ele>1703</ele>
        <time>2022-06-08T21:58:35Z</time>
      </trkpt>
      <trkpt lat="44.15159" lon="6.66743">
        <ele>1703</ele>
        <time>2022-06-08T21:58:38Z</time>
      </trkpt>
      <trkpt lat="44.15133" lon="6.66765">
        <ele>1709</ele>
        <time>2022-06-08T21:58:46Z</time>
      </trkpt>
      <trkpt lat="44.15112" lon="6.66787">
        <ele>1712</ele>
        <time>2022-06-08T21:58:52Z</time>
      </trkpt>
      <trkpt lat="44.15104" lon="6.668">
        <ele>1712</ele>
        <time>2022-06-08T21:58:55Z</time>
      </trkpt>
      <trkpt lat="44.15101" lon="6.66817">
        <ele>1710</ele>
        <time>2022-06-08T21:58:57Z</time>
      </trkpt>
      <trkpt lat="44.15078" lon="6.66856">
        <ele>1711</ele>
        <time>2022-06-08T21:59:06Z</time>
      </trkpt>
      <trkpt lat="44.15069" lon="6.6688">
        <ele>1711</ele>
        <time>2022-06-08T21:59:10Z</time>
      </trkpt>
      <trkpt lat="44.15064" lon="6.66884">
        <ele>1712</ele>
        <time>2022-06-08T21:59:12Z</time>
      </trkpt>
      <trkpt lat="44.15045" lon="6.66916">
        <ele>1711</ele>
        <time>2022-06-08T21:59:19Z</time>
      </trkpt>
      <trkpt lat="44.15038" lon="6.66949">
        <ele>1713</ele>
        <time>2022-06-08T21:59:25Z</time>
      </trkpt>
      <trkpt lat="44.15031" lon="6.66961">
        <ele>1714</ele>
        <time>2022-06-08T21:59:27Z</time>
      </trkpt>
      <trkpt lat="44.1503" lon="6.66968">
        <ele>1714</ele>
        <time>2022-06-08T21:59:28Z</time>
      </trkpt>
      <trkpt lat="44.15015" lon="6.67001">
        <ele>1716</ele>
        <time>2022-06-08T21:59:35Z</time>
      </trkpt>
      <trkpt lat="44.14978" lon="6.67059">
        <ele>1717</ele>
        <time>2022-06-08T21:59:48Z</time>
      </trkpt>
      <trkpt lat="44.14924" lon="6.67104">
        <ele>1722</ele>
        <time>2022-06-08T22:00:03Z</time>
      </trkpt>
      <trkpt lat="44.14903" lon="6.67132">
        <ele>1728</ele>
        <time>2022-06-08T22:00:09Z</time>
      </trkpt>
      <trkpt lat="44.14891" lon="6.67168">
        <ele>1729</ele>
        <time>2022-06-08T22:00:16Z</time>
      </trkpt>
      <trkpt lat="44.14891" lon="6.67188">
        <ele>1730</ele>
        <time>2022-06-08T22:00:19Z</time>
      </trkpt>
      <trkpt lat="44.14882" lon="6.6723">
        <ele>1734</ele>
        <time>2022-06-08T22:00:27Z</time>
      </trkpt>
      <trkpt lat="44.14877" lon="6.67242">
        <ele>1736</ele>
        <time>2022-06-08T22:00:29Z</time>
      </trkpt>
      <trkpt lat="44.14879" lon="6.6725">
        <ele>1735</ele>
        <time>2022-06-08T22:00:30Z</time>
      </trkpt>
      <trkpt lat="44.14859" lon="6.67262">
        <ele>1741</ele>
        <time>2022-06-08T22:00:36Z</time>
      </trkpt>
      <trkpt lat="44.14852" lon="6.67272">
        <ele>1743</ele>
        <time>2022-06-08T22:00:38Z</time>
      </trkpt>
      <trkpt lat="44.14847" lon="6.67286">
        <ele>1745</ele>
        <time>2022-06-08T22:00:41Z</time>
      </trkpt>
      <trkpt lat="44.14857" lon="6.67298">
        <ele>1745</ele>
        <time>2022-06-08T22:00:44Z</time>
      </trkpt>
      <trkpt lat="44.1486" lon="6.6731">
        <ele>1746</ele>
        <time>2022-06-08T22:00:46Z</time>
      </trkpt>
      <trkpt lat="44.14878" lon="6.67317">
        <ele>1746</ele>
        <time>2022-06-08T22:00:50Z</time>
      </trkpt>
      <trkpt lat="44.14872" lon="6.67312">
        <ele>1746</ele>
        <time>2022-06-08T22:00:52Z</time>
      </trkpt>
      <trkpt lat="44.14864" lon="6.67315">
        <ele>1747</ele>
        <time>2022-06-08T22:00:54Z</time>
      </trkpt>
      <trkpt lat="44.14855" lon="6.67338">
        <ele>1750</ele>
        <time>2022-06-08T22:00:58Z</time>
      </trkpt>
      <trkpt lat="44.14846" lon="6.67346">
        <ele>1751</ele>
        <time>2022-06-08T22:01:01Z</time>
      </trkpt>
      <trkpt lat="44.14839" lon="6.67357">
        <ele>1753</ele>
        <time>2022-06-08T22:01:03Z</time>
      </trkpt>
      <trkpt lat="44.14831" lon="6.67389">
        <ele>1760</ele>
        <time>2022-06-08T22:01:09Z</time>
      </trkpt>
      <trkpt lat="44.14839" lon="6.67419">
        <ele>1764</ele>
        <time>2022-06-08T22:01:14Z</time>
      </trkpt>
      <trkpt lat="44.14835" lon="6.67423">
        <ele>1765</ele>
        <time>2022-06-08T22:01:15Z</time>
      </trkpt>
      <trkpt lat="44.14829" lon="6.67423">
        <ele>1767</ele>
        <time>2022-06-08T22:01:17Z</time>
      </trkpt>
      <trkpt lat="44.14829" lon="6.67427">
        <ele>1769</ele>
        <time>2022-06-08T22:01:17Z</time>
      </trkpt>
      <trkpt lat="44.14843" lon="6.67449">
        <ele>1774</ele>
        <time>2022-06-08T22:01:22Z</time>
      </trkpt>
      <trkpt lat="44.14854" lon="6.67455">
        <ele>1776</ele>
        <time>2022-06-08T22:01:25Z</time>
      </trkpt>
      <trkpt lat="44.14855" lon="6.67458">
        <ele>1777</ele>
        <time>2022-06-08T22:01:25Z</time>
      </trkpt>
      <trkpt lat="44.14851" lon="6.67464">
        <ele>1779</ele>
        <time>2022-06-08T22:01:27Z</time>
      </trkpt>
      <trkpt lat="44.14844" lon="6.67463">
        <ele>1778</ele>
        <time>2022-06-08T22:01:29Z</time>
      </trkpt>
      <trkpt lat="44.14846" lon="6.67469">
        <ele>1780</ele>
        <time>2022-06-08T22:01:30Z</time>
      </trkpt>
      <trkpt lat="44.14842" lon="6.67471">
        <ele>1780</ele>
        <time>2022-06-08T22:01:31Z</time>
      </trkpt>
      <trkpt lat="44.14839" lon="6.67483">
        <ele>1784</ele>
        <time>2022-06-08T22:01:33Z</time>
      </trkpt>
      <trkpt lat="44.14828" lon="6.67476">
        <ele>1784</ele>
        <time>2022-06-08T22:01:36Z</time>
      </trkpt>
      <trkpt lat="44.14821" lon="6.67515">
        <ele>1797</ele>
        <time>2022-06-08T22:01:42Z</time>
      </trkpt>
      <trkpt lat="44.14821" lon="6.67532">
        <ele>1799</ele>
        <time>2022-06-08T22:01:45Z</time>
      </trkpt>
      <trkpt lat="44.14814" lon="6.67561">
        <ele>1806</ele>
        <time>2022-06-08T22:01:50Z</time>
      </trkpt>
      <trkpt lat="44.14815" lon="6.67571">
        <ele>1807</ele>
        <time>2022-06-08T22:01:52Z</time>
      </trkpt>
      <trkpt lat="44.14811" lon="6.67574">
        <ele>1808</ele>
        <time>2022-06-08T22:01:53Z</time>
      </trkpt>
      <trkpt lat="44.148" lon="6.67568">
        <ele>1812</ele>
        <time>2022-06-08T22:01:56Z</time>
      </trkpt>
      <trkpt lat="44.1479" lon="6.67547">
        <ele>1814</ele>
        <time>2022-06-08T22:02:00Z</time>
      </trkpt>
      <trkpt lat="44.14774" lon="6.67522">
        <ele>1820</ele>
        <time>2022-06-08T22:02:06Z</time>
      </trkpt>
      <trkpt lat="44.14765" lon="6.67541">
        <ele>1824</ele>
        <time>2022-06-08T22:02:09Z</time>
      </trkpt>
      <trkpt lat="44.14762" lon="6.67555">
        <ele>1825</ele>
        <time>2022-06-08T22:02:12Z</time>
      </trkpt>
      <trkpt lat="44.14757" lon="6.67545">
        <ele>1827</ele>
        <time>2022-06-08T22:02:14Z</time>
      </trkpt>
      <trkpt lat="44.14752" lon="6.67507">
        <ele>1830</ele>
        <time>2022-06-08T22:02:20Z</time>
      </trkpt>
      <trkpt lat="44.14748" lon="6.67496">
        <ele>1831</ele>
        <time>2022-06-08T22:02:22Z</time>
      </trkpt>
      <trkpt lat="44.14741" lon="6.67489">
        <ele>1831</ele>
        <time>2022-06-08T22:02:24Z</time>
      </trkpt>
      <trkpt lat="44.14713" lon="6.67496">
        <ele>1838</ele>
        <time>2022-06-08T22:02:31Z</time>
      </trkpt>
      <trkpt lat="44.14716" lon="6.67506">
        <ele>1838</ele>
        <time>2022-06-08T22:02:33Z</time>
      </trkpt>
      <trkpt lat="44.1471" lon="6.67512">
        <ele>1839</ele>
        <time>2022-06-08T22:02:35Z</time>
      </trkpt>
      <trkpt lat="44.14691" lon="6.67515">
        <ele>1843</ele>
        <time>2022-06-08T22:02:39Z</time>
      </trkpt>
      <trkpt lat="44.14685" lon="6.67521">
        <ele>1844</ele>
        <time>2022-06-08T22:02:41Z</time>
      </trkpt>
      <trkpt lat="44.14675" lon="6.6752">
        <ele>1846</ele>
        <time>2022-06-08T22:02:43Z</time>
      </trkpt>
      <trkpt lat="44.14658" lon="6.67524">
        <ele>1851</ele>
        <time>2022-06-08T22:02:47Z</time>
      </trkpt>
      <trkpt lat="44.1463" lon="6.67522">
        <ele>1860</ele>
        <time>2022-06-08T22:02:54Z</time>
      </trkpt>
      <trkpt lat="44.14615" lon="6.67528">
        <ele>1864</ele>
        <time>2022-06-08T22:02:57Z</time>
      </trkpt>
      <trkpt lat="44.14606" lon="6.67536">
        <ele>1866</ele>
        <time>2022-06-08T22:03:00Z</time>
      </trkpt>
      <trkpt lat="44.14601" lon="6.67537">
        <ele>1867</ele>
        <time>2022-06-08T22:03:01Z</time>
      </trkpt>
      <trkpt lat="44.146" lon="6.67529">
        <ele>1869</ele>
        <time>2022-06-08T22:03:02Z</time>
      </trkpt>
      <trkpt lat="44.1459" lon="6.67534">
        <ele>1871</ele>
        <time>2022-06-08T22:03:05Z</time>
      </trkpt>
      <trkpt lat="44.14588" lon="6.67524">
        <ele>1874</ele>
        <time>2022-06-08T22:03:07Z</time>
      </trkpt>
      <trkpt lat="44.14578" lon="6.67531">
        <ele>1877</ele>
        <time>2022-06-08T22:03:09Z</time>
      </trkpt>
      <trkpt lat="44.1458" lon="6.6751">
        <ele>1880</ele>
        <time>2022-06-08T22:03:13Z</time>
      </trkpt>
      <trkpt lat="44.14578" lon="6.6751">
        <ele>1882</ele>
        <time>2022-06-08T22:03:13Z</time>
      </trkpt>
      <trkpt lat="44.14554" lon="6.67538">
        <ele>1892</ele>
        <time>2022-06-08T22:03:21Z</time>
      </trkpt>
      <trkpt lat="44.14557" lon="6.67522">
        <ele>1894</ele>
        <time>2022-06-08T22:03:23Z</time>
      </trkpt>
      <trkpt lat="44.14563" lon="6.6751">
        <ele>1893</ele>
        <time>2022-06-08T22:03:26Z</time>
      </trkpt>
      <trkpt lat="44.14566" lon="6.67477">
        <ele>1900</ele>
        <time>2022-06-08T22:03:31Z</time>
      </trkpt>
      <trkpt lat="44.14565" lon="6.6747">
        <ele>1903</ele>
        <time>2022-06-08T22:03:33Z</time>
      </trkpt>
      <trkpt lat="44.14561" lon="6.67467">
        <ele>1906</ele>
        <time>2022-06-08T22:03:34Z</time>
      </trkpt>
      <trkpt lat="44.14553" lon="6.67477">
        <ele>1910</ele>
        <time>2022-06-08T22:03:36Z</time>
      </trkpt>
      <trkpt lat="44.14552" lon="6.67466">
        <ele>1914</ele>
        <time>2022-06-08T22:03:38Z</time>
      </trkpt>
      <trkpt lat="44.14546" lon="6.6747">
        <ele>1917</ele>
        <time>2022-06-08T22:03:40Z</time>
      </trkpt>
      <trkpt lat="44.14548" lon="6.67471">
        <ele>1915</ele>
        <time>2022-06-08T22:03:40Z</time>
      </trkpt>
      <trkpt lat="44.1454" lon="6.67487">
        <ele>1917</ele>
        <time>2022-06-08T22:03:43Z</time>
      </trkpt>
      <trkpt lat="44.14521" lon="6.6752">
        <ele>1921</ele>
        <time>2022-06-08T22:03:50Z</time>
      </trkpt>
      <trkpt lat="44.14492" lon="6.67563">
        <ele>1924</ele>
        <time>2022-06-08T22:04:00Z</time>
      </trkpt>
      <trkpt lat="44.14469" lon="6.67591">
        <ele>1926</ele>
        <time>2022-06-08T22:04:07Z</time>
      </trkpt>
      <trkpt lat="44.14455" lon="6.67594">
        <ele>1933</ele>
        <time>2022-06-08T22:04:11Z</time>
      </trkpt>
      <trkpt lat="44.14453" lon="6.676">
        <ele>1932</ele>
        <time>2022-06-08T22:04:12Z</time>
      </trkpt>
      <trkpt lat="44.14431" lon="6.67626">
        <ele>1934</ele>
        <time>2022-06-08T22:04:19Z</time>
      </trkpt>
      <trkpt lat="44.144" lon="6.67648">
        <ele>1940</ele>
        <time>2022-06-08T22:04:27Z</time>
      </trkpt>
      <trkpt lat="44.14311" lon="6.67741">
        <ele>1945</ele>
        <time>2022-06-08T22:04:53Z</time>
      </trkpt>
      <trkpt lat="44.14287" lon="6.67759">
        <ele>1949</ele>
        <time>2022-06-08T22:04:59Z</time>
      </trkpt>
      <trkpt lat="44.14212" lon="6.67804">
        <ele>1960</ele>
        <time>2022-06-08T22:05:18Z</time>
      </trkpt>
      <trkpt lat="44.14184" lon="6.67813">
        <ele>1966</ele>
        <time>2022-06-08T22:05:25Z</time>
      </trkpt>
      <trkpt lat="44.14136" lon="6.67836">
        <ele>1973</ele>
        <time>2022-06-08T22:05:37Z</time>
      </trkpt>
      <trkpt lat="44.14106" lon="6.67866">
        <ele>1973</ele>
        <time>2022-06-08T22:05:45Z</time>
      </trkpt>
      <trkpt lat="44.14096" lon="6.67871">
        <ele>1974</ele>
        <time>2022-06-08T22:05:48Z</time>
      </trkpt>
      <trkpt lat="44.14057" lon="6.67875">
        <ele>1984</ele>
        <time>2022-06-08T22:05:57Z</time>
      </trkpt>
      <trkpt lat="44.14044" lon="6.6788">
        <ele>1986</ele>
        <time>2022-06-08T22:06:00Z</time>
      </trkpt>
      <trkpt lat="44.14027" lon="6.67882">
        <ele>1990</ele>
        <time>2022-06-08T22:06:04Z</time>
      </trkpt>
      <trkpt lat="44.13992" lon="6.67891">
        <ele>1997</ele>
        <time>2022-06-08T22:06:12Z</time>
      </trkpt>
      <trkpt lat="44.13982" lon="6.67888">
        <ele>2000</ele>
        <time>2022-06-08T22:06:15Z</time>
      </trkpt>
      <trkpt lat="44.13962" lon="6.67891">
        <ele>2004</ele>
        <time>2022-06-08T22:06:19Z</time>
      </trkpt>
      <trkpt lat="44.1395" lon="6.6789">
        <ele>2006</ele>
        <time>2022-06-08T22:06:22Z</time>
      </trkpt>
      <trkpt lat="44.13935" lon="6.67898">
        <ele>2008</ele>
        <time>2022-06-08T22:06:26Z</time>
      </trkpt>
      <trkpt lat="44.13928" lon="6.67898">
        <ele>2010</ele>
        <time>2022-06-08T22:06:28Z</time>
      </trkpt>
      <trkpt lat="44.13921" lon="6.67894">
        <ele>2012</ele>
        <time>2022-06-08T22:06:29Z</time>
      </trkpt>
      <trkpt lat="44.13911" lon="6.67899">
        <ele>2013</ele>
        <time>2022-06-08T22:06:32Z</time>
      </trkpt>
      <trkpt lat="44.13901" lon="6.67898">
        <ele>2015</ele>
        <time>2022-06-08T22:06:34Z</time>
      </trkpt>
      <trkpt lat="44.13892" lon="6.67893">
        <ele>2017</ele>
        <time>2022-06-08T22:06:37Z</time>
      </trkpt>
      <trkpt lat="44.13867" lon="6.67893">
        <ele>2022</ele>
        <time>2022-06-08T22:06:42Z</time>
      </trkpt>
      <trkpt lat="44.13837" lon="6.67908">
        <ele>2025</ele>
        <time>2022-06-08T22:06:50Z</time>
      </trkpt>
      <trkpt lat="44.13819" lon="6.67926">
        <ele>2026</ele>
        <time>2022-06-08T22:06:55Z</time>
      </trkpt>
      <trkpt lat="44.13806" lon="6.67926">
        <ele>2029</ele>
        <time>2022-06-08T22:06:58Z</time>
      </trkpt>
      <trkpt lat="44.13796" lon="6.67923">
        <ele>2031</ele>
        <time>2022-06-08T22:07:00Z</time>
      </trkpt>
      <trkpt lat="44.13766" lon="6.6793">
        <ele>2036</ele>
        <time>2022-06-08T22:07:08Z</time>
      </trkpt>
      <trkpt lat="44.13743" lon="6.67942">
        <ele>2040</ele>
        <time>2022-06-08T22:07:13Z</time>
      </trkpt>
      <trkpt lat="44.13732" lon="6.67935">
        <ele>2042</ele>
        <time>2022-06-08T22:07:16Z</time>
      </trkpt>
      <trkpt lat="44.13715" lon="6.67942">
        <ele>2044</ele>
        <time>2022-06-08T22:07:20Z</time>
      </trkpt>
      <trkpt lat="44.13709" lon="6.67952">
        <ele>2045</ele>
        <time>2022-06-08T22:07:22Z</time>
      </trkpt>
      <trkpt lat="44.13698" lon="6.67981">
        <ele>2046</ele>
        <time>2022-06-08T22:07:28Z</time>
      </trkpt>
      <trkpt lat="44.13703" lon="6.67994">
        <ele>2045</ele>
        <time>2022-06-08T22:07:30Z</time>
      </trkpt>
      <trkpt lat="44.13699" lon="6.68016">
        <ele>2048</ele>
        <time>2022-06-08T22:07:34Z</time>
      </trkpt>
      <trkpt lat="44.13705" lon="6.6803">
        <ele>2049</ele>
        <time>2022-06-08T22:07:37Z</time>
      </trkpt>
      <trkpt lat="44.13702" lon="6.6804">
        <ele>2051</ele>
        <time>2022-06-08T22:07:39Z</time>
      </trkpt>
      <trkpt lat="44.13703" lon="6.68049">
        <ele>2052</ele>
        <time>2022-06-08T22:07:40Z</time>
      </trkpt>
      <trkpt lat="44.13716" lon="6.68068">
        <ele>2052</ele>
        <time>2022-06-08T22:07:45Z</time>
      </trkpt>
      <trkpt lat="44.13717" lon="6.68075">
        <ele>2053</ele>
        <time>2022-06-08T22:07:46Z</time>
      </trkpt>
      <trkpt lat="44.13748" lon="6.68115">
        <ele>2054</ele>
        <time>2022-06-08T22:07:56Z</time>
      </trkpt>
      <trkpt lat="44.13748" lon="6.68144">
        <ele>2057</ele>
        <time>2022-06-08T22:08:01Z</time>
      </trkpt>
      <trkpt lat="44.13734" lon="6.68177">
        <ele>2062</ele>
        <time>2022-06-08T22:08:07Z</time>
      </trkpt>
      <trkpt lat="44.13732" lon="6.68196">
        <ele>2064</ele>
        <time>2022-06-08T22:08:10Z</time>
      </trkpt>
      <trkpt lat="44.13727" lon="6.68213">
        <ele>2066</ele>
        <time>2022-06-08T22:08:13Z</time>
      </trkpt>
      <trkpt lat="44.13712" lon="6.68235">
        <ele>2071</ele>
        <time>2022-06-08T22:08:18Z</time>
      </trkpt>
      <trkpt lat="44.13696" lon="6.68247">
        <ele>2075</ele>
        <time>2022-06-08T22:08:23Z</time>
      </trkpt>
      <trkpt lat="44.13693" lon="6.68254">
        <ele>2075</ele>
        <time>2022-06-08T22:08:24Z</time>
      </trkpt>
      <trkpt lat="44.13681" lon="6.68267">
        <ele>2078</ele>
        <time>2022-06-08T22:08:28Z</time>
      </trkpt>
      <trkpt lat="44.13673" lon="6.68266">
        <ele>2080</ele>
        <time>2022-06-08T22:08:29Z</time>
      </trkpt>
      <trkpt lat="44.13659" lon="6.68282">
        <ele>2083</ele>
        <time>2022-06-08T22:08:34Z</time>
      </trkpt>
      <trkpt lat="44.13648" lon="6.68286">
        <ele>2086</ele>
        <time>2022-06-08T22:08:36Z</time>
      </trkpt>
      <trkpt lat="44.13633" lon="6.68298">
        <ele>2090</ele>
        <time>2022-06-08T22:08:40Z</time>
      </trkpt>
      <trkpt lat="44.13623" lon="6.68303">
        <ele>2093</ele>
        <time>2022-06-08T22:08:43Z</time>
      </trkpt>
      <trkpt lat="44.1361" lon="6.68303">
        <ele>2096</ele>
        <time>2022-06-08T22:08:46Z</time>
      </trkpt>
      <trkpt lat="44.13598" lon="6.68309">
        <ele>2099</ele>
        <time>2022-06-08T22:08:49Z</time>
      </trkpt>
      <trkpt lat="44.13523" lon="6.68385">
        <ele>2114</ele>
        <time>2022-06-08T22:09:10Z</time>
      </trkpt>
      <trkpt lat="44.13511" lon="6.68393">
        <ele>2117</ele>
        <time>2022-06-08T22:09:14Z</time>
      </trkpt>
      <trkpt lat="44.13494" lon="6.68409">
        <ele>2120</ele>
        <time>2022-06-08T22:09:18Z</time>
      </trkpt>
      <trkpt lat="44.13486" lon="6.6842">
        <ele>2121</ele>
        <time>2022-06-08T22:09:21Z</time>
      </trkpt>
      <trkpt lat="44.13469" lon="6.68433">
        <ele>2126</ele>
        <time>2022-06-08T22:09:26Z</time>
      </trkpt>
      <trkpt lat="44.13465" lon="6.6844">
        <ele>2126</ele>
        <time>2022-06-08T22:09:27Z</time>
      </trkpt>
      <trkpt lat="44.1346" lon="6.68441">
        <ele>2128</ele>
        <time>2022-06-08T22:09:28Z</time>
      </trkpt>
      <trkpt lat="44.13455" lon="6.68447">
        <ele>2129</ele>
        <time>2022-06-08T22:09:30Z</time>
      </trkpt>
      <trkpt lat="44.13421" lon="6.68467">
        <ele>2142</ele>
        <time>2022-06-08T22:09:38Z</time>
      </trkpt>
      <trkpt lat="44.13415" lon="6.68474">
        <ele>2144</ele>
        <time>2022-06-08T22:09:40Z</time>
      </trkpt>
      <trkpt lat="44.13385" lon="6.68496">
        <ele>2153</ele>
        <time>2022-06-08T22:09:48Z</time>
      </trkpt>
      <trkpt lat="44.13377" lon="6.68508">
        <ele>2152</ele>
        <time>2022-06-08T22:09:51Z</time>
      </trkpt>
      <trkpt lat="44.13358" lon="6.68517">
        <ele>2157</ele>
        <time>2022-06-08T22:09:56Z</time>
      </trkpt>
      <trkpt lat="44.13332" lon="6.68542">
        <ele>2158</ele>
        <time>2022-06-08T22:10:03Z</time>
      </trkpt>
      <trkpt lat="44.13326" lon="6.68543">
        <ele>2160</ele>
        <time>2022-06-08T22:10:04Z</time>
      </trkpt>
      <trkpt lat="44.1332" lon="6.6855">
        <ele>2159</ele>
        <time>2022-06-08T22:10:06Z</time>
      </trkpt>
      <trkpt lat="44.13302" lon="6.6856">
        <ele>2163</ele>
        <time>2022-06-08T22:10:11Z</time>
      </trkpt>
      <trkpt lat="44.13273" lon="6.68582">
        <ele>2165</ele>
        <time>2022-06-08T22:10:18Z</time>
      </trkpt>
      <trkpt lat="44.13259" lon="6.68589">
        <ele>2167</ele>
        <time>2022-06-08T22:10:22Z</time>
      </trkpt>
      <trkpt lat="44.13208" lon="6.68607">
        <ele>2182</ele>
        <time>2022-06-08T22:10:34Z</time>
      </trkpt>
      <trkpt lat="44.13205" lon="6.686">
        <ele>2187</ele>
        <time>2022-06-08T22:10:36Z</time>
      </trkpt>
      <trkpt lat="44.1319" lon="6.68604">
        <ele>2193</ele>
        <time>2022-06-08T22:10:39Z</time>
      </trkpt>
      <trkpt lat="44.1318" lon="6.68603">
        <ele>2198</ele>
        <time>2022-06-08T22:10:41Z</time>
      </trkpt>
      <trkpt lat="44.13166" lon="6.6861">
        <ele>2202</ele>
        <time>2022-06-08T22:10:45Z</time>
      </trkpt>
      <trkpt lat="44.13158" lon="6.68623">
        <ele>2201</ele>
        <time>2022-06-08T22:10:48Z</time>
      </trkpt>
      <trkpt lat="44.13144" lon="6.68635">
        <ele>2202</ele>
        <time>2022-06-08T22:10:52Z</time>
      </trkpt>
      <trkpt lat="44.13117" lon="6.68666">
        <ele>2202</ele>
        <time>2022-06-08T22:11:00Z</time>
      </trkpt>
      <trkpt lat="44.13107" lon="6.68668">
        <ele>2206</ele>
        <time>2022-06-08T22:11:02Z</time>
      </trkpt>
      <trkpt lat="44.1309" lon="6.68679">
        <ele>2209</ele>
        <time>2022-06-08T22:11:07Z</time>
      </trkpt>
      <trkpt lat="44.13082" lon="6.68693">
        <ele>2208</ele>
        <time>2022-06-08T22:11:10Z</time>
      </trkpt>
      <trkpt lat="44.13063" lon="6.68708">
        <ele>2208</ele>
        <time>2022-06-08T22:11:15Z</time>
      </trkpt>
      <trkpt lat="44.13027" lon="6.68728">
        <ele>2211</ele>
        <time>2022-06-08T22:11:24Z</time>
      </trkpt>
      <trkpt lat="44.13002" lon="6.68738">
        <ele>2214</ele>
        <time>2022-06-08T22:11:30Z</time>
      </trkpt>
      <trkpt lat="44.13" lon="6.68737">
        <ele>2215</ele>
        <time>2022-06-08T22:11:30Z</time>
      </trkpt>
      <trkpt lat="44.13002" lon="6.68741">
        <ele>2213</ele>
        <time>2022-06-08T22:11:31Z</time>
      </trkpt>
      <trkpt lat="44.12999" lon="6.6874">
        <ele>2214</ele>
        <time>2022-06-08T22:11:32Z</time>
      </trkpt>
      <trkpt lat="44.13001" lon="6.68739">
        <ele>2214</ele>
        <time>2022-06-08T22:11:32Z</time>
      </trkpt>
      <trkpt lat="44.12995" lon="6.68739">
        <ele>2215</ele>
        <time>2022-06-08T22:11:34Z</time>
      </trkpt>
      <trkpt lat="44.12971" lon="6.68745">
        <ele>2217</ele>
        <time>2022-06-08T22:11:39Z</time>
      </trkpt>
      <trkpt lat="44.1296" lon="6.68751">
        <ele>2217</ele>
        <time>2022-06-08T22:11:42Z</time>
      </trkpt>
      <trkpt lat="44.12944" lon="6.68754">
        <ele>2218</ele>
        <time>2022-06-08T22:11:46Z</time>
      </trkpt>
      <trkpt lat="44.12933" lon="6.68753">
        <ele>2220</ele>
        <time>2022-06-08T22:11:48Z</time>
      </trkpt>
      <trkpt lat="44.12925" lon="6.68756">
        <ele>2220</ele>
        <time>2022-06-08T22:11:50Z</time>
      </trkpt>
      <trkpt lat="44.12901" lon="6.68773">
        <ele>2217</ele>
        <time>2022-06-08T22:11:57Z</time>
      </trkpt>
      <trkpt lat="44.12878" lon="6.68781">
        <ele>2219</ele>
        <time>2022-06-08T22:12:02Z</time>
      </trkpt>
      <trkpt lat="44.12859" lon="6.68774">
        <ele>2226</ele>
        <time>2022-06-08T22:12:07Z</time>
      </trkpt>
      <trkpt lat="44.1285" lon="6.68767">
        <ele>2231</ele>
        <time>2022-06-08T22:12:09Z</time>
      </trkpt>
      <trkpt lat="44.12837" lon="6.68763">
        <ele>2236</ele>
        <time>2022-06-08T22:12:12Z</time>
      </trkpt>
      <trkpt lat="44.12823" lon="6.68771">
        <ele>2235</ele>
        <time>2022-06-08T22:12:16Z</time>
      </trkpt>
      <trkpt lat="44.12801" lon="6.68808">
        <ele>2224</ele>
        <time>2022-06-08T22:12:24Z</time>
      </trkpt>
      <trkpt lat="44.12795" lon="6.68812">
        <ele>2223</ele>
        <time>2022-06-08T22:12:25Z</time>
      </trkpt>
      <trkpt lat="44.12791" lon="6.68811">
        <ele>2225</ele>
        <time>2022-06-08T22:12:26Z</time>
      </trkpt>
      <trkpt lat="44.12753" lon="6.68823">
        <ele>2229</ele>
        <time>2022-06-08T22:12:36Z</time>
      </trkpt>
      <trkpt lat="44.12693" lon="6.68879">
        <ele>2225</ele>
        <time>2022-06-08T22:12:52Z</time>
      </trkpt>
      <trkpt lat="44.12654" lon="6.6891">
        <ele>2224</ele>
        <time>2022-06-08T22:13:03Z</time>
      </trkpt>
      <trkpt lat="44.12645" lon="6.68914">
        <ele>2224</ele>
        <time>2022-06-08T22:13:05Z</time>
      </trkpt>
      <trkpt lat="44.12605" lon="6.68925">
        <ele>2225</ele>
        <time>2022-06-08T22:13:15Z</time>
      </trkpt>
      <trkpt lat="44.12599" lon="6.6893">
        <ele>2225</ele>
        <time>2022-06-08T22:13:16Z</time>
      </trkpt>
      <trkpt lat="44.1258" lon="6.68938">
        <ele>2224</ele>
        <time>2022-06-08T22:13:21Z</time>
      </trkpt>
      <trkpt lat="44.1255" lon="6.68944">
        <ele>2224</ele>
        <time>2022-06-08T22:13:28Z</time>
      </trkpt>
      <trkpt lat="44.12497" lon="6.68949">
        <ele>2224</ele>
        <time>2022-06-08T22:13:40Z</time>
      </trkpt>
      <trkpt lat="44.12467" lon="6.68959">
        <ele>2224</ele>
        <time>2022-06-08T22:13:48Z</time>
      </trkpt>
      <trkpt lat="44.12458" lon="6.68957">
        <ele>2225</ele>
        <time>2022-06-08T22:13:50Z</time>
      </trkpt>
      <trkpt lat="44.12446" lon="6.68966">
        <ele>2224</ele>
        <time>2022-06-08T22:13:53Z</time>
      </trkpt>
      <trkpt lat="44.12366" lon="6.68993">
        <ele>2222</ele>
        <time>2022-06-08T22:14:12Z</time>
      </trkpt>
      <trkpt lat="44.12314" lon="6.68991">
        <ele>2221</ele>
        <time>2022-06-08T22:14:24Z</time>
      </trkpt>
      <trkpt lat="44.12286" lon="6.68996">
        <ele>2219</ele>
        <time>2022-06-08T22:14:31Z</time>
      </trkpt>
      <trkpt lat="44.1224" lon="6.68999">
        <ele>2217</ele>
        <time>2022-06-08T22:14:42Z</time>
      </trkpt>
      <trkpt lat="44.12209" lon="6.68993">
        <ele>2219</ele>
        <time>2022-06-08T22:14:49Z</time>
      </trkpt>
      <trkpt lat="44.12172" lon="6.68994">
        <ele>2219</ele>
        <time>2022-06-08T22:14:58Z</time>
      </trkpt>
      <trkpt lat="44.12166" lon="6.69">
        <ele>2219</ele>
        <time>2022-06-08T22:14:59Z</time>
      </trkpt>
      <trkpt lat="44.12072" lon="6.69031">
        <ele>2232</ele>
        <time>2022-06-08T22:15:22Z</time>
      </trkpt>
      <trkpt lat="44.12039" lon="6.69057">
        <ele>2235</ele>
        <time>2022-06-08T22:15:31Z</time>
      </trkpt>
      <trkpt lat="44.12025" lon="6.69062">
        <ele>2236</ele>
        <time>2022-06-08T22:15:34Z</time>
      </trkpt>
      <trkpt lat="44.11954" lon="6.69098">
        <ele>2240</ele>
        <time>2022-06-08T22:15:52Z</time>
      </trkpt>
      <trkpt lat="44.11913" lon="6.69124">
        <ele>2241</ele>
        <time>2022-06-08T22:16:02Z</time>
      </trkpt>
      <trkpt lat="44.11868" lon="6.69134">
        <ele>2241</ele>
        <time>2022-06-08T22:16:13Z</time>
      </trkpt>
      <trkpt lat="44.11845" lon="6.69145">
        <ele>2240</ele>
        <time>2022-06-08T22:16:19Z</time>
      </trkpt>
      <trkpt lat="44.11811" lon="6.69168">
        <ele>2237</ele>
        <time>2022-06-08T22:16:27Z</time>
      </trkpt>
      <trkpt lat="44.11772" lon="6.69186">
        <ele>2236</ele>
        <time>2022-06-08T22:16:37Z</time>
      </trkpt>
      <trkpt lat="44.11731" lon="6.69199">
        <ele>2237</ele>
        <time>2022-06-08T22:16:47Z</time>
      </trkpt>
      <trkpt lat="44.11637" lon="6.69247">
        <ele>2237</ele>
        <time>2022-06-08T22:17:10Z</time>
      </trkpt>
      <trkpt lat="44.11525" lon="6.69328">
        <ele>2241</ele>
        <time>2022-06-08T22:17:40Z</time>
      </trkpt>
      <trkpt lat="44.11492" lon="6.6936">
        <ele>2241</ele>
        <time>2022-06-08T22:17:49Z</time>
      </trkpt>
      <trkpt lat="44.11438" lon="6.69406">
        <ele>2241</ele>
        <time>2022-06-08T22:18:04Z</time>
      </trkpt>
      <trkpt lat="44.11431" lon="6.69421">
        <ele>2241</ele>
        <time>2022-06-08T22:18:07Z</time>
      </trkpt>
      <trkpt lat="44.11398" lon="6.69433">
        <ele>2242</ele>
        <time>2022-06-08T22:18:15Z</time>
      </trkpt>
      <trkpt lat="44.11338" lon="6.69526">
        <ele>2245</ele>
        <time>2022-06-08T22:18:36Z</time>
      </trkpt>
      <trkpt lat="44.11321" lon="6.69543">
        <ele>2246</ele>
        <time>2022-06-08T22:18:41Z</time>
      </trkpt>
      <trkpt lat="44.11302" lon="6.69571">
        <ele>2248</ele>
        <time>2022-06-08T22:18:47Z</time>
      </trkpt>
      <trkpt lat="44.1125" lon="6.69613">
        <ele>2251</ele>
        <time>2022-06-08T22:19:01Z</time>
      </trkpt>
      <trkpt lat="44.11243" lon="6.69615">
        <ele>2252</ele>
        <time>2022-06-08T22:19:03Z</time>
      </trkpt>
      <trkpt lat="44.11235" lon="6.69621">
        <ele>2252</ele>
        <time>2022-06-08T22:19:05Z</time>
      </trkpt>
      <trkpt lat="44.11208" lon="6.69628">
        <ele>2254</ele>
        <time>2022-06-08T22:19:11Z</time>
      </trkpt>
      <trkpt lat="44.11159" lon="6.69651">
        <ele>2256</ele>
        <time>2022-06-08T22:19:23Z</time>
      </trkpt>
      <trkpt lat="44.11102" lon="6.69693">
        <ele>2262</ele>
        <time>2022-06-08T22:19:38Z</time>
      </trkpt>
      <trkpt lat="44.11076" lon="6.69742">
        <ele>2266</ele>
        <time>2022-06-08T22:19:49Z</time>
      </trkpt>
      <trkpt lat="44.11064" lon="6.69757">
        <ele>2268</ele>
        <time>2022-06-08T22:19:52Z</time>
      </trkpt>
      <trkpt lat="44.1106" lon="6.69761">
        <ele>2268</ele>
        <time>2022-06-08T22:19:54Z</time>
      </trkpt>
      <trkpt lat="44.11045" lon="6.69767">
        <ele>2270</ele>
        <time>2022-06-08T22:19:57Z</time>
      </trkpt>
      <trkpt lat="44.11038" lon="6.69781">
        <ele>2270</ele>
        <time>2022-06-08T22:20:00Z</time>
      </trkpt>
      <trkpt lat="44.11033" lon="6.69786">
        <ele>2271</ele>
        <time>2022-06-08T22:20:02Z</time>
      </trkpt>
      <trkpt lat="44.11024" lon="6.6979">
        <ele>2272</ele>
        <time>2022-06-08T22:20:04Z</time>
      </trkpt>
      <trkpt lat="44.1101" lon="6.69806">
        <ele>2273</ele>
        <time>2022-06-08T22:20:08Z</time>
      </trkpt>
      <trkpt lat="44.10997" lon="6.69825">
        <ele>2275</ele>
        <time>2022-06-08T22:20:12Z</time>
      </trkpt>
      <trkpt lat="44.1095" lon="6.6991">
        <ele>2279</ele>
        <time>2022-06-08T22:20:30Z</time>
      </trkpt>
      <trkpt lat="44.109" lon="6.69986">
        <ele>2280</ele>
        <time>2022-06-08T22:20:48Z</time>
      </trkpt>
      <trkpt lat="44.10852" lon="6.70034">
        <ele>2280</ele>
        <time>2022-06-08T22:21:01Z</time>
      </trkpt>
      <trkpt lat="44.10782" lon="6.70133">
        <ele>2277</ele>
        <time>2022-06-08T22:21:25Z</time>
      </trkpt>
      <trkpt lat="44.10752" lon="6.70162">
        <ele>2276</ele>
        <time>2022-06-08T22:21:33Z</time>
      </trkpt>
      <trkpt lat="44.10736" lon="6.70172">
        <ele>2276</ele>
        <time>2022-06-08T22:21:37Z</time>
      </trkpt>
      <trkpt lat="44.1069" lon="6.70184">
        <ele>2276</ele>
        <time>2022-06-08T22:21:48Z</time>
      </trkpt>
      <trkpt lat="44.10694" lon="6.70191">
        <ele>2276</ele>
        <time>2022-06-08T22:21:50Z</time>
      </trkpt>
      <trkpt lat="44.10703" lon="6.70195">
        <ele>2276</ele>
        <time>2022-06-08T22:21:52Z</time>
      </trkpt>
      <trkpt lat="44.10699" lon="6.70205">
        <ele>2277</ele>
        <time>2022-06-08T22:21:54Z</time>
      </trkpt>
      <trkpt lat="44.10645" lon="6.70214">
        <ele>2278</ele>
        <time>2022-06-08T22:22:07Z</time>
      </trkpt>
      <trkpt lat="44.10627" lon="6.7022">
        <ele>2279</ele>
        <time>2022-06-08T22:22:11Z</time>
      </trkpt>
      <trkpt lat="44.10619" lon="6.70234">
        <ele>2281</ele>
        <time>2022-06-08T22:22:14Z</time>
      </trkpt>
      <trkpt lat="44.10586" lon="6.70234">
        <ele>2282</ele>
        <time>2022-06-08T22:22:22Z</time>
      </trkpt>
      <trkpt lat="44.10582" lon="6.70237">
        <ele>2282</ele>
        <time>2022-06-08T22:22:23Z</time>
      </trkpt>
      <trkpt lat="44.10571" lon="6.70238">
        <ele>2282</ele>
        <time>2022-06-08T22:22:25Z</time>
      </trkpt>
      <trkpt lat="44.10556" lon="6.70233">
        <ele>2282</ele>
        <time>2022-06-08T22:22:29Z</time>
      </trkpt>
      <trkpt lat="44.10518" lon="6.70241">
        <ele>2284</ele>
        <time>2022-06-08T22:22:38Z</time>
      </trkpt>
      <trkpt lat="44.10512" lon="6.70233">
        <ele>2283</ele>
        <time>2022-06-08T22:22:40Z</time>
      </trkpt>
      <trkpt lat="44.1051" lon="6.70233">
        <ele>2284</ele>
        <time>2022-06-08T22:22:40Z</time>
      </trkpt>
      <trkpt lat="44.10507" lon="6.70239">
        <ele>2284</ele>
        <time>2022-06-08T22:22:42Z</time>
      </trkpt>
      <trkpt lat="44.10511" lon="6.70232">
        <ele>2283</ele>
        <time>2022-06-08T22:22:43Z</time>
      </trkpt>
      <trkpt lat="44.1051" lon="6.70234">
        <ele>2284</ele>
        <time>2022-06-08T22:22:43Z</time>
      </trkpt>
      <trkpt lat="44.10505" lon="6.70224">
        <ele>2283</ele>
        <time>2022-06-08T22:22:45Z</time>
      </trkpt>
      <trkpt lat="44.10484" lon="6.7017">
        <ele>2279</ele>
        <time>2022-06-08T22:22:56Z</time>
      </trkpt>
      <trkpt lat="44.10483" lon="6.70116">
        <ele>2280</ele>
        <time>2022-06-08T22:23:05Z</time>
      </trkpt>
      <trkpt lat="44.10493" lon="6.70087">
        <ele>2280</ele>
        <time>2022-06-08T22:23:10Z</time>
      </trkpt>
      <trkpt lat="44.10495" lon="6.70063">
        <ele>2281</ele>
        <time>2022-06-08T22:23:14Z</time>
      </trkpt>
      <trkpt lat="44.10493" lon="6.7006">
        <ele>2282</ele>
        <time>2022-06-08T22:23:15Z</time>
      </trkpt>
      <trkpt lat="44.10502" lon="6.70024">
        <ele>2284</ele>
        <time>2022-06-08T22:23:21Z</time>
      </trkpt>
      <trkpt lat="44.10491" lon="6.70005">
        <ele>2285</ele>
        <time>2022-06-08T22:23:25Z</time>
      </trkpt>
      <trkpt lat="44.10508" lon="6.70001">
        <ele>2286</ele>
        <time>2022-06-08T22:23:29Z</time>
      </trkpt>
      <trkpt lat="44.1051" lon="6.69997">
        <ele>2286</ele>
        <time>2022-06-08T22:23:30Z</time>
      </trkpt>
      <trkpt lat="44.1054" lon="6.69979">
        <ele>2289</ele>
        <time>2022-06-08T22:23:38Z</time>
      </trkpt>
      <trkpt lat="44.10548" lon="6.69978">
        <ele>2289</ele>
        <time>2022-06-08T22:23:40Z</time>
      </trkpt>
      <trkpt lat="44.10561" lon="6.69964">
        <ele>2291</ele>
        <time>2022-06-08T22:23:44Z</time>
      </trkpt>
      <trkpt lat="44.10563" lon="6.69958">
        <ele>2292</ele>
        <time>2022-06-08T22:23:45Z</time>
      </trkpt>
      <trkpt lat="44.10575" lon="6.69979">
        <ele>2289</ele>
        <time>2022-06-08T22:23:49Z</time>
      </trkpt>
      <trkpt lat="44.10599" lon="6.69982">
        <ele>2289</ele>
        <time>2022-06-08T22:23:55Z</time>
      </trkpt>
      <trkpt lat="44.10608" lon="6.69981">
        <ele>2290</ele>
        <time>2022-06-08T22:23:57Z</time>
      </trkpt>
      <trkpt lat="44.10613" lon="6.69995">
        <ele>2288</ele>
        <time>2022-06-08T22:24:00Z</time>
      </trkpt>
      <trkpt lat="44.1062" lon="6.70002">
        <ele>2287</ele>
        <time>2022-06-08T22:24:02Z</time>
      </trkpt>
      <trkpt lat="44.10627" lon="6.70002">
        <ele>2287</ele>
        <time>2022-06-08T22:24:03Z</time>
      </trkpt>
      <trkpt lat="44.10639" lon="6.69998">
        <ele>2288</ele>
        <time>2022-06-08T22:24:06Z</time>
      </trkpt>
      <trkpt lat="44.10657" lon="6.69982">
        <ele>2291</ele>
        <time>2022-06-08T22:24:11Z</time>
      </trkpt>
      <trkpt lat="44.10681" lon="6.69974">
        <ele>2292</ele>
        <time>2022-06-08T22:24:17Z</time>
      </trkpt>
      <trkpt lat="44.10685" lon="6.69969">
        <ele>2292</ele>
        <time>2022-06-08T22:24:18Z</time>
      </trkpt>
      <trkpt lat="44.10698" lon="6.69973">
        <ele>2291</ele>
        <time>2022-06-08T22:24:21Z</time>
      </trkpt>
      <trkpt lat="44.10731" lon="6.69946">
        <ele>2292</ele>
        <time>2022-06-08T22:24:30Z</time>
      </trkpt>
      <trkpt lat="44.10747" lon="6.69928">
        <ele>2294</ele>
        <time>2022-06-08T22:24:35Z</time>
      </trkpt>
      <trkpt lat="44.1077" lon="6.69918">
        <ele>2293</ele>
        <time>2022-06-08T22:24:41Z</time>
      </trkpt>
      <trkpt lat="44.10795" lon="6.69895">
        <ele>2295</ele>
        <time>2022-06-08T22:24:48Z</time>
      </trkpt>
      <trkpt lat="44.1081" lon="6.69871">
        <ele>2296</ele>
        <time>2022-06-08T22:24:53Z</time>
      </trkpt>
      <trkpt lat="44.10814" lon="6.69852">
        <ele>2298</ele>
        <time>2022-06-08T22:24:56Z</time>
      </trkpt>
      <trkpt lat="44.10845" lon="6.69789">
        <ele>2298</ele>
        <time>2022-06-08T22:25:09Z</time>
      </trkpt>
      <trkpt lat="44.1086" lon="6.69727">
        <ele>2298</ele>
        <time>2022-06-08T22:25:20Z</time>
      </trkpt>
      <trkpt lat="44.10866" lon="6.69673">
        <ele>2297</ele>
        <time>2022-06-08T22:25:29Z</time>
      </trkpt>
      <trkpt lat="44.10866" lon="6.6964">
        <ele>2295</ele>
        <time>2022-06-08T22:25:35Z</time>
      </trkpt>
      <trkpt lat="44.10862" lon="6.69632">
        <ele>2295</ele>
        <time>2022-06-08T22:25:36Z</time>
      </trkpt>
      <trkpt lat="44.10856" lon="6.69632">
        <ele>2296</ele>
        <time>2022-06-08T22:25:38Z</time>
      </trkpt>
      <trkpt lat="44.1083" lon="6.69621">
        <ele>2298</ele>
        <time>2022-06-08T22:25:44Z</time>
      </trkpt>
      <trkpt lat="44.10811" lon="6.69597">
        <ele>2299</ele>
        <time>2022-06-08T22:25:50Z</time>
      </trkpt>
      <trkpt lat="44.1079" lon="6.69584">
        <ele>2300</ele>
        <time>2022-06-08T22:25:55Z</time>
      </trkpt>
      <trkpt lat="44.10765" lon="6.69598">
        <ele>2304</ele>
        <time>2022-06-08T22:26:02Z</time>
      </trkpt>
      <trkpt lat="44.10758" lon="6.69594">
        <ele>2305</ele>
        <time>2022-06-08T22:26:04Z</time>
      </trkpt>
      <trkpt lat="44.10749" lon="6.69567">
        <ele>2304</ele>
        <time>2022-06-08T22:26:09Z</time>
      </trkpt>
      <trkpt lat="44.10734" lon="6.69541">
        <ele>2303</ele>
        <time>2022-06-08T22:26:14Z</time>
      </trkpt>
      <trkpt lat="44.10708" lon="6.69518">
        <ele>2305</ele>
        <time>2022-06-08T22:26:21Z</time>
      </trkpt>
      <trkpt lat="44.1068" lon="6.69481">
        <ele>2308</ele>
        <time>2022-06-08T22:26:30Z</time>
      </trkpt>
      <trkpt lat="44.10677" lon="6.69471">
        <ele>2308</ele>
        <time>2022-06-08T22:26:32Z</time>
      </trkpt>
      <trkpt lat="44.10671" lon="6.69465">
        <ele>2309</ele>
        <time>2022-06-08T22:26:34Z</time>
      </trkpt>
      <trkpt lat="44.10653" lon="6.69383">
        <ele>2313</ele>
        <time>2022-06-08T22:26:48Z</time>
      </trkpt>
      <trkpt lat="44.10653" lon="6.6936">
        <ele>2313</ele>
        <time>2022-06-08T22:26:52Z</time>
      </trkpt>
      <trkpt lat="44.10657" lon="6.69357">
        <ele>2313</ele>
        <time>2022-06-08T22:26:53Z</time>
      </trkpt>
      <trkpt lat="44.10674" lon="6.69323">
        <ele>2309</ele>
        <time>2022-06-08T22:27:00Z</time>
      </trkpt>
      <trkpt lat="44.10682" lon="6.6928">
        <ele>2306</ele>
        <time>2022-06-08T22:27:08Z</time>
      </trkpt>
      <trkpt lat="44.1067" lon="6.6925">
        <ele>2309</ele>
        <time>2022-06-08T22:27:13Z</time>
      </trkpt>
      <trkpt lat="44.10673" lon="6.69236">
        <ele>2309</ele>
        <time>2022-06-08T22:27:16Z</time>
      </trkpt>
      <trkpt lat="44.10668" lon="6.69217">
        <ele>2311</ele>
        <time>2022-06-08T22:27:19Z</time>
      </trkpt>
      <trkpt lat="44.10664" lon="6.69216">
        <ele>2312</ele>
        <time>2022-06-08T22:27:20Z</time>
      </trkpt>
      <trkpt lat="44.10666" lon="6.69216">
        <ele>2311</ele>
        <time>2022-06-08T22:27:21Z</time>
      </trkpt>
      <trkpt lat="44.10664" lon="6.69216">
        <ele>2312</ele>
        <time>2022-06-08T22:27:21Z</time>
      </trkpt>
      <trkpt lat="44.10666" lon="6.69207">
        <ele>2312</ele>
        <time>2022-06-08T22:27:23Z</time>
      </trkpt>
      <trkpt lat="44.10658" lon="6.69181">
        <ele>2315</ele>
        <time>2022-06-08T22:27:27Z</time>
      </trkpt>
      <trkpt lat="44.10663" lon="6.69124">
        <ele>2315</ele>
        <time>2022-06-08T22:27:37Z</time>
      </trkpt>
      <trkpt lat="44.10662" lon="6.69113">
        <ele>2315</ele>
        <time>2022-06-08T22:27:39Z</time>
      </trkpt>
      <trkpt lat="44.10659" lon="6.69112">
        <ele>2316</ele>
        <time>2022-06-08T22:27:40Z</time>
      </trkpt>
      <trkpt lat="44.1066" lon="6.69108">
        <ele>2316</ele>
        <time>2022-06-08T22:27:40Z</time>
      </trkpt>
      <trkpt lat="44.10661" lon="6.69115">
        <ele>2315</ele>
        <time>2022-06-08T22:27:41Z</time>
      </trkpt>
      <trkpt lat="44.10667" lon="6.69117">
        <ele>2314</ele>
        <time>2022-06-08T22:27:43Z</time>
      </trkpt>
      <trkpt lat="44.10668" lon="6.69115">
        <ele>2313</ele>
        <time>2022-06-08T22:27:43Z</time>
      </trkpt>
      <trkpt lat="44.10671" lon="6.691">
        <ele>2313</ele>
        <time>2022-06-08T22:27:46Z</time>
      </trkpt>
      <trkpt lat="44.10671" lon="6.69084">
        <ele>2313</ele>
        <time>2022-06-08T22:27:49Z</time>
      </trkpt>
      <trkpt lat="44.10683" lon="6.69046">
        <ele>2313</ele>
        <time>2022-06-08T22:27:56Z</time>
      </trkpt>
      <trkpt lat="44.10673" lon="6.69">
        <ele>2317</ele>
        <time>2022-06-08T22:28:04Z</time>
      </trkpt>
      <trkpt lat="44.10687" lon="6.68971">
        <ele>2319</ele>
        <time>2022-06-08T22:28:09Z</time>
      </trkpt>
      <trkpt lat="44.10695" lon="6.68962">
        <ele>2319</ele>
        <time>2022-06-08T22:28:12Z</time>
      </trkpt>
      <trkpt lat="44.10706" lon="6.68967">
        <ele>2317</ele>
        <time>2022-06-08T22:28:15Z</time>
      </trkpt>
      <trkpt lat="44.10709" lon="6.68964">
        <ele>2317</ele>
        <time>2022-06-08T22:28:15Z</time>
      </trkpt>
      <trkpt lat="44.10712" lon="6.68942">
        <ele>2319</ele>
        <time>2022-06-08T22:28:19Z</time>
      </trkpt>
      <trkpt lat="44.10711" lon="6.68903">
        <ele>2324</ele>
        <time>2022-06-08T22:28:26Z</time>
      </trkpt>
      <trkpt lat="44.10714" lon="6.68847">
        <ele>2329</ele>
        <time>2022-06-08T22:28:35Z</time>
      </trkpt>
      <trkpt lat="44.1071" lon="6.68835">
        <ele>2330</ele>
        <time>2022-06-08T22:28:37Z</time>
      </trkpt>
      <trkpt lat="44.10699" lon="6.68818">
        <ele>2333</ele>
        <time>2022-06-08T22:28:41Z</time>
      </trkpt>
      <trkpt lat="44.10697" lon="6.688">
        <ele>2334</ele>
        <time>2022-06-08T22:28:44Z</time>
      </trkpt>
      <trkpt lat="44.10692" lon="6.6879">
        <ele>2336</ele>
        <time>2022-06-08T22:28:46Z</time>
      </trkpt>
      <trkpt lat="44.10691" lon="6.68781">
        <ele>2336</ele>
        <time>2022-06-08T22:28:48Z</time>
      </trkpt>
      <trkpt lat="44.10666" lon="6.68759">
        <ele>2340</ele>
        <time>2022-06-08T22:28:55Z</time>
      </trkpt>
      <trkpt lat="44.10648" lon="6.68737">
        <ele>2344</ele>
        <time>2022-06-08T22:29:00Z</time>
      </trkpt>
      <trkpt lat="44.10641" lon="6.68712">
        <ele>2347</ele>
        <time>2022-06-08T22:29:05Z</time>
      </trkpt>
      <trkpt lat="44.10652" lon="6.68697">
        <ele>2349</ele>
        <time>2022-06-08T22:29:08Z</time>
      </trkpt>
      <trkpt lat="44.10649" lon="6.68696">
        <ele>2349</ele>
        <time>2022-06-08T22:29:09Z</time>
      </trkpt>
      <trkpt lat="44.10627" lon="6.68702">
        <ele>2349</ele>
        <time>2022-06-08T22:29:14Z</time>
      </trkpt>
      <trkpt lat="44.10639" lon="6.68667">
        <ele>2353</ele>
        <time>2022-06-08T22:29:21Z</time>
      </trkpt>
      <trkpt lat="44.10656" lon="6.68648">
        <ele>2354</ele>
        <time>2022-06-08T22:29:26Z</time>
      </trkpt>
      <trkpt lat="44.10678" lon="6.6864">
        <ele>2353</ele>
        <time>2022-06-08T22:29:31Z</time>
      </trkpt>
      <trkpt lat="44.10698" lon="6.68618">
        <ele>2353</ele>
        <time>2022-06-08T22:29:37Z</time>
      </trkpt>
      <trkpt lat="44.10703" lon="6.68585">
        <ele>2356</ele>
        <time>2022-06-08T22:29:43Z</time>
      </trkpt>
      <trkpt lat="44.10702" lon="6.68582">
        <ele>2356</ele>
        <time>2022-06-08T22:29:43Z</time>
      </trkpt>
      <trkpt lat="44.10686" lon="6.68578">
        <ele>2358</ele>
        <time>2022-06-08T22:29:47Z</time>
      </trkpt>
      <trkpt lat="44.1066" lon="6.68525">
        <ele>2361</ele>
        <time>2022-06-08T22:29:58Z</time>
      </trkpt>
      <trkpt lat="44.10662" lon="6.68508">
        <ele>2361</ele>
        <time>2022-06-08T22:30:01Z</time>
      </trkpt>
      <trkpt lat="44.10644" lon="6.68462">
        <ele>2365</ele>
        <time>2022-06-08T22:30:10Z</time>
      </trkpt>
      <trkpt lat="44.1064" lon="6.68442">
        <ele>2367</ele>
        <time>2022-06-08T22:30:13Z</time>
      </trkpt>
      <trkpt lat="44.10621" lon="6.68387">
        <ele>2373</ele>
        <time>2022-06-08T22:30:23Z</time>
      </trkpt>
      <trkpt lat="44.10625" lon="6.68359">
        <ele>2379</ele>
        <time>2022-06-08T22:30:28Z</time>
      </trkpt>
      <trkpt lat="44.10615" lon="6.6832">
        <ele>2384</ele>
        <time>2022-06-08T22:30:35Z</time>
      </trkpt>
      <trkpt lat="44.10591" lon="6.68275">
        <ele>2388</ele>
        <time>2022-06-08T22:30:45Z</time>
      </trkpt>
      <trkpt lat="44.10568" lon="6.68256">
        <ele>2391</ele>
        <time>2022-06-08T22:30:51Z</time>
      </trkpt>
      <trkpt lat="44.1058" lon="6.68253">
        <ele>2391</ele>
        <time>2022-06-08T22:30:54Z</time>
      </trkpt>
      <trkpt lat="44.10597" lon="6.68263">
        <ele>2390</ele>
        <time>2022-06-08T22:30:58Z</time>
      </trkpt>
      <trkpt lat="44.10612" lon="6.68263">
        <ele>2391</ele>
        <time>2022-06-08T22:31:01Z</time>
      </trkpt>
      <trkpt lat="44.10631" lon="6.6827">
        <ele>2392</ele>
        <time>2022-06-08T22:31:06Z</time>
      </trkpt>
      <trkpt lat="44.10637" lon="6.68257">
        <ele>2393</ele>
        <time>2022-06-08T22:31:09Z</time>
      </trkpt>
      <trkpt lat="44.10656" lon="6.68233">
        <ele>2397</ele>
        <time>2022-06-08T22:31:15Z</time>
      </trkpt>
      <trkpt lat="44.10675" lon="6.6822">
        <ele>2399</ele>
        <time>2022-06-08T22:31:20Z</time>
      </trkpt>
      <trkpt lat="44.10682" lon="6.682">
        <ele>2401</ele>
        <time>2022-06-08T22:31:23Z</time>
      </trkpt>
      <trkpt lat="44.10697" lon="6.68175">
        <ele>2403</ele>
        <time>2022-06-08T22:31:29Z</time>
      </trkpt>
      <trkpt lat="44.10729" lon="6.6814">
        <ele>2409</ele>
        <time>2022-06-08T22:31:38Z</time>
      </trkpt>
      <trkpt lat="44.10746" lon="6.6813">
        <ele>2409</ele>
        <time>2022-06-08T22:31:43Z</time>
      </trkpt>
      <trkpt lat="44.1075" lon="6.68124">
        <ele>2409</ele>
        <time>2022-06-08T22:31:44Z</time>
      </trkpt>
      <trkpt lat="44.10759" lon="6.68095">
        <ele>2411</ele>
        <time>2022-06-08T22:31:49Z</time>
      </trkpt>
      <trkpt lat="44.10764" lon="6.68087">
        <ele>2412</ele>
        <time>2022-06-08T22:31:51Z</time>
      </trkpt>
      <trkpt lat="44.10766" lon="6.68068">
        <ele>2416</ele>
        <time>2022-06-08T22:31:54Z</time>
      </trkpt>
      <trkpt lat="44.10779" lon="6.68047">
        <ele>2422</ele>
        <time>2022-06-08T22:31:59Z</time>
      </trkpt>
      <trkpt lat="44.10817" lon="6.68056">
        <ele>2420</ele>
        <time>2022-06-08T22:32:08Z</time>
      </trkpt>
      <trkpt lat="44.10832" lon="6.68063">
        <ele>2418</ele>
        <time>2022-06-08T22:32:12Z</time>
      </trkpt>
      <trkpt lat="44.10844" lon="6.68072">
        <ele>2418</ele>
        <time>2022-06-08T22:32:15Z</time>
      </trkpt>
      <trkpt lat="44.10855" lon="6.68064">
        <ele>2421</ele>
        <time>2022-06-08T22:32:18Z</time>
      </trkpt>
      <trkpt lat="44.10854" lon="6.68059">
        <ele>2422</ele>
        <time>2022-06-08T22:32:19Z</time>
      </trkpt>
      <trkpt lat="44.10868" lon="6.68047">
        <ele>2427</ele>
        <time>2022-06-08T22:32:22Z</time>
      </trkpt>
      <trkpt lat="44.10884" lon="6.68044">
        <ele>2430</ele>
        <time>2022-06-08T22:32:26Z</time>
      </trkpt>
      <trkpt lat="44.10887" lon="6.68036">
        <ele>2432</ele>
        <time>2022-06-08T22:32:28Z</time>
      </trkpt>
      <trkpt lat="44.10882" lon="6.68024">
        <ele>2434</ele>
        <time>2022-06-08T22:32:30Z</time>
      </trkpt>
      <trkpt lat="44.10864" lon="6.67999">
        <ele>2437</ele>
        <time>2022-06-08T22:32:36Z</time>
      </trkpt>
      <trkpt lat="44.10856" lon="6.67994">
        <ele>2437</ele>
        <time>2022-06-08T22:32:38Z</time>
      </trkpt>
      <trkpt lat="44.10852" lon="6.67987">
        <ele>2439</ele>
        <time>2022-06-08T22:32:39Z</time>
      </trkpt>
      <trkpt lat="44.10855" lon="6.67983">
        <ele>2440</ele>
        <time>2022-06-08T22:32:40Z</time>
      </trkpt>
      <trkpt lat="44.10871" lon="6.67983">
        <ele>2443</ele>
        <time>2022-06-08T22:32:44Z</time>
      </trkpt>
      <trkpt lat="44.10871" lon="6.67978">
        <ele>2444</ele>
        <time>2022-06-08T22:32:45Z</time>
      </trkpt>
      <trkpt lat="44.10859" lon="6.67965">
        <ele>2446</ele>
        <time>2022-06-08T22:32:49Z</time>
      </trkpt>
      <trkpt lat="44.10869" lon="6.67966">
        <ele>2447</ele>
        <time>2022-06-08T22:32:51Z</time>
      </trkpt>
      <trkpt lat="44.10886" lon="6.67963">
        <ele>2451</ele>
        <time>2022-06-08T22:32:55Z</time>
      </trkpt>
      <trkpt lat="44.10875" lon="6.67945">
        <ele>2454</ele>
        <time>2022-06-08T22:32:59Z</time>
      </trkpt>
      <trkpt lat="44.10867" lon="6.67938">
        <ele>2455</ele>
        <time>2022-06-08T22:33:01Z</time>
      </trkpt>
      <trkpt lat="44.10869" lon="6.67936">
        <ele>2456</ele>
        <time>2022-06-08T22:33:02Z</time>
      </trkpt>
      <trkpt lat="44.10875" lon="6.67937">
        <ele>2457</ele>
        <time>2022-06-08T22:33:03Z</time>
      </trkpt>
      <trkpt lat="44.10878" lon="6.67934">
        <ele>2458</ele>
        <time>2022-06-08T22:33:04Z</time>
      </trkpt>
      <trkpt lat="44.10853" lon="6.6791">
        <ele>2461</ele>
        <time>2022-06-08T22:33:11Z</time>
      </trkpt>
      <trkpt lat="44.10843" lon="6.67905">
        <ele>2461</ele>
        <time>2022-06-08T22:33:14Z</time>
      </trkpt>
      <trkpt lat="44.10835" lon="6.67897">
        <ele>2462</ele>
        <time>2022-06-08T22:33:16Z</time>
      </trkpt>
      <trkpt lat="44.10813" lon="6.67886">
        <ele>2462</ele>
        <time>2022-06-08T22:33:21Z</time>
      </trkpt>
      <trkpt lat="44.10761" lon="6.6785">
        <ele>2461</ele>
        <time>2022-06-08T22:33:35Z</time>
      </trkpt>
      <trkpt lat="44.10757" lon="6.67844">
        <ele>2461</ele>
        <time>2022-06-08T22:33:36Z</time>
      </trkpt>
      <trkpt lat="44.10759" lon="6.67842">
        <ele>2461</ele>
        <time>2022-06-08T22:33:37Z</time>
      </trkpt>
      <trkpt lat="44.10755" lon="6.67844">
        <ele>2460</ele>
        <time>2022-06-08T22:33:38Z</time>
      </trkpt>
      <trkpt lat="44.10761" lon="6.67847">
        <ele>2461</ele>
        <time>2022-06-08T22:33:39Z</time>
      </trkpt>
      <trkpt lat="44.10761" lon="6.67849">
        <ele>2461</ele>
        <time>2022-06-08T22:33:40Z</time>
      </trkpt>
      <trkpt lat="44.10766" lon="6.67843">
        <ele>2462</ele>
        <time>2022-06-08T22:33:41Z</time>
      </trkpt>
      <trkpt lat="44.10764" lon="6.67839">
        <ele>2462</ele>
        <time>2022-06-08T22:33:42Z</time>
      </trkpt>
      <trkpt lat="44.10761" lon="6.67841">
        <ele>2461</ele>
        <time>2022-06-08T22:33:43Z</time>
      </trkpt>
      <trkpt lat="44.10769" lon="6.67828">
        <ele>2462</ele>
        <time>2022-06-08T22:33:46Z</time>
      </trkpt>
      <trkpt lat="44.1078" lon="6.67818">
        <ele>2460</ele>
        <time>2022-06-08T22:33:49Z</time>
      </trkpt>
      <trkpt lat="44.10793" lon="6.67816">
        <ele>2462</ele>
        <time>2022-06-08T22:33:52Z</time>
      </trkpt>
      <trkpt lat="44.10803" lon="6.6781">
        <ele>2463</ele>
        <time>2022-06-08T22:33:54Z</time>
      </trkpt>
      <trkpt lat="44.10806" lon="6.67803">
        <ele>2462</ele>
        <time>2022-06-08T22:33:56Z</time>
      </trkpt>
      <trkpt lat="44.10821" lon="6.67791">
        <ele>2463</ele>
        <time>2022-06-08T22:34:00Z</time>
      </trkpt>
      <trkpt lat="44.10839" lon="6.67765">
        <ele>2463</ele>
        <time>2022-06-08T22:34:06Z</time>
      </trkpt>
      <trkpt lat="44.10848" lon="6.67739">
        <ele>2463</ele>
        <time>2022-06-08T22:34:11Z</time>
      </trkpt>
      <trkpt lat="44.1085" lon="6.67666">
        <ele>2451</ele>
        <time>2022-06-08T22:34:23Z</time>
      </trkpt>
      <trkpt lat="44.10846" lon="6.67626">
        <ele>2444</ele>
        <time>2022-06-08T22:34:30Z</time>
      </trkpt>
      <trkpt lat="44.10844" lon="6.6756">
        <ele>2438</ele>
        <time>2022-06-08T22:34:41Z</time>
      </trkpt>
      <trkpt lat="44.10842" lon="6.67557">
        <ele>2436</ele>
        <time>2022-06-08T22:34:41Z</time>
      </trkpt>
      <trkpt lat="44.10837" lon="6.67505">
        <ele>2431</ele>
        <time>2022-06-08T22:34:50Z</time>
      </trkpt>
      <trkpt lat="44.10825" lon="6.67458">
        <ele>2426</ele>
        <time>2022-06-08T22:34:59Z</time>
      </trkpt>
      <trkpt lat="44.10795" lon="6.67386">
        <ele>2412</ele>
        <time>2022-06-08T22:35:12Z</time>
      </trkpt>
      <trkpt lat="44.10788" lon="6.67361">
        <ele>2409</ele>
        <time>2022-06-08T22:35:17Z</time>
      </trkpt>
      <trkpt lat="44.10781" lon="6.67354">
        <ele>2405</ele>
        <time>2022-06-08T22:35:19Z</time>
      </trkpt>
      <trkpt lat="44.10775" lon="6.67341">
        <ele>2402</ele>
        <time>2022-06-08T22:35:22Z</time>
      </trkpt>
      <trkpt lat="44.10717" lon="6.6717">
        <ele>2382</ele>
        <time>2022-06-08T22:35:53Z</time>
      </trkpt>
      <trkpt lat="44.10679" lon="6.67106">
        <ele>2369</ele>
        <time>2022-06-08T22:36:07Z</time>
      </trkpt>
      <trkpt lat="44.10666" lon="6.67094">
        <ele>2363</ele>
        <time>2022-06-08T22:36:11Z</time>
      </trkpt>
      <trkpt lat="44.10663" lon="6.67088">
        <ele>2362</ele>
        <time>2022-06-08T22:36:12Z</time>
      </trkpt>
      <trkpt lat="44.10642" lon="6.67065">
        <ele>2354</ele>
        <time>2022-06-08T22:36:18Z</time>
      </trkpt>
      <trkpt lat="44.10633" lon="6.6705">
        <ele>2350</ele>
        <time>2022-06-08T22:36:22Z</time>
      </trkpt>
      <trkpt lat="44.10617" lon="6.67031">
        <ele>2343</ele>
        <time>2022-06-08T22:36:27Z</time>
      </trkpt>
      <trkpt lat="44.10599" lon="6.66998">
        <ele>2335</ele>
        <time>2022-06-08T22:36:33Z</time>
      </trkpt>
      <trkpt lat="44.10595" lon="6.66985">
        <ele>2332</ele>
        <time>2022-06-08T22:36:36Z</time>
      </trkpt>
      <trkpt lat="44.10593" lon="6.66966">
        <ele>2330</ele>
        <time>2022-06-08T22:36:39Z</time>
      </trkpt>
      <trkpt lat="44.10596" lon="6.66963">
        <ele>2332</ele>
        <time>2022-06-08T22:36:40Z</time>
      </trkpt>
      <trkpt lat="44.10597" lon="6.66928">
        <ele>2331</ele>
        <time>2022-06-08T22:36:46Z</time>
      </trkpt>
      <trkpt lat="44.10591" lon="6.669">
        <ele>2324</ele>
        <time>2022-06-08T22:36:51Z</time>
      </trkpt>
      <trkpt lat="44.10599" lon="6.66874">
        <ele>2324</ele>
        <time>2022-06-08T22:36:55Z</time>
      </trkpt>
      <trkpt lat="44.10599" lon="6.66866">
        <ele>2323</ele>
        <time>2022-06-08T22:36:57Z</time>
      </trkpt>
      <trkpt lat="44.10596" lon="6.66859">
        <ele>2320</ele>
        <time>2022-06-08T22:36:58Z</time>
      </trkpt>
      <trkpt lat="44.10576" lon="6.66837">
        <ele>2310</ele>
        <time>2022-06-08T22:37:04Z</time>
      </trkpt>
      <trkpt lat="44.10558" lon="6.66811">
        <ele>2303</ele>
        <time>2022-06-08T22:37:10Z</time>
      </trkpt>
      <trkpt lat="44.10546" lon="6.66805">
        <ele>2301</ele>
        <time>2022-06-08T22:37:13Z</time>
      </trkpt>
      <trkpt lat="44.10542" lon="6.66806">
        <ele>2300</ele>
        <time>2022-06-08T22:37:14Z</time>
      </trkpt>
      <trkpt lat="44.10549" lon="6.668">
        <ele>2301</ele>
        <time>2022-06-08T22:37:16Z</time>
      </trkpt>
      <trkpt lat="44.1055" lon="6.66806">
        <ele>2301</ele>
        <time>2022-06-08T22:37:17Z</time>
      </trkpt>
      <trkpt lat="44.10554" lon="6.66809">
        <ele>2302</ele>
        <time>2022-06-08T22:37:18Z</time>
      </trkpt>
      <trkpt lat="44.1055" lon="6.66806">
        <ele>2301</ele>
        <time>2022-06-08T22:37:19Z</time>
      </trkpt>
      <trkpt lat="44.1055" lon="6.668">
        <ele>2301</ele>
        <time>2022-06-08T22:37:20Z</time>
      </trkpt>
      <trkpt lat="44.10551" lon="6.66803">
        <ele>2301</ele>
        <time>2022-06-08T22:37:21Z</time>
      </trkpt>
      <trkpt lat="44.10528" lon="6.66786">
        <ele>2297</ele>
        <time>2022-06-08T22:37:27Z</time>
      </trkpt>
      <trkpt lat="44.10522" lon="6.66777">
        <ele>2296</ele>
        <time>2022-06-08T22:37:29Z</time>
      </trkpt>
      <trkpt lat="44.10518" lon="6.66755">
        <ele>2297</ele>
        <time>2022-06-08T22:37:33Z</time>
      </trkpt>
      <trkpt lat="44.10502" lon="6.66715">
        <ele>2293</ele>
        <time>2022-06-08T22:37:40Z</time>
      </trkpt>
      <trkpt lat="44.10483" lon="6.66655">
        <ele>2283</ele>
        <time>2022-06-08T22:37:51Z</time>
      </trkpt>
      <trkpt lat="44.1048" lon="6.66638">
        <ele>2282</ele>
        <time>2022-06-08T22:37:54Z</time>
      </trkpt>
      <trkpt lat="44.10487" lon="6.66586">
        <ele>2282</ele>
        <time>2022-06-08T22:38:03Z</time>
      </trkpt>
      <trkpt lat="44.10495" lon="6.66575">
        <ele>2283</ele>
        <time>2022-06-08T22:38:06Z</time>
      </trkpt>
      <trkpt lat="44.10505" lon="6.66542">
        <ele>2280</ele>
        <time>2022-06-08T22:38:12Z</time>
      </trkpt>
      <trkpt lat="44.10498" lon="6.66503">
        <ele>2277</ele>
        <time>2022-06-08T22:38:19Z</time>
      </trkpt>
      <trkpt lat="44.10471" lon="6.66483">
        <ele>2272</ele>
        <time>2022-06-08T22:38:26Z</time>
      </trkpt>
      <trkpt lat="44.10435" lon="6.66465">
        <ele>2268</ele>
        <time>2022-06-08T22:38:35Z</time>
      </trkpt>
      <trkpt lat="44.1041" lon="6.66444">
        <ele>2264</ele>
        <time>2022-06-08T22:38:41Z</time>
      </trkpt>
      <trkpt lat="44.10396" lon="6.66438">
        <ele>2259</ele>
        <time>2022-06-08T22:38:45Z</time>
      </trkpt>
      <trkpt lat="44.10384" lon="6.66445">
        <ele>2255</ele>
        <time>2022-06-08T22:38:48Z</time>
      </trkpt>
      <trkpt lat="44.10377" lon="6.66454">
        <ele>2253</ele>
        <time>2022-06-08T22:38:50Z</time>
      </trkpt>
      <trkpt lat="44.10373" lon="6.6644">
        <ele>2252</ele>
        <time>2022-06-08T22:38:53Z</time>
      </trkpt>
      <trkpt lat="44.10371" lon="6.66407">
        <ele>2252</ele>
        <time>2022-06-08T22:38:58Z</time>
      </trkpt>
      <trkpt lat="44.10365" lon="6.66376">
        <ele>2249</ele>
        <time>2022-06-08T22:39:04Z</time>
      </trkpt>
      <trkpt lat="44.10339" lon="6.66327">
        <ele>2246</ele>
        <time>2022-06-08T22:39:14Z</time>
      </trkpt>
      <trkpt lat="44.10316" lon="6.66265">
        <ele>2236</ele>
        <time>2022-06-08T22:39:25Z</time>
      </trkpt>
      <trkpt lat="44.10308" lon="6.66229">
        <ele>2230</ele>
        <time>2022-06-08T22:39:32Z</time>
      </trkpt>
      <trkpt lat="44.10313" lon="6.66205">
        <ele>2226</ele>
        <time>2022-06-08T22:39:36Z</time>
      </trkpt>
      <trkpt lat="44.10332" lon="6.66186">
        <ele>2225</ele>
        <time>2022-06-08T22:39:41Z</time>
      </trkpt>
      <trkpt lat="44.10352" lon="6.66179">
        <ele>2220</ele>
        <time>2022-06-08T22:39:46Z</time>
      </trkpt>
      <trkpt lat="44.1037" lon="6.66177">
        <ele>2216</ele>
        <time>2022-06-08T22:39:50Z</time>
      </trkpt>
      <trkpt lat="44.10389" lon="6.66179">
        <ele>2213</ele>
        <time>2022-06-08T22:39:55Z</time>
      </trkpt>
      <trkpt lat="44.10419" lon="6.66191">
        <ele>2210</ele>
        <time>2022-06-08T22:40:02Z</time>
      </trkpt>
      <trkpt lat="44.10439" lon="6.66201">
        <ele>2204</ele>
        <time>2022-06-08T22:40:07Z</time>
      </trkpt>
      <trkpt lat="44.10475" lon="6.66229">
        <ele>2198</ele>
        <time>2022-06-08T22:40:17Z</time>
      </trkpt>
      <trkpt lat="44.10503" lon="6.66259">
        <ele>2196</ele>
        <time>2022-06-08T22:40:25Z</time>
      </trkpt>
      <trkpt lat="44.1052" lon="6.66283">
        <ele>2198</ele>
        <time>2022-06-08T22:40:31Z</time>
      </trkpt>
      <trkpt lat="44.10538" lon="6.66299">
        <ele>2196</ele>
        <time>2022-06-08T22:40:36Z</time>
      </trkpt>
      <trkpt lat="44.10558" lon="6.66313">
        <ele>2192</ele>
        <time>2022-06-08T22:40:41Z</time>
      </trkpt>
      <trkpt lat="44.10626" lon="6.66347">
        <ele>2183</ele>
        <time>2022-06-08T22:40:58Z</time>
      </trkpt>
      <trkpt lat="44.10665" lon="6.6637">
        <ele>2180</ele>
        <time>2022-06-08T22:41:08Z</time>
      </trkpt>
      <trkpt lat="44.10632" lon="6.66305">
        <ele>2171</ele>
        <time>2022-06-08T22:41:21Z</time>
      </trkpt>
      <trkpt lat="44.10619" lon="6.66289">
        <ele>2168</ele>
        <time>2022-06-08T22:41:25Z</time>
      </trkpt>
      <trkpt lat="44.10607" lon="6.66259">
        <ele>2161</ele>
        <time>2022-06-08T22:41:31Z</time>
      </trkpt>
      <trkpt lat="44.10595" lon="6.66241">
        <ele>2156</ele>
        <time>2022-06-08T22:41:35Z</time>
      </trkpt>
      <trkpt lat="44.10582" lon="6.66229">
        <ele>2154</ele>
        <time>2022-06-08T22:41:39Z</time>
      </trkpt>
      <trkpt lat="44.10579" lon="6.66209">
        <ele>2149</ele>
        <time>2022-06-08T22:41:42Z</time>
      </trkpt>
      <trkpt lat="44.1056" lon="6.66158">
        <ele>2141</ele>
        <time>2022-06-08T22:41:52Z</time>
      </trkpt>
      <trkpt lat="44.10527" lon="6.66105">
        <ele>2135</ele>
        <time>2022-06-08T22:42:03Z</time>
      </trkpt>
      <trkpt lat="44.10521" lon="6.66078">
        <ele>2129</ele>
        <time>2022-06-08T22:42:08Z</time>
      </trkpt>
      <trkpt lat="44.10524" lon="6.66053">
        <ele>2124</ele>
        <time>2022-06-08T22:42:12Z</time>
      </trkpt>
      <trkpt lat="44.10523" lon="6.66015">
        <ele>2118</ele>
        <time>2022-06-08T22:42:19Z</time>
      </trkpt>
      <trkpt lat="44.10512" lon="6.66003">
        <ele>2117</ele>
        <time>2022-06-08T22:42:22Z</time>
      </trkpt>
      <trkpt lat="44.10511" lon="6.65995">
        <ele>2116</ele>
        <time>2022-06-08T22:42:23Z</time>
      </trkpt>
      <trkpt lat="44.10515" lon="6.65991">
        <ele>2114</ele>
        <time>2022-06-08T22:42:25Z</time>
      </trkpt>
      <trkpt lat="44.10518" lon="6.65982">
        <ele>2112</ele>
        <time>2022-06-08T22:42:26Z</time>
      </trkpt>
      <trkpt lat="44.10512" lon="6.65965">
        <ele>2107</ele>
        <time>2022-06-08T22:42:29Z</time>
      </trkpt>
      <trkpt lat="44.10512" lon="6.6595">
        <ele>2103</ele>
        <time>2022-06-08T22:42:32Z</time>
      </trkpt>
      <trkpt lat="44.10501" lon="6.65914">
        <ele>2091</ele>
        <time>2022-06-08T22:42:38Z</time>
      </trkpt>
      <trkpt lat="44.10459" lon="6.65864">
        <ele>2090</ele>
        <time>2022-06-08T22:42:51Z</time>
      </trkpt>
      <trkpt lat="44.1042" lon="6.65833">
        <ele>2087</ele>
        <time>2022-06-08T22:43:02Z</time>
      </trkpt>
      <trkpt lat="44.10352" lon="6.65757">
        <ele>2074</ele>
        <time>2022-06-08T22:43:22Z</time>
      </trkpt>
      <trkpt lat="44.10331" lon="6.6573">
        <ele>2067</ele>
        <time>2022-06-08T22:43:29Z</time>
      </trkpt>
      <trkpt lat="44.10313" lon="6.65697">
        <ele>2061</ele>
        <time>2022-06-08T22:43:36Z</time>
      </trkpt>
      <trkpt lat="44.10284" lon="6.65664">
        <ele>2057</ele>
        <time>2022-06-08T22:43:45Z</time>
      </trkpt>
      <trkpt lat="44.10246" lon="6.65615">
        <ele>2052</ele>
        <time>2022-06-08T22:43:57Z</time>
      </trkpt>
      <trkpt lat="44.10156" lon="6.65521">
        <ele>2045</ele>
        <time>2022-06-08T22:44:23Z</time>
      </trkpt>
      <trkpt lat="44.10095" lon="6.65448">
        <ele>2034</ele>
        <time>2022-06-08T22:44:42Z</time>
      </trkpt>
      <trkpt lat="44.10057" lon="6.65415">
        <ele>2024</ele>
        <time>2022-06-08T22:44:52Z</time>
      </trkpt>
      <trkpt lat="44.10024" lon="6.65392">
        <ele>2015</ele>
        <time>2022-06-08T22:45:01Z</time>
      </trkpt>
      <trkpt lat="44.09994" lon="6.65389">
        <ele>2011</ele>
        <time>2022-06-08T22:45:08Z</time>
      </trkpt>
      <trkpt lat="44.09982" lon="6.65401">
        <ele>2008</ele>
        <time>2022-06-08T22:45:11Z</time>
      </trkpt>
      <trkpt lat="44.0997" lon="6.6546">
        <ele>2011</ele>
        <time>2022-06-08T22:45:22Z</time>
      </trkpt>
      <trkpt lat="44.0996" lon="6.65527">
        <ele>2014</ele>
        <time>2022-06-08T22:45:33Z</time>
      </trkpt>
      <trkpt lat="44.09944" lon="6.65597">
        <ele>2015</ele>
        <time>2022-06-08T22:45:45Z</time>
      </trkpt>
      <trkpt lat="44.09906" lon="6.65706">
        <ele>2008</ele>
        <time>2022-06-08T22:46:06Z</time>
      </trkpt>
      <trkpt lat="44.09898" lon="6.6572">
        <ele>2007</ele>
        <time>2022-06-08T22:46:09Z</time>
      </trkpt>
      <trkpt lat="44.09887" lon="6.6573">
        <ele>2004</ele>
        <time>2022-06-08T22:46:12Z</time>
      </trkpt>
      <trkpt lat="44.09877" lon="6.65747">
        <ele>2003</ele>
        <time>2022-06-08T22:46:15Z</time>
      </trkpt>
      <trkpt lat="44.09871" lon="6.6576">
        <ele>2002</ele>
        <time>2022-06-08T22:46:18Z</time>
      </trkpt>
      <trkpt lat="44.09851" lon="6.65829">
        <ele>2000</ele>
        <time>2022-06-08T22:46:31Z</time>
      </trkpt>
      <trkpt lat="44.09839" lon="6.65838">
        <ele>1996</ele>
        <time>2022-06-08T22:46:34Z</time>
      </trkpt>
      <trkpt lat="44.09837" lon="6.65842">
        <ele>1995</ele>
        <time>2022-06-08T22:46:35Z</time>
      </trkpt>
      <trkpt lat="44.09843" lon="6.65868">
        <ele>1993</ele>
        <time>2022-06-08T22:46:39Z</time>
      </trkpt>
      <trkpt lat="44.09843" lon="6.65881">
        <ele>1991</ele>
        <time>2022-06-08T22:46:41Z</time>
      </trkpt>
      <trkpt lat="44.09834" lon="6.65871">
        <ele>1990</ele>
        <time>2022-06-08T22:46:44Z</time>
      </trkpt>
      <trkpt lat="44.09842" lon="6.65875">
        <ele>1992</ele>
        <time>2022-06-08T22:46:46Z</time>
      </trkpt>
      <trkpt lat="44.09839" lon="6.65877">
        <ele>1991</ele>
        <time>2022-06-08T22:46:47Z</time>
      </trkpt>
      <trkpt lat="44.09837" lon="6.65871">
        <ele>1991</ele>
        <time>2022-06-08T22:46:48Z</time>
      </trkpt>
      <trkpt lat="44.0984" lon="6.65876">
        <ele>1991</ele>
        <time>2022-06-08T22:46:49Z</time>
      </trkpt>
      <trkpt lat="44.09836" lon="6.6588">
        <ele>1989</ele>
        <time>2022-06-08T22:46:50Z</time>
      </trkpt>
      <trkpt lat="44.0984" lon="6.65882">
        <ele>1990</ele>
        <time>2022-06-08T22:46:51Z</time>
      </trkpt>
      <trkpt lat="44.09841" lon="6.65887">
        <ele>1990</ele>
        <time>2022-06-08T22:46:52Z</time>
      </trkpt>
      <trkpt lat="44.09842" lon="6.65875">
        <ele>1992</ele>
        <time>2022-06-08T22:46:54Z</time>
      </trkpt>
      <trkpt lat="44.09839" lon="6.65874">
        <ele>1991</ele>
        <time>2022-06-08T22:46:55Z</time>
      </trkpt>
      <trkpt lat="44.0984" lon="6.65868">
        <ele>1992</ele>
        <time>2022-06-08T22:46:56Z</time>
      </trkpt>
      <trkpt lat="44.09829" lon="6.65874">
        <ele>1988</ele>
        <time>2022-06-08T22:46:58Z</time>
      </trkpt>
      <trkpt lat="44.09831" lon="6.65883">
        <ele>1987</ele>
        <time>2022-06-08T22:47:00Z</time>
      </trkpt>
      <trkpt lat="44.09836" lon="6.65882">
        <ele>1989</ele>
        <time>2022-06-08T22:47:01Z</time>
      </trkpt>
      <trkpt lat="44.09839" lon="6.65876">
        <ele>1991</ele>
        <time>2022-06-08T22:47:02Z</time>
      </trkpt>
      <trkpt lat="44.09836" lon="6.65883">
        <ele>1989</ele>
        <time>2022-06-08T22:47:04Z</time>
      </trkpt>
      <trkpt lat="44.0984" lon="6.65892">
        <ele>1989</ele>
        <time>2022-06-08T22:47:06Z</time>
      </trkpt>
      <trkpt lat="44.09837" lon="6.65899">
        <ele>1987</ele>
        <time>2022-06-08T22:47:07Z</time>
      </trkpt>
      <trkpt lat="44.09838" lon="6.65904">
        <ele>1987</ele>
        <time>2022-06-08T22:47:08Z</time>
      </trkpt>
      <trkpt lat="44.09848" lon="6.65915">
        <ele>1989</ele>
        <time>2022-06-08T22:47:11Z</time>
      </trkpt>
      <trkpt lat="44.09853" lon="6.65938">
        <ele>1992</ele>
        <time>2022-06-08T22:47:15Z</time>
      </trkpt>
      <trkpt lat="44.09851" lon="6.65942">
        <ele>1992</ele>
        <time>2022-06-08T22:47:16Z</time>
      </trkpt>
      <trkpt lat="44.09846" lon="6.6594">
        <ele>1990</ele>
        <time>2022-06-08T22:47:17Z</time>
      </trkpt>
      <trkpt lat="44.0984" lon="6.65943">
        <ele>1989</ele>
        <time>2022-06-08T22:47:18Z</time>
      </trkpt>
      <trkpt lat="44.09802" lon="6.65919">
        <ele>1978</ele>
        <time>2022-06-08T22:47:28Z</time>
      </trkpt>
      <trkpt lat="44.09795" lon="6.65927">
        <ele>1978</ele>
        <time>2022-06-08T22:47:30Z</time>
      </trkpt>
      <trkpt lat="44.09788" lon="6.65941">
        <ele>1979</ele>
        <time>2022-06-08T22:47:33Z</time>
      </trkpt>
      <trkpt lat="44.09772" lon="6.65984">
        <ele>1982</ele>
        <time>2022-06-08T22:47:41Z</time>
      </trkpt>
      <trkpt lat="44.09756" lon="6.66007">
        <ele>1982</ele>
        <time>2022-06-08T22:47:47Z</time>
      </trkpt>
      <trkpt lat="44.09742" lon="6.6604">
        <ele>1989</ele>
        <time>2022-06-08T22:47:53Z</time>
      </trkpt>
      <trkpt lat="44.09738" lon="6.6604">
        <ele>1991</ele>
        <time>2022-06-08T22:47:54Z</time>
      </trkpt>
      <trkpt lat="44.09712" lon="6.66018">
        <ele>1995</ele>
        <time>2022-06-08T22:48:01Z</time>
      </trkpt>
      <trkpt lat="44.09696" lon="6.65996">
        <ele>1996</ele>
        <time>2022-06-08T22:48:06Z</time>
      </trkpt>
      <trkpt lat="44.09655" lon="6.65921">
        <ele>1996</ele>
        <time>2022-06-08T22:48:22Z</time>
      </trkpt>
      <trkpt lat="44.0964" lon="6.65875">
        <ele>2000</ele>
        <time>2022-06-08T22:48:31Z</time>
      </trkpt>
      <trkpt lat="44.09623" lon="6.65854">
        <ele>2007</ele>
        <time>2022-06-08T22:48:36Z</time>
      </trkpt>
      <trkpt lat="44.09617" lon="6.65842">
        <ele>2009</ele>
        <time>2022-06-08T22:48:38Z</time>
      </trkpt>
      <trkpt lat="44.09593" lon="6.65789">
        <ele>2023</ele>
        <time>2022-06-08T22:48:49Z</time>
      </trkpt>
      <trkpt lat="44.09593" lon="6.6578">
        <ele>2024</ele>
        <time>2022-06-08T22:48:50Z</time>
      </trkpt>
      <trkpt lat="44.09586" lon="6.65767">
        <ele>2028</ele>
        <time>2022-06-08T22:48:53Z</time>
      </trkpt>
      <trkpt lat="44.09581" lon="6.65763">
        <ele>2030</ele>
        <time>2022-06-08T22:48:54Z</time>
      </trkpt>
      <trkpt lat="44.09575" lon="6.65732">
        <ele>2031</ele>
        <time>2022-06-08T22:49:00Z</time>
      </trkpt>
      <trkpt lat="44.09547" lon="6.65667">
        <ele>2032</ele>
        <time>2022-06-08T22:49:13Z</time>
      </trkpt>
      <trkpt lat="44.09512" lon="6.65621">
        <ele>2034</ele>
        <time>2022-06-08T22:49:24Z</time>
      </trkpt>
      <trkpt lat="44.09465" lon="6.656">
        <ele>2036</ele>
        <time>2022-06-08T22:49:35Z</time>
      </trkpt>
      <trkpt lat="44.09402" lon="6.65582">
        <ele>2039</ele>
        <time>2022-06-08T22:49:50Z</time>
      </trkpt>
      <trkpt lat="44.09362" lon="6.65554">
        <ele>2043</ele>
        <time>2022-06-08T22:50:01Z</time>
      </trkpt>
      <trkpt lat="44.09359" lon="6.65555">
        <ele>2043</ele>
        <time>2022-06-08T22:50:02Z</time>
      </trkpt>
      <trkpt lat="44.09354" lon="6.65552">
        <ele>2043</ele>
        <time>2022-06-08T22:50:03Z</time>
      </trkpt>
      <trkpt lat="44.0935" lon="6.65554">
        <ele>2042</ele>
        <time>2022-06-08T22:50:04Z</time>
      </trkpt>
      <trkpt lat="44.09327" lon="6.6554">
        <ele>2044</ele>
        <time>2022-06-08T22:50:10Z</time>
      </trkpt>
      <trkpt lat="44.09289" lon="6.65509">
        <ele>2047</ele>
        <time>2022-06-08T22:50:20Z</time>
      </trkpt>
      <trkpt lat="44.09283" lon="6.65509">
        <ele>2047</ele>
        <time>2022-06-08T22:50:21Z</time>
      </trkpt>
      <trkpt lat="44.09272" lon="6.655">
        <ele>2048</ele>
        <time>2022-06-08T22:50:24Z</time>
      </trkpt>
      <trkpt lat="44.09245" lon="6.65497">
        <ele>2046</ele>
        <time>2022-06-08T22:50:31Z</time>
      </trkpt>
      <trkpt lat="44.09228" lon="6.65488">
        <ele>2047</ele>
        <time>2022-06-08T22:50:35Z</time>
      </trkpt>
      <trkpt lat="44.09162" lon="6.65443">
        <ele>2050</ele>
        <time>2022-06-08T22:50:52Z</time>
      </trkpt>
      <trkpt lat="44.09134" lon="6.65416">
        <ele>2051</ele>
        <time>2022-06-08T22:51:00Z</time>
      </trkpt>
      <trkpt lat="44.09131" lon="6.65396">
        <ele>2051</ele>
        <time>2022-06-08T22:51:03Z</time>
      </trkpt>
      <trkpt lat="44.09134" lon="6.65391">
        <ele>2052</ele>
        <time>2022-06-08T22:51:05Z</time>
      </trkpt>
      <trkpt lat="44.0915" lon="6.65386">
        <ele>2055</ele>
        <time>2022-06-08T22:51:08Z</time>
      </trkpt>
      <trkpt lat="44.09151" lon="6.65388">
        <ele>2055</ele>
        <time>2022-06-08T22:51:09Z</time>
      </trkpt>
      <trkpt lat="44.09157" lon="6.65388">
        <ele>2056</ele>
        <time>2022-06-08T22:51:10Z</time>
      </trkpt>
      <trkpt lat="44.09166" lon="6.65385">
        <ele>2058</ele>
        <time>2022-06-08T22:51:12Z</time>
      </trkpt>
      <trkpt lat="44.09191" lon="6.65385">
        <ele>2061</ele>
        <time>2022-06-08T22:51:18Z</time>
      </trkpt>
      <trkpt lat="44.09204" lon="6.65382">
        <ele>2062</ele>
        <time>2022-06-08T22:51:21Z</time>
      </trkpt>
      <trkpt lat="44.09214" lon="6.65366">
        <ele>2064</ele>
        <time>2022-06-08T22:51:25Z</time>
      </trkpt>
      <trkpt lat="44.09215" lon="6.65356">
        <ele>2065</ele>
        <time>2022-06-08T22:51:26Z</time>
      </trkpt>
      <trkpt lat="44.09217" lon="6.65357">
        <ele>2065</ele>
        <time>2022-06-08T22:51:27Z</time>
      </trkpt>
      <trkpt lat="44.09215" lon="6.65355">
        <ele>2065</ele>
        <time>2022-06-08T22:51:28Z</time>
      </trkpt>
      <trkpt lat="44.09219" lon="6.65356">
        <ele>2065</ele>
        <time>2022-06-08T22:51:28Z</time>
      </trkpt>
      <trkpt lat="44.09234" lon="6.65324">
        <ele>2068</ele>
        <time>2022-06-08T22:51:35Z</time>
      </trkpt>
      <trkpt lat="44.09248" lon="6.65284">
        <ele>2070</ele>
        <time>2022-06-08T22:51:42Z</time>
      </trkpt>
      <trkpt lat="44.09258" lon="6.6523">
        <ele>2071</ele>
        <time>2022-06-08T22:51:52Z</time>
      </trkpt>
      <trkpt lat="44.09257" lon="6.65195">
        <ele>2071</ele>
        <time>2022-06-08T22:51:58Z</time>
      </trkpt>
      <trkpt lat="44.09251" lon="6.65164">
        <ele>2070</ele>
        <time>2022-06-08T22:52:03Z</time>
      </trkpt>
      <trkpt lat="44.09231" lon="6.65092">
        <ele>2068</ele>
        <time>2022-06-08T22:52:16Z</time>
      </trkpt>
      <trkpt lat="44.09228" lon="6.65071">
        <ele>2068</ele>
        <time>2022-06-08T22:52:20Z</time>
      </trkpt>
      <trkpt lat="44.0922" lon="6.65043">
        <ele>2069</ele>
        <time>2022-06-08T22:52:25Z</time>
      </trkpt>
      <trkpt lat="44.09202" lon="6.65001">
        <ele>2069</ele>
        <time>2022-06-08T22:52:33Z</time>
      </trkpt>
      <trkpt lat="44.09175" lon="6.64949">
        <ele>2071</ele>
        <time>2022-06-08T22:52:44Z</time>
      </trkpt>
      <trkpt lat="44.09156" lon="6.64926">
        <ele>2071</ele>
        <time>2022-06-08T22:52:49Z</time>
      </trkpt>
      <trkpt lat="44.09108" lon="6.64877">
        <ele>2074</ele>
        <time>2022-06-08T22:53:03Z</time>
      </trkpt>
      <trkpt lat="44.09062" lon="6.6485">
        <ele>2075</ele>
        <time>2022-06-08T22:53:15Z</time>
      </trkpt>
      <trkpt lat="44.09021" lon="6.64836">
        <ele>2075</ele>
        <time>2022-06-08T22:53:25Z</time>
      </trkpt>
      <trkpt lat="44.09007" lon="6.64819">
        <ele>2075</ele>
        <time>2022-06-08T22:53:29Z</time>
      </trkpt>
      <trkpt lat="44.08955" lon="6.64733">
        <ele>2072</ele>
        <time>2022-06-08T22:53:48Z</time>
      </trkpt>
      <trkpt lat="44.08905" lon="6.6462">
        <ele>2071</ele>
        <time>2022-06-08T22:54:10Z</time>
      </trkpt>
      <trkpt lat="44.08862" lon="6.64554">
        <ele>2068</ele>
        <time>2022-06-08T22:54:25Z</time>
      </trkpt>
      <trkpt lat="44.08846" lon="6.64537">
        <ele>2066</ele>
        <time>2022-06-08T22:54:30Z</time>
      </trkpt>
      <trkpt lat="44.08834" lon="6.64516">
        <ele>2064</ele>
        <time>2022-06-08T22:54:34Z</time>
      </trkpt>
      <trkpt lat="44.08824" lon="6.64504">
        <ele>2063</ele>
        <time>2022-06-08T22:54:38Z</time>
      </trkpt>
      <trkpt lat="44.08812" lon="6.64477">
        <ele>2061</ele>
        <time>2022-06-08T22:54:43Z</time>
      </trkpt>
      <trkpt lat="44.08753" lon="6.64399">
        <ele>2056</ele>
        <time>2022-06-08T22:55:02Z</time>
      </trkpt>
      <trkpt lat="44.08741" lon="6.64381">
        <ele>2054</ele>
        <time>2022-06-08T22:55:06Z</time>
      </trkpt>
      <trkpt lat="44.08738" lon="6.6437">
        <ele>2054</ele>
        <time>2022-06-08T22:55:08Z</time>
      </trkpt>
      <trkpt lat="44.08739" lon="6.64364">
        <ele>2054</ele>
        <time>2022-06-08T22:55:09Z</time>
      </trkpt>
      <trkpt lat="44.08755" lon="6.64342">
        <ele>2054</ele>
        <time>2022-06-08T22:55:14Z</time>
      </trkpt>
      <trkpt lat="44.08775" lon="6.64305">
        <ele>2054</ele>
        <time>2022-06-08T22:55:22Z</time>
      </trkpt>
      <trkpt lat="44.08778" lon="6.64295">
        <ele>2053</ele>
        <time>2022-06-08T22:55:24Z</time>
      </trkpt>
      <trkpt lat="44.08819" lon="6.64213">
        <ele>2048</ele>
        <time>2022-06-08T22:55:41Z</time>
      </trkpt>
      <trkpt lat="44.08824" lon="6.64195">
        <ele>2047</ele>
        <time>2022-06-08T22:55:44Z</time>
      </trkpt>
      <trkpt lat="44.0884" lon="6.64079">
        <ele>2045</ele>
        <time>2022-06-08T22:56:04Z</time>
      </trkpt>
      <trkpt lat="44.08844" lon="6.64047">
        <ele>2040</ele>
        <time>2022-06-08T22:56:09Z</time>
      </trkpt>
      <trkpt lat="44.08848" lon="6.63965">
        <ele>2032</ele>
        <time>2022-06-08T22:56:23Z</time>
      </trkpt>
      <trkpt lat="44.08848" lon="6.63942">
        <ele>2031</ele>
        <time>2022-06-08T22:56:27Z</time>
      </trkpt>
      <trkpt lat="44.0884" lon="6.63892">
        <ele>2033</ele>
        <time>2022-06-08T22:56:35Z</time>
      </trkpt>
      <trkpt lat="44.08844" lon="6.63868">
        <ele>2033</ele>
        <time>2022-06-08T22:56:39Z</time>
      </trkpt>
      <trkpt lat="44.08862" lon="6.63803">
        <ele>2030</ele>
        <time>2022-06-08T22:56:51Z</time>
      </trkpt>
      <trkpt lat="44.08876" lon="6.63737">
        <ele>2027</ele>
        <time>2022-06-08T22:57:03Z</time>
      </trkpt>
      <trkpt lat="44.08884" lon="6.63675">
        <ele>2025</ele>
        <time>2022-06-08T22:57:13Z</time>
      </trkpt>
      <trkpt lat="44.08876" lon="6.63604">
        <ele>2023</ele>
        <time>2022-06-08T22:57:25Z</time>
      </trkpt>
      <trkpt lat="44.08856" lon="6.6354">
        <ele>2026</ele>
        <time>2022-06-08T22:57:37Z</time>
      </trkpt>
      <trkpt lat="44.08854" lon="6.63484">
        <ele>2025</ele>
        <time>2022-06-08T22:57:46Z</time>
      </trkpt>
      <trkpt lat="44.08857" lon="6.63445">
        <ele>2025</ele>
        <time>2022-06-08T22:57:53Z</time>
      </trkpt>
      <trkpt lat="44.08875" lon="6.63365">
        <ele>2027</ele>
        <time>2022-06-08T22:58:07Z</time>
      </trkpt>
      <trkpt lat="44.08889" lon="6.63326">
        <ele>2028</ele>
        <time>2022-06-08T22:58:14Z</time>
      </trkpt>
      <trkpt lat="44.0891" lon="6.6329">
        <ele>2030</ele>
        <time>2022-06-08T22:58:22Z</time>
      </trkpt>
      <trkpt lat="44.08936" lon="6.63288">
        <ele>2026</ele>
        <time>2022-06-08T22:58:28Z</time>
      </trkpt>
      <trkpt lat="44.08952" lon="6.63282">
        <ele>2025</ele>
        <time>2022-06-08T22:58:32Z</time>
      </trkpt>
      <trkpt lat="44.08967" lon="6.6326">
        <ele>2027</ele>
        <time>2022-06-08T22:58:37Z</time>
      </trkpt>
      <trkpt lat="44.09007" lon="6.63217">
        <ele>2029</ele>
        <time>2022-06-08T22:58:49Z</time>
      </trkpt>
      <trkpt lat="44.09039" lon="6.63176">
        <ele>2031</ele>
        <time>2022-06-08T22:58:59Z</time>
      </trkpt>
      <trkpt lat="44.09064" lon="6.63141">
        <ele>2027</ele>
        <time>2022-06-08T22:59:07Z</time>
      </trkpt>
      <trkpt lat="44.09077" lon="6.63117">
        <ele>2023</ele>
        <time>2022-06-08T22:59:12Z</time>
      </trkpt>
      <trkpt lat="44.09081" lon="6.63105">
        <ele>2021</ele>
        <time>2022-06-08T22:59:15Z</time>
      </trkpt>
      <trkpt lat="44.09082" lon="6.63087">
        <ele>2020</ele>
        <time>2022-06-08T22:59:18Z</time>
      </trkpt>
      <trkpt lat="44.09076" lon="6.63069">
        <ele>2018</ele>
        <time>2022-06-08T22:59:21Z</time>
      </trkpt>
      <trkpt lat="44.0904" lon="6.63016">
        <ele>2021</ele>
        <time>2022-06-08T22:59:33Z</time>
      </trkpt>
      <trkpt lat="44.09021" lon="6.62978">
        <ele>2025</ele>
        <time>2022-06-08T22:59:41Z</time>
      </trkpt>
      <trkpt lat="44.09012" lon="6.62952">
        <ele>2028</ele>
        <time>2022-06-08T22:59:46Z</time>
      </trkpt>
      <trkpt lat="44.09008" lon="6.62928">
        <ele>2028</ele>
        <time>2022-06-08T22:59:50Z</time>
      </trkpt>
      <trkpt lat="44.09011" lon="6.62805">
        <ele>2024</ele>
        <time>2022-06-08T23:00:11Z</time>
      </trkpt>
      <trkpt lat="44.0902" lon="6.62745">
        <ele>2021</ele>
        <time>2022-06-08T23:00:21Z</time>
      </trkpt>
      <trkpt lat="44.09042" lon="6.62695">
        <ele>2019</ele>
        <time>2022-06-08T23:00:31Z</time>
      </trkpt>
      <trkpt lat="44.09064" lon="6.62662">
        <ele>2017</ele>
        <time>2022-06-08T23:00:38Z</time>
      </trkpt>
      <trkpt lat="44.09081" lon="6.62644">
        <ele>2016</ele>
        <time>2022-06-08T23:00:43Z</time>
      </trkpt>
      <trkpt lat="44.09116" lon="6.62623">
        <ele>2012</ele>
        <time>2022-06-08T23:00:52Z</time>
      </trkpt>
      <trkpt lat="44.09157" lon="6.62593">
        <ele>2009</ele>
        <time>2022-06-08T23:01:03Z</time>
      </trkpt>
      <trkpt lat="44.09167" lon="6.62581">
        <ele>2009</ele>
        <time>2022-06-08T23:01:06Z</time>
      </trkpt>
      <trkpt lat="44.09199" lon="6.62562">
        <ele>2006</ele>
        <time>2022-06-08T23:01:14Z</time>
      </trkpt>
      <trkpt lat="44.09227" lon="6.62541">
        <ele>2003</ele>
        <time>2022-06-08T23:01:22Z</time>
      </trkpt>
      <trkpt lat="44.09255" lon="6.62515">
        <ele>2002</ele>
        <time>2022-06-08T23:01:30Z</time>
      </trkpt>
      <trkpt lat="44.09267" lon="6.62483">
        <ele>2001</ele>
        <time>2022-06-08T23:01:36Z</time>
      </trkpt>
      <trkpt lat="44.09268" lon="6.62445">
        <ele>1997</ele>
        <time>2022-06-08T23:01:42Z</time>
      </trkpt>
      <trkpt lat="44.09224" lon="6.62374">
        <ele>1994</ele>
        <time>2022-06-08T23:01:58Z</time>
      </trkpt>
      <trkpt lat="44.09206" lon="6.62316">
        <ele>1988</ele>
        <time>2022-06-08T23:02:08Z</time>
      </trkpt>
      <trkpt lat="44.09178" lon="6.62177">
        <ele>1978</ele>
        <time>2022-06-08T23:02:32Z</time>
      </trkpt>
      <trkpt lat="44.09172" lon="6.62165">
        <ele>1978</ele>
        <time>2022-06-08T23:02:35Z</time>
      </trkpt>
      <trkpt lat="44.09173" lon="6.62144">
        <ele>1977</ele>
        <time>2022-06-08T23:02:38Z</time>
      </trkpt>
      <trkpt lat="44.09189" lon="6.62076">
        <ele>1970</ele>
        <time>2022-06-08T23:02:50Z</time>
      </trkpt>
      <trkpt lat="44.09204" lon="6.62033">
        <ele>1964</ele>
        <time>2022-06-08T23:02:58Z</time>
      </trkpt>
      <trkpt lat="44.09222" lon="6.62005">
        <ele>1958</ele>
        <time>2022-06-08T23:03:05Z</time>
      </trkpt>
      <trkpt lat="44.09258" lon="6.61957">
        <ele>1940</ele>
        <time>2022-06-08T23:03:16Z</time>
      </trkpt>
      <trkpt lat="44.09274" lon="6.61942">
        <ele>1935</ele>
        <time>2022-06-08T23:03:21Z</time>
      </trkpt>
      <trkpt lat="44.09291" lon="6.61934">
        <ele>1933</ele>
        <time>2022-06-08T23:03:25Z</time>
      </trkpt>
      <trkpt lat="44.0931" lon="6.61929">
        <ele>1930</ele>
        <time>2022-06-08T23:03:30Z</time>
      </trkpt>
      <trkpt lat="44.09362" lon="6.61905">
        <ele>1922</ele>
        <time>2022-06-08T23:03:42Z</time>
      </trkpt>
      <trkpt lat="44.09396" lon="6.61894">
        <ele>1918</ele>
        <time>2022-06-08T23:03:51Z</time>
      </trkpt>
      <trkpt lat="44.09472" lon="6.6184">
        <ele>1906</ele>
        <time>2022-06-08T23:04:11Z</time>
      </trkpt>
      <trkpt lat="44.09474" lon="6.61834">
        <ele>1906</ele>
        <time>2022-06-08T23:04:12Z</time>
      </trkpt>
      <trkpt lat="44.09472" lon="6.6183">
        <ele>1905</ele>
        <time>2022-06-08T23:04:12Z</time>
      </trkpt>
      <trkpt lat="44.09444" lon="6.61815">
        <ele>1900</ele>
        <time>2022-06-08T23:04:19Z</time>
      </trkpt>
      <trkpt lat="44.0943" lon="6.61813">
        <ele>1899</ele>
        <time>2022-06-08T23:04:23Z</time>
      </trkpt>
      <trkpt lat="44.09399" lon="6.61816">
        <ele>1898</ele>
        <time>2022-06-08T23:04:30Z</time>
      </trkpt>
      <trkpt lat="44.09349" lon="6.61798">
        <ele>1888</ele>
        <time>2022-06-08T23:04:42Z</time>
      </trkpt>
      <trkpt lat="44.09317" lon="6.61799">
        <ele>1888</ele>
        <time>2022-06-08T23:04:50Z</time>
      </trkpt>
      <trkpt lat="44.09292" lon="6.61806">
        <ele>1893</ele>
        <time>2022-06-08T23:04:55Z</time>
      </trkpt>
      <trkpt lat="44.09241" lon="6.61801">
        <ele>1897</ele>
        <time>2022-06-08T23:05:07Z</time>
      </trkpt>
      <trkpt lat="44.09238" lon="6.61795">
        <ele>1897</ele>
        <time>2022-06-08T23:05:09Z</time>
      </trkpt>
      <trkpt lat="44.09242" lon="6.61778">
        <ele>1890</ele>
        <time>2022-06-08T23:05:12Z</time>
      </trkpt>
      <trkpt lat="44.09238" lon="6.61719">
        <ele>1875</ele>
        <time>2022-06-08T23:05:22Z</time>
      </trkpt>
      <trkpt lat="44.09236" lon="6.61705">
        <ele>1872</ele>
        <time>2022-06-08T23:05:24Z</time>
      </trkpt>
      <trkpt lat="44.09225" lon="6.61671">
        <ele>1867</ele>
        <time>2022-06-08T23:05:30Z</time>
      </trkpt>
      <trkpt lat="44.09206" lon="6.61638">
        <ele>1861</ele>
        <time>2022-06-08T23:05:37Z</time>
      </trkpt>
      <trkpt lat="44.09183" lon="6.61611">
        <ele>1857</ele>
        <time>2022-06-08T23:05:44Z</time>
      </trkpt>
      <trkpt lat="44.09153" lon="6.61582">
        <ele>1853</ele>
        <time>2022-06-08T23:05:53Z</time>
      </trkpt>
      <trkpt lat="44.09135" lon="6.61559">
        <ele>1849</ele>
        <time>2022-06-08T23:05:59Z</time>
      </trkpt>
      <trkpt lat="44.09128" lon="6.6154">
        <ele>1844</ele>
        <time>2022-06-08T23:06:02Z</time>
      </trkpt>
      <trkpt lat="44.09113" lon="6.61513">
        <ele>1837</ele>
        <time>2022-06-08T23:06:08Z</time>
      </trkpt>
      <trkpt lat="44.09091" lon="6.61491">
        <ele>1833</ele>
        <time>2022-06-08T23:06:14Z</time>
      </trkpt>
      <trkpt lat="44.09081" lon="6.61477">
        <ele>1829</ele>
        <time>2022-06-08T23:06:18Z</time>
      </trkpt>
      <trkpt lat="44.09071" lon="6.61469">
        <ele>1827</ele>
        <time>2022-06-08T23:06:20Z</time>
      </trkpt>
      <trkpt lat="44.09067" lon="6.61456">
        <ele>1822</ele>
        <time>2022-06-08T23:06:23Z</time>
      </trkpt>
      <trkpt lat="44.09057" lon="6.61441">
        <ele>1817</ele>
        <time>2022-06-08T23:06:26Z</time>
      </trkpt>
      <trkpt lat="44.09033" lon="6.61412">
        <ele>1807</ele>
        <time>2022-06-08T23:06:33Z</time>
      </trkpt>
      <trkpt lat="44.09011" lon="6.61391">
        <ele>1801</ele>
        <time>2022-06-08T23:06:40Z</time>
      </trkpt>
      <trkpt lat="44.08979" lon="6.6138">
        <ele>1797</ele>
        <time>2022-06-08T23:06:47Z</time>
      </trkpt>
      <trkpt lat="44.08919" lon="6.61365">
        <ele>1791</ele>
        <time>2022-06-08T23:07:02Z</time>
      </trkpt>
      <trkpt lat="44.08906" lon="6.61356">
        <ele>1789</ele>
        <time>2022-06-08T23:07:05Z</time>
      </trkpt>
      <trkpt lat="44.08899" lon="6.61346">
        <ele>1787</ele>
        <time>2022-06-08T23:07:07Z</time>
      </trkpt>
      <trkpt lat="44.08883" lon="6.61331">
        <ele>1785</ele>
        <time>2022-06-08T23:07:12Z</time>
      </trkpt>
      <trkpt lat="44.0885" lon="6.61337">
        <ele>1785</ele>
        <time>2022-06-08T23:07:20Z</time>
      </trkpt>
      <trkpt lat="44.08806" lon="6.61349">
        <ele>1784</ele>
        <time>2022-06-08T23:07:30Z</time>
      </trkpt>
      <trkpt lat="44.08653" lon="6.61436">
        <ele>1766</ele>
        <time>2022-06-08T23:08:09Z</time>
      </trkpt>
      <trkpt lat="44.08634" lon="6.6144">
        <ele>1764</ele>
        <time>2022-06-08T23:08:13Z</time>
      </trkpt>
      <trkpt lat="44.08601" lon="6.61463">
        <ele>1761</ele>
        <time>2022-06-08T23:08:22Z</time>
      </trkpt>
      <trkpt lat="44.08573" lon="6.61476">
        <ele>1758</ele>
        <time>2022-06-08T23:08:29Z</time>
      </trkpt>
      <trkpt lat="44.08543" lon="6.61495">
        <ele>1757</ele>
        <time>2022-06-08T23:08:36Z</time>
      </trkpt>
      <trkpt lat="44.08506" lon="6.61511">
        <ele>1756</ele>
        <time>2022-06-08T23:08:45Z</time>
      </trkpt>
      <trkpt lat="44.08474" lon="6.61531">
        <ele>1753</ele>
        <time>2022-06-08T23:08:54Z</time>
      </trkpt>
      <trkpt lat="44.08465" lon="6.61534">
        <ele>1753</ele>
        <time>2022-06-08T23:08:56Z</time>
      </trkpt>
      <trkpt lat="44.08424" lon="6.61542">
        <ele>1751</ele>
        <time>2022-06-08T23:09:05Z</time>
      </trkpt>
      <trkpt lat="44.08394" lon="6.61545">
        <ele>1747</ele>
        <time>2022-06-08T23:09:12Z</time>
      </trkpt>
      <trkpt lat="44.08378" lon="6.61552">
        <ele>1746</ele>
        <time>2022-06-08T23:09:16Z</time>
      </trkpt>
      <trkpt lat="44.08353" lon="6.61548">
        <ele>1742</ele>
        <time>2022-06-08T23:09:22Z</time>
      </trkpt>
      <trkpt lat="44.08275" lon="6.61562">
        <ele>1730</ele>
        <time>2022-06-08T23:09:41Z</time>
      </trkpt>
      <trkpt lat="44.08272" lon="6.61561">
        <ele>1729</ele>
        <time>2022-06-08T23:09:41Z</time>
      </trkpt>
      <trkpt lat="44.08268" lon="6.61554">
        <ele>1728</ele>
        <time>2022-06-08T23:09:43Z</time>
      </trkpt>
      <trkpt lat="44.08251" lon="6.61555">
        <ele>1724</ele>
        <time>2022-06-08T23:09:47Z</time>
      </trkpt>
      <trkpt lat="44.08239" lon="6.61543">
        <ele>1720</ele>
        <time>2022-06-08T23:09:50Z</time>
      </trkpt>
      <trkpt lat="44.08171" lon="6.61551">
        <ele>1707</ele>
        <time>2022-06-08T23:10:06Z</time>
      </trkpt>
      <trkpt lat="44.08072" lon="6.61547">
        <ele>1687</ele>
        <time>2022-06-08T23:10:29Z</time>
      </trkpt>
      <trkpt lat="44.08057" lon="6.61549">
        <ele>1684</ele>
        <time>2022-06-08T23:10:33Z</time>
      </trkpt>
      <trkpt lat="44.0804" lon="6.61546">
        <ele>1680</ele>
        <time>2022-06-08T23:10:37Z</time>
      </trkpt>
      <trkpt lat="44.07941" lon="6.61553">
        <ele>1666</ele>
        <time>2022-06-08T23:11:00Z</time>
      </trkpt>
      <trkpt lat="44.07907" lon="6.6156">
        <ele>1662</ele>
        <time>2022-06-08T23:11:08Z</time>
      </trkpt>
      <trkpt lat="44.07874" lon="6.61559">
        <ele>1657</ele>
        <time>2022-06-08T23:11:16Z</time>
      </trkpt>
      <trkpt lat="44.07853" lon="6.61552">
        <ele>1652</ele>
        <time>2022-06-08T23:11:21Z</time>
      </trkpt>
      <trkpt lat="44.07843" lon="6.61552">
        <ele>1651</ele>
        <time>2022-06-08T23:11:23Z</time>
      </trkpt>
      <trkpt lat="44.07823" lon="6.61547">
        <ele>1647</ele>
        <time>2022-06-08T23:11:28Z</time>
      </trkpt>
      <trkpt lat="44.07776" lon="6.61555">
        <ele>1641</ele>
        <time>2022-06-08T23:11:39Z</time>
      </trkpt>
      <trkpt lat="44.07732" lon="6.61558">
        <ele>1634</ele>
        <time>2022-06-08T23:11:49Z</time>
      </trkpt>
      <trkpt lat="44.07711" lon="6.61575">
        <ele>1634</ele>
        <time>2022-06-08T23:11:55Z</time>
      </trkpt>
      <trkpt lat="44.07697" lon="6.61583">
        <ele>1633</ele>
        <time>2022-06-08T23:11:58Z</time>
      </trkpt>
      <trkpt lat="44.07677" lon="6.61593">
        <ele>1631</ele>
        <time>2022-06-08T23:12:03Z</time>
      </trkpt>
      <trkpt lat="44.07656" lon="6.616">
        <ele>1627</ele>
        <time>2022-06-08T23:12:08Z</time>
      </trkpt>
      <trkpt lat="44.07625" lon="6.616">
        <ele>1620</ele>
        <time>2022-06-08T23:12:16Z</time>
      </trkpt>
      <trkpt lat="44.07593" lon="6.61604">
        <ele>1613</ele>
        <time>2022-06-08T23:12:23Z</time>
      </trkpt>
      <trkpt lat="44.07562" lon="6.6162">
        <ele>1610</ele>
        <time>2022-06-08T23:12:31Z</time>
      </trkpt>
      <trkpt lat="44.0754" lon="6.61623">
        <ele>1608</ele>
        <time>2022-06-08T23:12:36Z</time>
      </trkpt>
      <trkpt lat="44.07514" lon="6.61631">
        <ele>1606</ele>
        <time>2022-06-08T23:12:42Z</time>
      </trkpt>
      <trkpt lat="44.07514" lon="6.61629">
        <ele>1606</ele>
        <time>2022-06-08T23:12:43Z</time>
      </trkpt>
      <trkpt lat="44.07495" lon="6.61631">
        <ele>1604</ele>
        <time>2022-06-08T23:12:47Z</time>
      </trkpt>
      <trkpt lat="44.07475" lon="6.61638">
        <ele>1603</ele>
        <time>2022-06-08T23:12:52Z</time>
      </trkpt>
      <trkpt lat="44.07456" lon="6.61637">
        <ele>1602</ele>
        <time>2022-06-08T23:12:56Z</time>
      </trkpt>
      <trkpt lat="44.07427" lon="6.6163">
        <ele>1599</ele>
        <time>2022-06-08T23:13:03Z</time>
      </trkpt>
      <trkpt lat="44.07391" lon="6.61617">
        <ele>1598</ele>
        <time>2022-06-08T23:13:12Z</time>
      </trkpt>
      <trkpt lat="44.07374" lon="6.61617">
        <ele>1597</ele>
        <time>2022-06-08T23:13:16Z</time>
      </trkpt>
      <trkpt lat="44.07365" lon="6.61621">
        <ele>1597</ele>
        <time>2022-06-08T23:13:18Z</time>
      </trkpt>
      <trkpt lat="44.07359" lon="6.61621">
        <ele>1597</ele>
        <time>2022-06-08T23:13:19Z</time>
      </trkpt>
      <trkpt lat="44.07349" lon="6.61616">
        <ele>1597</ele>
        <time>2022-06-08T23:13:22Z</time>
      </trkpt>
      <trkpt lat="44.07328" lon="6.61598">
        <ele>1596</ele>
        <time>2022-06-08T23:13:28Z</time>
      </trkpt>
      <trkpt lat="44.07317" lon="6.61593">
        <ele>1595</ele>
        <time>2022-06-08T23:13:30Z</time>
      </trkpt>
      <trkpt lat="44.07299" lon="6.6159">
        <ele>1595</ele>
        <time>2022-06-08T23:13:35Z</time>
      </trkpt>
      <trkpt lat="44.07279" lon="6.6158">
        <ele>1594</ele>
        <time>2022-06-08T23:13:40Z</time>
      </trkpt>
      <trkpt lat="44.07248" lon="6.61576">
        <ele>1594</ele>
        <time>2022-06-08T23:13:47Z</time>
      </trkpt>
      <trkpt lat="44.07231" lon="6.61579">
        <ele>1594</ele>
        <time>2022-06-08T23:13:51Z</time>
      </trkpt>
      <trkpt lat="44.07206" lon="6.61572">
        <ele>1594</ele>
        <time>2022-06-08T23:13:57Z</time>
      </trkpt>
      <trkpt lat="44.07188" lon="6.61563">
        <ele>1593</ele>
        <time>2022-06-08T23:14:01Z</time>
      </trkpt>
      <trkpt lat="44.07163" lon="6.61557">
        <ele>1592</ele>
        <time>2022-06-08T23:14:07Z</time>
      </trkpt>
      <trkpt lat="44.07144" lon="6.61544">
        <ele>1590</ele>
        <time>2022-06-08T23:14:12Z</time>
      </trkpt>
      <trkpt lat="44.07138" lon="6.61534">
        <ele>1588</ele>
        <time>2022-06-08T23:14:14Z</time>
      </trkpt>
      <trkpt lat="44.07138" lon="6.61525">
        <ele>1587</ele>
        <time>2022-06-08T23:14:16Z</time>
      </trkpt>
      <trkpt lat="44.0712" lon="6.61485">
        <ele>1581</ele>
        <time>2022-06-08T23:14:24Z</time>
      </trkpt>
      <trkpt lat="44.07099" lon="6.61465">
        <ele>1574</ele>
        <time>2022-06-08T23:14:30Z</time>
      </trkpt>
      <trkpt lat="44.07069" lon="6.61456">
        <ele>1568</ele>
        <time>2022-06-08T23:14:37Z</time>
      </trkpt>
      <trkpt lat="44.07063" lon="6.61453">
        <ele>1567</ele>
        <time>2022-06-08T23:14:38Z</time>
      </trkpt>
      <trkpt lat="44.07057" lon="6.61445">
        <ele>1564</ele>
        <time>2022-06-08T23:14:40Z</time>
      </trkpt>
      <trkpt lat="44.07051" lon="6.61443">
        <ele>1562</ele>
        <time>2022-06-08T23:14:42Z</time>
      </trkpt>
      <trkpt lat="44.07034" lon="6.61444">
        <ele>1560</ele>
        <time>2022-06-08T23:14:46Z</time>
      </trkpt>
      <trkpt lat="44.07023" lon="6.61441">
        <ele>1557</ele>
        <time>2022-06-08T23:14:48Z</time>
      </trkpt>
      <trkpt lat="44.07008" lon="6.61429">
        <ele>1552</ele>
        <time>2022-06-08T23:14:52Z</time>
      </trkpt>
      <trkpt lat="44.06985" lon="6.61416">
        <ele>1543</ele>
        <time>2022-06-08T23:14:58Z</time>
      </trkpt>
      <trkpt lat="44.06949" lon="6.61407">
        <ele>1533</ele>
        <time>2022-06-08T23:15:07Z</time>
      </trkpt>
      <trkpt lat="44.06935" lon="6.61393">
        <ele>1526</ele>
        <time>2022-06-08T23:15:11Z</time>
      </trkpt>
      <trkpt lat="44.06923" lon="6.61385">
        <ele>1522</ele>
        <time>2022-06-08T23:15:14Z</time>
      </trkpt>
      <trkpt lat="44.06913" lon="6.6139">
        <ele>1521</ele>
        <time>2022-06-08T23:15:16Z</time>
      </trkpt>
      <trkpt lat="44.06913" lon="6.61426">
        <ele>1528</ele>
        <time>2022-06-08T23:15:22Z</time>
      </trkpt>
      <trkpt lat="44.06911" lon="6.61424">
        <ele>1526</ele>
        <time>2022-06-08T23:15:23Z</time>
      </trkpt>
      <trkpt lat="44.06912" lon="6.61401">
        <ele>1523</ele>
        <time>2022-06-08T23:15:27Z</time>
      </trkpt>
      <trkpt lat="44.06917" lon="6.61369">
        <ele>1518</ele>
        <time>2022-06-08T23:15:32Z</time>
      </trkpt>
      <trkpt lat="44.06955" lon="6.61344">
        <ele>1517</ele>
        <time>2022-06-08T23:15:42Z</time>
      </trkpt>
      <trkpt lat="44.06957" lon="6.61338">
        <ele>1515</ele>
        <time>2022-06-08T23:15:43Z</time>
      </trkpt>
      <trkpt lat="44.06968" lon="6.61346">
        <ele>1519</ele>
        <time>2022-06-08T23:15:46Z</time>
      </trkpt>
      <trkpt lat="44.07024" lon="6.6136">
        <ele>1532</ele>
        <time>2022-06-08T23:15:59Z</time>
      </trkpt>
      <trkpt lat="44.07029" lon="6.61358">
        <ele>1533</ele>
        <time>2022-06-08T23:16:01Z</time>
      </trkpt>
      <trkpt lat="44.07033" lon="6.61353">
        <ele>1532</ele>
        <time>2022-06-08T23:16:02Z</time>
      </trkpt>
      <trkpt lat="44.07039" lon="6.61331">
        <ele>1526</ele>
        <time>2022-06-08T23:16:06Z</time>
      </trkpt>
      <trkpt lat="44.07047" lon="6.61317">
        <ele>1522</ele>
        <time>2022-06-08T23:16:09Z</time>
      </trkpt>
      <trkpt lat="44.07064" lon="6.613">
        <ele>1519</ele>
        <time>2022-06-08T23:16:14Z</time>
      </trkpt>
      <trkpt lat="44.07107" lon="6.6127">
        <ele>1517</ele>
        <time>2022-06-08T23:16:25Z</time>
      </trkpt>
      <trkpt lat="44.07284" lon="6.61178">
        <ele>1520</ele>
        <time>2022-06-08T23:17:09Z</time>
      </trkpt>
      <trkpt lat="44.07303" lon="6.61162">
        <ele>1521</ele>
        <time>2022-06-08T23:17:14Z</time>
      </trkpt>
      <trkpt lat="44.07309" lon="6.61153">
        <ele>1523</ele>
        <time>2022-06-08T23:17:16Z</time>
      </trkpt>
      <trkpt lat="44.07319" lon="6.61127">
        <ele>1527</ele>
        <time>2022-06-08T23:17:21Z</time>
      </trkpt>
      <trkpt lat="44.07319" lon="6.61107">
        <ele>1528</ele>
        <time>2022-06-08T23:17:25Z</time>
      </trkpt>
      <trkpt lat="44.07315" lon="6.61098">
        <ele>1528</ele>
        <time>2022-06-08T23:17:26Z</time>
      </trkpt>
      <trkpt lat="44.0731" lon="6.61093">
        <ele>1527</ele>
        <time>2022-06-08T23:17:28Z</time>
      </trkpt>
      <trkpt lat="44.07304" lon="6.61091">
        <ele>1527</ele>
        <time>2022-06-08T23:17:29Z</time>
      </trkpt>
      <trkpt lat="44.07287" lon="6.61092">
        <ele>1524</ele>
        <time>2022-06-08T23:17:33Z</time>
      </trkpt>
      <trkpt lat="44.07267" lon="6.61085">
        <ele>1521</ele>
        <time>2022-06-08T23:17:38Z</time>
      </trkpt>
      <trkpt lat="44.0722" lon="6.61055">
        <ele>1524</ele>
        <time>2022-06-08T23:17:50Z</time>
      </trkpt>
      <trkpt lat="44.0718" lon="6.61016">
        <ele>1527</ele>
        <time>2022-06-08T23:18:02Z</time>
      </trkpt>
      <trkpt lat="44.07132" lon="6.6099">
        <ele>1520</ele>
        <time>2022-06-08T23:18:14Z</time>
      </trkpt>
      <trkpt lat="44.07077" lon="6.60978">
        <ele>1503</ele>
        <time>2022-06-08T23:18:27Z</time>
      </trkpt>
      <trkpt lat="44.07061" lon="6.60949">
        <ele>1498</ele>
        <time>2022-06-08T23:18:33Z</time>
      </trkpt>
      <trkpt lat="44.07064" lon="6.60937">
        <ele>1503</ele>
        <time>2022-06-08T23:18:35Z</time>
      </trkpt>
      <trkpt lat="44.07093" lon="6.60887">
        <ele>1523</ele>
        <time>2022-06-08T23:18:46Z</time>
      </trkpt>
      <trkpt lat="44.07095" lon="6.60864">
        <ele>1525</ele>
        <time>2022-06-08T23:18:50Z</time>
      </trkpt>
      <trkpt lat="44.07101" lon="6.60842">
        <ele>1528</ele>
        <time>2022-06-08T23:18:53Z</time>
      </trkpt>
      <trkpt lat="44.071" lon="6.60824">
        <ele>1530</ele>
        <time>2022-06-08T23:18:57Z</time>
      </trkpt>
      <trkpt lat="44.07098" lon="6.60824">
        <ele>1529</ele>
        <time>2022-06-08T23:18:57Z</time>
      </trkpt>
      <trkpt lat="44.07083" lon="6.60784">
        <ele>1529</ele>
        <time>2022-06-08T23:19:05Z</time>
      </trkpt>
      <trkpt lat="44.07065" lon="6.60751">
        <ele>1527</ele>
        <time>2022-06-08T23:19:12Z</time>
      </trkpt>
      <trkpt lat="44.07044" lon="6.60723">
        <ele>1524</ele>
        <time>2022-06-08T23:19:18Z</time>
      </trkpt>
      <trkpt lat="44.07028" lon="6.60686">
        <ele>1527</ele>
        <time>2022-06-08T23:19:26Z</time>
      </trkpt>
      <trkpt lat="44.07022" lon="6.60678">
        <ele>1527</ele>
        <time>2022-06-08T23:19:27Z</time>
      </trkpt>
      <trkpt lat="44.07006" lon="6.60671">
        <ele>1523</ele>
        <time>2022-06-08T23:19:31Z</time>
      </trkpt>
      <trkpt lat="44.06988" lon="6.60674">
        <ele>1515</ele>
        <time>2022-06-08T23:19:36Z</time>
      </trkpt>
      <trkpt lat="44.06962" lon="6.60674">
        <ele>1506</ele>
        <time>2022-06-08T23:19:42Z</time>
      </trkpt>
      <trkpt lat="44.06954" lon="6.60669">
        <ele>1505</ele>
        <time>2022-06-08T23:19:44Z</time>
      </trkpt>
      <trkpt lat="44.0694" lon="6.60654">
        <ele>1505</ele>
        <time>2022-06-08T23:19:48Z</time>
      </trkpt>
      <trkpt lat="44.06912" lon="6.60602">
        <ele>1513</ele>
        <time>2022-06-08T23:19:59Z</time>
      </trkpt>
      <trkpt lat="44.06905" lon="6.60594">
        <ele>1513</ele>
        <time>2022-06-08T23:20:01Z</time>
      </trkpt>
      <trkpt lat="44.06887" lon="6.60581">
        <ele>1511</ele>
        <time>2022-06-08T23:20:06Z</time>
      </trkpt>
      <trkpt lat="44.06842" lon="6.60555">
        <ele>1507</ele>
        <time>2022-06-08T23:20:17Z</time>
      </trkpt>
      <trkpt lat="44.06769" lon="6.60518">
        <ele>1503</ele>
        <time>2022-06-08T23:20:35Z</time>
      </trkpt>
      <trkpt lat="44.06703" lon="6.60501">
        <ele>1501</ele>
        <time>2022-06-08T23:20:51Z</time>
      </trkpt>
      <trkpt lat="44.06596" lon="6.60497">
        <ele>1485</ele>
        <time>2022-06-08T23:21:16Z</time>
      </trkpt>
      <trkpt lat="44.06577" lon="6.60493">
        <ele>1484</ele>
        <time>2022-06-08T23:21:20Z</time>
      </trkpt>
      <trkpt lat="44.06535" lon="6.60475">
        <ele>1488</ele>
        <time>2022-06-08T23:21:31Z</time>
      </trkpt>
      <trkpt lat="44.06472" lon="6.60464">
        <ele>1489</ele>
        <time>2022-06-08T23:21:45Z</time>
      </trkpt>
      <trkpt lat="44.06368" lon="6.60501">
        <ele>1481</ele>
        <time>2022-06-08T23:22:10Z</time>
      </trkpt>
      <trkpt lat="44.06292" lon="6.60504">
        <ele>1485</ele>
        <time>2022-06-08T23:22:28Z</time>
      </trkpt>
      <trkpt lat="44.06267" lon="6.60508">
        <ele>1486</ele>
        <time>2022-06-08T23:22:34Z</time>
      </trkpt>
      <trkpt lat="44.06259" lon="6.60512">
        <ele>1485</ele>
        <time>2022-06-08T23:22:36Z</time>
      </trkpt>
      <trkpt lat="44.06251" lon="6.60518">
        <ele>1483</ele>
        <time>2022-06-08T23:22:38Z</time>
      </trkpt>
      <trkpt lat="44.0623" lon="6.60542">
        <ele>1479</ele>
        <time>2022-06-08T23:22:45Z</time>
      </trkpt>
      <trkpt lat="44.06172" lon="6.60594">
        <ele>1476</ele>
        <time>2022-06-08T23:23:01Z</time>
      </trkpt>
      <trkpt lat="44.06102" lon="6.6068">
        <ele>1465</ele>
        <time>2022-06-08T23:23:22Z</time>
      </trkpt>
      <trkpt lat="44.0606" lon="6.60723">
        <ele>1460</ele>
        <time>2022-06-08T23:23:35Z</time>
      </trkpt>
      <trkpt lat="44.06033" lon="6.6074">
        <ele>1456</ele>
        <time>2022-06-08T23:23:42Z</time>
      </trkpt>
      <trkpt lat="44.05882" lon="6.6077">
        <ele>1442</ele>
        <time>2022-06-08T23:24:17Z</time>
      </trkpt>
      <trkpt lat="44.05865" lon="6.60765">
        <ele>1442</ele>
        <time>2022-06-08T23:24:21Z</time>
      </trkpt>
      <trkpt lat="44.05836" lon="6.60734">
        <ele>1450</ele>
        <time>2022-06-08T23:24:30Z</time>
      </trkpt>
      <trkpt lat="44.0582" lon="6.60721">
        <ele>1454</ele>
        <time>2022-06-08T23:24:34Z</time>
      </trkpt>
      <trkpt lat="44.05803" lon="6.60717">
        <ele>1454</ele>
        <time>2022-06-08T23:24:38Z</time>
      </trkpt>
      <trkpt lat="44.05778" lon="6.60721">
        <ele>1451</ele>
        <time>2022-06-08T23:24:44Z</time>
      </trkpt>
      <trkpt lat="44.05735" lon="6.60745">
        <ele>1441</ele>
        <time>2022-06-08T23:24:55Z</time>
      </trkpt>
      <trkpt lat="44.05661" lon="6.60754">
        <ele>1443</ele>
        <time>2022-06-08T23:25:12Z</time>
      </trkpt>
      <trkpt lat="44.05639" lon="6.60753">
        <ele>1440</ele>
        <time>2022-06-08T23:25:17Z</time>
      </trkpt>
      <trkpt lat="44.05631" lon="6.6075">
        <ele>1440</ele>
        <time>2022-06-08T23:25:19Z</time>
      </trkpt>
      <trkpt lat="44.05605" lon="6.6073">
        <ele>1443</ele>
        <time>2022-06-08T23:25:26Z</time>
      </trkpt>
      <trkpt lat="44.05539" lon="6.60665">
        <ele>1449</ele>
        <time>2022-06-08T23:25:45Z</time>
      </trkpt>
      <trkpt lat="44.05491" lon="6.60644">
        <ele>1444</ele>
        <time>2022-06-08T23:25:57Z</time>
      </trkpt>
      <trkpt lat="44.0548" lon="6.60638">
        <ele>1441</ele>
        <time>2022-06-08T23:26:00Z</time>
      </trkpt>
      <trkpt lat="44.0547" lon="6.60628">
        <ele>1441</ele>
        <time>2022-06-08T23:26:02Z</time>
      </trkpt>
      <trkpt lat="44.05417" lon="6.60572">
        <ele>1442</ele>
        <time>2022-06-08T23:26:18Z</time>
      </trkpt>
      <trkpt lat="44.05356" lon="6.60487">
        <ele>1441</ele>
        <time>2022-06-08T23:26:38Z</time>
      </trkpt>
      <trkpt lat="44.05291" lon="6.60433">
        <ele>1431</ele>
        <time>2022-06-08T23:26:56Z</time>
      </trkpt>
      <trkpt lat="44.05281" lon="6.60417">
        <ele>1432</ele>
        <time>2022-06-08T23:26:59Z</time>
      </trkpt>
      <trkpt lat="44.05271" lon="6.60376">
        <ele>1437</ele>
        <time>2022-06-08T23:27:07Z</time>
      </trkpt>
      <trkpt lat="44.05266" lon="6.60368">
        <ele>1438</ele>
        <time>2022-06-08T23:27:08Z</time>
      </trkpt>
      <trkpt lat="44.05252" lon="6.60359">
        <ele>1435</ele>
        <time>2022-06-08T23:27:12Z</time>
      </trkpt>
      <trkpt lat="44.05219" lon="6.60355">
        <ele>1429</ele>
        <time>2022-06-08T23:27:20Z</time>
      </trkpt>
      <trkpt lat="44.05196" lon="6.60342">
        <ele>1426</ele>
        <time>2022-06-08T23:27:26Z</time>
      </trkpt>
      <trkpt lat="44.05183" lon="6.60328">
        <ele>1425</ele>
        <time>2022-06-08T23:27:29Z</time>
      </trkpt>
      <trkpt lat="44.05152" lon="6.60276">
        <ele>1431</ele>
        <time>2022-06-08T23:27:41Z</time>
      </trkpt>
      <trkpt lat="44.05116" lon="6.60232">
        <ele>1431</ele>
        <time>2022-06-08T23:27:52Z</time>
      </trkpt>
      <trkpt lat="44.05096" lon="6.60185">
        <ele>1429</ele>
        <time>2022-06-08T23:28:01Z</time>
      </trkpt>
      <trkpt lat="44.0509" lon="6.6018">
        <ele>1428</ele>
        <time>2022-06-08T23:28:03Z</time>
      </trkpt>
      <trkpt lat="44.05076" lon="6.60179">
        <ele>1428</ele>
        <time>2022-06-08T23:28:06Z</time>
      </trkpt>
      <trkpt lat="44.05066" lon="6.60169">
        <ele>1430</ele>
        <time>2022-06-08T23:28:09Z</time>
      </trkpt>
      <trkpt lat="44.05024" lon="6.6009">
        <ele>1432</ele>
        <time>2022-06-08T23:28:25Z</time>
      </trkpt>
      <trkpt lat="44.04995" lon="6.60028">
        <ele>1430</ele>
        <time>2022-06-08T23:28:38Z</time>
      </trkpt>
      <trkpt lat="44.04975" lon="6.59947">
        <ele>1431</ele>
        <time>2022-06-08T23:28:52Z</time>
      </trkpt>
      <trkpt lat="44.04958" lon="6.59852">
        <ele>1431</ele>
        <time>2022-06-08T23:29:09Z</time>
      </trkpt>
      <trkpt lat="44.04939" lon="6.59764">
        <ele>1429</ele>
        <time>2022-06-08T23:29:24Z</time>
      </trkpt>
      <trkpt lat="44.04914" lon="6.59681">
        <ele>1427</ele>
        <time>2022-06-08T23:29:39Z</time>
      </trkpt>
      <trkpt lat="44.04891" lon="6.59616">
        <ele>1429</ele>
        <time>2022-06-08T23:29:51Z</time>
      </trkpt>
      <trkpt lat="44.04848" lon="6.5955">
        <ele>1432</ele>
        <time>2022-06-08T23:30:06Z</time>
      </trkpt>
      <trkpt lat="44.04687" lon="6.59346">
        <ele>1433</ele>
        <time>2022-06-08T23:30:57Z</time>
      </trkpt>
      <trkpt lat="44.04683" lon="6.59329">
        <ele>1432</ele>
        <time>2022-06-08T23:31:00Z</time>
      </trkpt>
      <trkpt lat="44.04685" lon="6.59325">
        <ele>1432</ele>
        <time>2022-06-08T23:31:01Z</time>
      </trkpt>
      <trkpt lat="44.0469" lon="6.59321">
        <ele>1433</ele>
        <time>2022-06-08T23:31:02Z</time>
      </trkpt>
      <trkpt lat="44.04702" lon="6.59323">
        <ele>1434</ele>
        <time>2022-06-08T23:31:05Z</time>
      </trkpt>
    </trkseg>
  </trk>
</gpx>